<?xml version="1.0" encoding="UTF-8"?>
<gpx version="1.1" creator="2bulu-scraper" xmlns="http://www.topografix.com/GPX/1/1">
  <metadata><name>天仙硐小环线</name><desc>source: 2bulu.com trackId=75075225; exported 2026-09-01T14:37:27.009Z</desc>
    <bounds minlat="28.66159" minlon="105.380355" maxlat="28.6712" maxlon="105.402633"/>
    <link href="https://www.2bulu.com/track/t-jdfyjbUWvzXp%252FR2KBg5Tzw%253D%253D.htm"><text>2bulu 源页面</text></link>
  </metadata>
  <wpt lat="28.663106" lon="105.388612"><ele>270</ele><name>回归树</name></wpt>
  <wpt lat="28.662687" lon="105.39818"><ele>383</ele><name>瀑布</name></wpt>
  <wpt lat="28.665772" lon="105.381202"><ele>287</ele><name>乐道古镇停车场</name></wpt>
  <trk><name>天仙硐小环线</name>
      <trkseg>
        <trkpt lat="28.666665" lon="105.381798"><ele>311.8544</ele><time>2025-11-23T18:50:10.000Z</time></trkpt>
        <trkpt lat="28.666616" lon="105.381765"><ele>310.52298</ele><time>2025-11-23T18:50:15.000Z</time></trkpt>
        <trkpt lat="28.666567" lon="105.38177"><ele>308.40106</ele><time>2025-11-23T18:50:21.000Z</time></trkpt>
        <trkpt lat="28.666516" lon="105.381787"><ele>306.939</ele><time>2025-11-23T18:50:25.000Z</time></trkpt>
        <trkpt lat="28.66647" lon="105.381798"><ele>305.65637</ele><time>2025-11-23T18:50:29.000Z</time></trkpt>
        <trkpt lat="28.666418" lon="105.38181"><ele>304.08322</ele><time>2025-11-23T18:50:34.000Z</time></trkpt>
        <trkpt lat="28.666372" lon="105.381807"><ele>300.9467</ele><time>2025-11-23T18:50:36.000Z</time></trkpt>
        <trkpt lat="28.666346" lon="105.381858"><ele>302.0321</ele><time>2025-11-23T18:50:44.000Z</time></trkpt>
        <trkpt lat="28.666302" lon="105.381879"><ele>302.1949</ele><time>2025-11-23T18:50:51.000Z</time></trkpt>
        <trkpt lat="28.666264" lon="105.38191"><ele>303.93414</ele><time>2025-11-23T18:50:57.000Z</time></trkpt>
        <trkpt lat="28.666221" lon="105.381938"><ele>304.79865</ele><time>2025-11-23T18:51:10.000Z</time></trkpt>
        <trkpt lat="28.666159" lon="105.381923"><ele>305.96173</ele><time>2025-11-23T18:51:16.000Z</time></trkpt>
        <trkpt lat="28.666113" lon="105.381946"><ele>304.8722</ele><time>2025-11-23T18:51:23.000Z</time></trkpt>
        <trkpt lat="28.666066" lon="105.381959"><ele>305.10623</ele><time>2025-11-23T18:51:30.000Z</time></trkpt>
        <trkpt lat="28.666021" lon="105.381966"><ele>305.3559</ele><time>2025-11-23T18:51:36.000Z</time></trkpt>
        <trkpt lat="28.665973" lon="105.381963"><ele>307.03897</ele><time>2025-11-23T18:51:55.000Z</time></trkpt>
        <trkpt lat="28.665928" lon="105.381992"><ele>307.77347</ele><time>2025-11-23T18:52:01.000Z</time></trkpt>
        <trkpt lat="28.665889" lon="105.382026"><ele>308.67715</ele><time>2025-11-23T18:52:08.000Z</time></trkpt>
        <trkpt lat="28.665842" lon="105.382034"><ele>310.07016</ele><time>2025-11-23T18:52:13.000Z</time></trkpt>
        <trkpt lat="28.665804" lon="105.382069"><ele>309.88248</ele><time>2025-11-23T18:52:19.000Z</time></trkpt>
        <trkpt lat="28.665767" lon="105.382108"><ele>311.56238</ele><time>2025-11-23T18:52:30.000Z</time></trkpt>
        <trkpt lat="28.665758" lon="105.382164"><ele>315.0255</ele><time>2025-11-23T18:52:47.000Z</time></trkpt>
        <trkpt lat="28.665735" lon="105.382223"><ele>315.3244</ele><time>2025-11-23T18:52:55.000Z</time></trkpt>
        <trkpt lat="28.665712" lon="105.382272"><ele>318.3339</ele><time>2025-11-23T18:53:05.000Z</time></trkpt>
        <trkpt lat="28.665716" lon="105.382326"><ele>317.27863</ele><time>2025-11-23T18:53:21.000Z</time></trkpt>
        <trkpt lat="28.66567" lon="105.382348"><ele>318.0554</ele><time>2025-11-23T18:53:27.000Z</time></trkpt>
        <trkpt lat="28.665628" lon="105.382388"><ele>320.66794</ele><time>2025-11-23T18:53:34.000Z</time></trkpt>
        <trkpt lat="28.665594" lon="105.382427"><ele>321.06992</ele><time>2025-11-23T18:53:40.000Z</time></trkpt>
        <trkpt lat="28.665553" lon="105.382467"><ele>322.7016</ele><time>2025-11-23T18:53:44.000Z</time></trkpt>
        <trkpt lat="28.665534" lon="105.382514"><ele>321.90692</ele><time>2025-11-23T18:53:53.000Z</time></trkpt>
        <trkpt lat="28.665507" lon="105.382563"><ele>325.40213</ele><time>2025-11-23T18:54:01.000Z</time></trkpt>
        <trkpt lat="28.665451" lon="105.382584"><ele>323.89127</ele><time>2025-11-23T18:54:08.000Z</time></trkpt>
        <trkpt lat="28.665429" lon="105.382637"><ele>327.44537</ele><time>2025-11-23T18:54:14.000Z</time></trkpt>
        <trkpt lat="28.665383" lon="105.382627"><ele>325.53067</ele><time>2025-11-23T18:54:22.000Z</time></trkpt>
        <trkpt lat="28.665347" lon="105.382658"><ele>321.90942</ele><time>2025-11-23T18:54:31.000Z</time></trkpt>
        <trkpt lat="28.665296" lon="105.38267"><ele>323.6093</ele><time>2025-11-23T18:54:36.000Z</time></trkpt>
        <trkpt lat="28.66525" lon="105.382701"><ele>323.21927</ele><time>2025-11-23T18:54:41.000Z</time></trkpt>
        <trkpt lat="28.665226" lon="105.382745"><ele>321.44754</ele><time>2025-11-23T18:54:46.000Z</time></trkpt>
        <trkpt lat="28.665223" lon="105.382799"><ele>323.69492</ele><time>2025-11-23T18:54:53.000Z</time></trkpt>
        <trkpt lat="28.665222" lon="105.382853"><ele>323.6789</ele><time>2025-11-23T18:55:03.000Z</time></trkpt>
        <trkpt lat="28.665223" lon="105.382906"><ele>324.84482</ele><time>2025-11-23T18:55:08.000Z</time></trkpt>
        <trkpt lat="28.665214" lon="105.382971"><ele>324.2187</ele><time>2025-11-23T18:55:16.000Z</time></trkpt>
        <trkpt lat="28.665234" lon="105.382924"><ele>327.0761</ele><time>2025-11-23T18:55:43.000Z</time></trkpt>
        <trkpt lat="28.665253" lon="105.382869"><ele>327.45117</ele><time>2025-11-23T18:55:50.000Z</time></trkpt>
        <trkpt lat="28.665246" lon="105.382813"><ele>326.1871</ele><time>2025-11-23T18:55:54.000Z</time></trkpt>
        <trkpt lat="28.665247" lon="105.382757"><ele>325.8267</ele><time>2025-11-23T18:55:58.000Z</time></trkpt>
        <trkpt lat="28.665264" lon="105.382709"><ele>325.04324</ele><time>2025-11-23T18:56:02.000Z</time></trkpt>
        <trkpt lat="28.665301" lon="105.382673"><ele>323.50266</ele><time>2025-11-23T18:56:08.000Z</time></trkpt>
        <trkpt lat="28.665341" lon="105.38264"><ele>322.4663</ele><time>2025-11-23T18:56:13.000Z</time></trkpt>
        <trkpt lat="28.665394" lon="105.382641"><ele>323.23273</ele><time>2025-11-23T18:56:24.000Z</time></trkpt>
        <trkpt lat="28.66544" lon="105.382622"><ele>324.65503</ele><time>2025-11-23T18:56:29.000Z</time></trkpt>
        <trkpt lat="28.665478" lon="105.382593"><ele>326.20493</ele><time>2025-11-23T18:56:33.000Z</time></trkpt>
        <trkpt lat="28.66551" lon="105.382552"><ele>326.57053</ele><time>2025-11-23T18:56:37.000Z</time></trkpt>
        <trkpt lat="28.665545" lon="105.382515"><ele>324.42392</ele><time>2025-11-23T18:56:41.000Z</time></trkpt>
        <trkpt lat="28.665568" lon="105.38246"><ele>323.32483</ele><time>2025-11-23T18:56:45.000Z</time></trkpt>
        <trkpt lat="28.665595" lon="105.382387"><ele>321.93326</ele><time>2025-11-23T18:56:49.000Z</time></trkpt>
        <trkpt lat="28.665636" lon="105.382359"><ele>319.74026</ele><time>2025-11-23T18:56:59.000Z</time></trkpt>
        <trkpt lat="28.665673" lon="105.382314"><ele>318.62924</ele><time>2025-11-23T18:57:06.000Z</time></trkpt>
        <trkpt lat="28.665697" lon="105.382266"><ele>316.832</ele><time>2025-11-23T18:57:13.000Z</time></trkpt>
        <trkpt lat="28.665725" lon="105.382218"><ele>315.84247</ele><time>2025-11-23T18:57:22.000Z</time></trkpt>
        <trkpt lat="28.665729" lon="105.382161"><ele>315.123</ele><time>2025-11-23T18:57:28.000Z</time></trkpt>
        <trkpt lat="28.665755" lon="105.382114"><ele>313.02835</ele><time>2025-11-23T18:57:34.000Z</time></trkpt>
        <trkpt lat="28.665783" lon="105.382069"><ele>312.63336</ele><time>2025-11-23T18:57:51.000Z</time></trkpt>
        <trkpt lat="28.665818" lon="105.38203"><ele>310.17896</ele><time>2025-11-23T18:58:10.000Z</time></trkpt>
        <trkpt lat="28.665865" lon="105.382021"><ele>308.58472</ele><time>2025-11-23T18:58:17.000Z</time></trkpt>
        <trkpt lat="28.665921" lon="105.382007"><ele>308.72488</ele><time>2025-11-23T18:58:21.000Z</time></trkpt>
        <trkpt lat="28.665964" lon="105.381989"><ele>309.3956</ele><time>2025-11-23T18:58:25.000Z</time></trkpt>
        <trkpt lat="28.666008" lon="105.381973"><ele>309.3052</ele><time>2025-11-23T18:58:30.000Z</time></trkpt>
        <trkpt lat="28.666066" lon="105.381967"><ele>308.59415</ele><time>2025-11-23T18:58:36.000Z</time></trkpt>
        <trkpt lat="28.666118" lon="105.381957"><ele>308.0645</ele><time>2025-11-23T18:58:40.000Z</time></trkpt>
        <trkpt lat="28.666174" lon="105.381946"><ele>307.5232</ele><time>2025-11-23T18:58:45.000Z</time></trkpt>
        <trkpt lat="28.666221" lon="105.381928"><ele>306.81735</ele><time>2025-11-23T18:58:50.000Z</time></trkpt>
        <trkpt lat="28.666272" lon="105.381938"><ele>305.37686</ele><time>2025-11-23T18:58:54.000Z</time></trkpt>
        <trkpt lat="28.66632" lon="105.381905"><ele>302.45087</ele><time>2025-11-23T18:58:58.000Z</time></trkpt>
        <trkpt lat="28.666346" lon="105.381863"><ele>302.66446</ele><time>2025-11-23T18:59:02.000Z</time></trkpt>
        <trkpt lat="28.666325" lon="105.381816"><ele>303.46545</ele><time>2025-11-23T18:59:07.000Z</time></trkpt>
        <trkpt lat="28.666288" lon="105.381779"><ele>302.14075</ele><time>2025-11-23T18:59:14.000Z</time></trkpt>
        <trkpt lat="28.666238" lon="105.381776"><ele>299.0729</ele><time>2025-11-23T18:59:18.000Z</time></trkpt>
        <trkpt lat="28.666193" lon="105.381763"><ele>298.11664</ele><time>2025-11-23T18:59:22.000Z</time></trkpt>
        <trkpt lat="28.666147" lon="105.381728"><ele>297.14258</ele><time>2025-11-23T18:59:26.000Z</time></trkpt>
        <trkpt lat="28.666098" lon="105.38169"><ele>296.1126</ele><time>2025-11-23T18:59:30.000Z</time></trkpt>
        <trkpt lat="28.666046" lon="105.381656"><ele>295.01425</ele><time>2025-11-23T18:59:34.000Z</time></trkpt>
        <trkpt lat="28.666004" lon="105.381631"><ele>293.5601</ele><time>2025-11-23T18:59:39.000Z</time></trkpt>
        <trkpt lat="28.665968" lon="105.381594"><ele>292.9785</ele><time>2025-11-23T18:59:43.000Z</time></trkpt>
        <trkpt lat="28.665929" lon="105.381568"><ele>291.25076</ele><time>2025-11-23T18:59:46.000Z</time></trkpt>
        <trkpt lat="28.665885" lon="105.381536"><ele>291.12643</ele><time>2025-11-23T18:59:50.000Z</time></trkpt>
        <trkpt lat="28.665831" lon="105.38154"><ele>289.61978</ele><time>2025-11-23T18:59:54.000Z</time></trkpt>
        <trkpt lat="28.665785" lon="105.381526"><ele>290.11905</ele><time>2025-11-23T18:59:58.000Z</time></trkpt>
        <trkpt lat="28.665741" lon="105.381545"><ele>289.1293</ele><time>2025-11-23T19:00:02.000Z</time></trkpt>
        <trkpt lat="28.665694" lon="105.381518"><ele>290.79132</ele><time>2025-11-23T19:00:06.000Z</time></trkpt>
        <trkpt lat="28.665644" lon="105.381529"><ele>292.21747</ele><time>2025-11-23T19:00:11.000Z</time></trkpt>
        <trkpt lat="28.665602" lon="105.381565"><ele>290.25235</ele><time>2025-11-23T19:00:20.000Z</time></trkpt>
        <trkpt lat="28.665559" lon="105.381584"><ele>289.0423</ele><time>2025-11-23T19:00:25.000Z</time></trkpt>
        <trkpt lat="28.66551" lon="105.381607"><ele>288.775</ele><time>2025-11-23T19:00:31.000Z</time></trkpt>
        <trkpt lat="28.665467" lon="105.381626"><ele>288.90207</ele><time>2025-11-23T19:00:36.000Z</time></trkpt>
        <trkpt lat="28.665422" lon="105.381641"><ele>287.82126</ele><time>2025-11-23T19:00:41.000Z</time></trkpt>
        <trkpt lat="28.665376" lon="105.381652"><ele>287.27774</ele><time>2025-11-23T19:00:46.000Z</time></trkpt>
        <trkpt lat="28.665324" lon="105.381672"><ele>287.76233</ele><time>2025-11-23T19:00:51.000Z</time></trkpt>
        <trkpt lat="28.66528" lon="105.381699"><ele>287.02548</ele><time>2025-11-23T19:00:55.000Z</time></trkpt>
        <trkpt lat="28.665222" lon="105.381721"><ele>285.7793</ele><time>2025-11-23T19:01:00.000Z</time></trkpt>
        <trkpt lat="28.66517" lon="105.381747"><ele>286.9483</ele><time>2025-11-23T19:01:04.000Z</time></trkpt>
        <trkpt lat="28.665121" lon="105.381754"><ele>285.56982</ele><time>2025-11-23T19:01:09.000Z</time></trkpt>
        <trkpt lat="28.66507" lon="105.381771"><ele>285.34067</ele><time>2025-11-23T19:01:15.000Z</time></trkpt>
        <trkpt lat="28.665019" lon="105.381783"><ele>284.4779</ele><time>2025-11-23T19:01:20.000Z</time></trkpt>
        <trkpt lat="28.664968" lon="105.381805"><ele>284.7607</ele><time>2025-11-23T19:01:26.000Z</time></trkpt>
        <trkpt lat="28.664923" lon="105.381827"><ele>284.81122</ele><time>2025-11-23T19:01:37.000Z</time></trkpt>
        <trkpt lat="28.664881" lon="105.381844"><ele>284.9749</ele><time>2025-11-23T19:01:43.000Z</time></trkpt>
        <trkpt lat="28.664833" lon="105.381836"><ele>284.66498</ele><time>2025-11-23T19:01:46.000Z</time></trkpt>
        <trkpt lat="28.664794" lon="105.381861"><ele>284.71085</ele><time>2025-11-23T19:01:54.000Z</time></trkpt>
        <trkpt lat="28.664744" lon="105.381866"><ele>285.01068</ele><time>2025-11-23T19:02:01.000Z</time></trkpt>
        <trkpt lat="28.66469" lon="105.381877"><ele>286.00247</ele><time>2025-11-23T19:02:11.000Z</time></trkpt>
        <trkpt lat="28.664638" lon="105.38188"><ele>288.12302</ele><time>2025-11-23T19:02:18.000Z</time></trkpt>
        <trkpt lat="28.664593" lon="105.381883"><ele>287.0317</ele><time>2025-11-23T19:02:23.000Z</time></trkpt>
        <trkpt lat="28.66455" lon="105.381915"><ele>285.6773</ele><time>2025-11-23T19:02:30.000Z</time></trkpt>
        <trkpt lat="28.664508" lon="105.381956"><ele>285.03595</ele><time>2025-11-23T19:02:35.000Z</time></trkpt>
        <trkpt lat="28.664474" lon="105.382006"><ele>284.69748</ele><time>2025-11-23T19:02:41.000Z</time></trkpt>
        <trkpt lat="28.664446" lon="105.382056"><ele>285.0427</ele><time>2025-11-23T19:02:46.000Z</time></trkpt>
        <trkpt lat="28.664415" lon="105.382101"><ele>284.0977</ele><time>2025-11-23T19:02:53.000Z</time></trkpt>
        <trkpt lat="28.664395" lon="105.382148"><ele>284.0507</ele><time>2025-11-23T19:02:57.000Z</time></trkpt>
        <trkpt lat="28.664365" lon="105.382204"><ele>284.3897</ele><time>2025-11-23T19:03:01.000Z</time></trkpt>
        <trkpt lat="28.664345" lon="105.382259"><ele>284.57996</ele><time>2025-11-23T19:03:06.000Z</time></trkpt>
        <trkpt lat="28.664353" lon="105.382311"><ele>283.29562</ele><time>2025-11-23T19:03:10.000Z</time></trkpt>
        <trkpt lat="28.664357" lon="105.382377"><ele>283.75186</ele><time>2025-11-23T19:03:14.000Z</time></trkpt>
        <trkpt lat="28.664362" lon="105.382428"><ele>280.798</ele><time>2025-11-23T19:03:19.000Z</time></trkpt>
        <trkpt lat="28.664363" lon="105.382482"><ele>280.82263</ele><time>2025-11-23T19:03:24.000Z</time></trkpt>
        <trkpt lat="28.664365" lon="105.382536"><ele>279.59714</ele><time>2025-11-23T19:03:29.000Z</time></trkpt>
        <trkpt lat="28.664353" lon="105.382588"><ele>280.5318</ele><time>2025-11-23T19:03:34.000Z</time></trkpt>
        <trkpt lat="28.664348" lon="105.38264"><ele>279.3371</ele><time>2025-11-23T19:03:39.000Z</time></trkpt>
        <trkpt lat="28.664334" lon="105.382691"><ele>278.53763</ele><time>2025-11-23T19:03:44.000Z</time></trkpt>
        <trkpt lat="28.664301" lon="105.382741"><ele>278.87228</ele><time>2025-11-23T19:03:48.000Z</time></trkpt>
        <trkpt lat="28.66428" lon="105.38279"><ele>279.18887</ele><time>2025-11-23T19:03:51.000Z</time></trkpt>
        <trkpt lat="28.664242" lon="105.382848"><ele>278.40472</ele><time>2025-11-23T19:03:56.000Z</time></trkpt>
        <trkpt lat="28.664211" lon="105.382892"><ele>279.3448</ele><time>2025-11-23T19:04:01.000Z</time></trkpt>
        <trkpt lat="28.664177" lon="105.382937"><ele>279.44226</ele><time>2025-11-23T19:04:06.000Z</time></trkpt>
        <trkpt lat="28.664137" lon="105.382982"><ele>279.7148</ele><time>2025-11-23T19:04:11.000Z</time></trkpt>
        <trkpt lat="28.664097" lon="105.383024"><ele>280.30154</ele><time>2025-11-23T19:04:16.000Z</time></trkpt>
        <trkpt lat="28.66406" lon="105.383064"><ele>280.62317</ele><time>2025-11-23T19:04:21.000Z</time></trkpt>
        <trkpt lat="28.664011" lon="105.383102"><ele>281.09503</ele><time>2025-11-23T19:04:25.000Z</time></trkpt>
        <trkpt lat="28.663962" lon="105.383138"><ele>281.3538</ele><time>2025-11-23T19:04:30.000Z</time></trkpt>
        <trkpt lat="28.663925" lon="105.383172"><ele>281.0611</ele><time>2025-11-23T19:04:34.000Z</time></trkpt>
        <trkpt lat="28.663889" lon="105.383217"><ele>281.10828</ele><time>2025-11-23T19:04:38.000Z</time></trkpt>
        <trkpt lat="28.663857" lon="105.383261"><ele>280.3862</ele><time>2025-11-23T19:04:43.000Z</time></trkpt>
        <trkpt lat="28.663828" lon="105.383311"><ele>280.10596</ele><time>2025-11-23T19:04:48.000Z</time></trkpt>
        <trkpt lat="28.663812" lon="105.38336"><ele>279.6771</ele><time>2025-11-23T19:04:52.000Z</time></trkpt>
        <trkpt lat="28.663793" lon="105.383418"><ele>278.12454</ele><time>2025-11-23T19:04:57.000Z</time></trkpt>
        <trkpt lat="28.663786" lon="105.383473"><ele>277.66986</ele><time>2025-11-23T19:05:01.000Z</time></trkpt>
        <trkpt lat="28.663786" lon="105.383538"><ele>276.995</ele><time>2025-11-23T19:05:06.000Z</time></trkpt>
        <trkpt lat="28.663795" lon="105.383593"><ele>276.44626</ele><time>2025-11-23T19:05:10.000Z</time></trkpt>
        <trkpt lat="28.663811" lon="105.383649"><ele>276.46347</ele><time>2025-11-23T19:05:15.000Z</time></trkpt>
        <trkpt lat="28.663826" lon="105.383702"><ele>276.3728</ele><time>2025-11-23T19:05:21.000Z</time></trkpt>
        <trkpt lat="28.663855" lon="105.383759"><ele>276.93558</ele><time>2025-11-23T19:05:35.000Z</time></trkpt>
        <trkpt lat="28.663873" lon="105.383811"><ele>276.7696</ele><time>2025-11-23T19:05:40.000Z</time></trkpt>
        <trkpt lat="28.663891" lon="105.383859"><ele>276.1226</ele><time>2025-11-23T19:05:45.000Z</time></trkpt>
        <trkpt lat="28.663897" lon="105.383927"><ele>275.16058</ele><time>2025-11-23T19:05:51.000Z</time></trkpt>
        <trkpt lat="28.663916" lon="105.383983"><ele>274.6938</ele><time>2025-11-23T19:05:56.000Z</time></trkpt>
        <trkpt lat="28.663935" lon="105.384039"><ele>275.57065</ele><time>2025-11-23T19:06:02.000Z</time></trkpt>
        <trkpt lat="28.663952" lon="105.384088"><ele>275.03152</ele><time>2025-11-23T19:06:05.000Z</time></trkpt>
        <trkpt lat="28.663959" lon="105.384144"><ele>276.748</ele><time>2025-11-23T19:06:09.000Z</time></trkpt>
        <trkpt lat="28.663989" lon="105.384202"><ele>276.07812</ele><time>2025-11-23T19:06:30.000Z</time></trkpt>
        <trkpt lat="28.663997" lon="105.384257"><ele>276.2721</ele><time>2025-11-23T19:06:36.000Z</time></trkpt>
        <trkpt lat="28.664015" lon="105.384311"><ele>275.77963</ele><time>2025-11-23T19:06:40.000Z</time></trkpt>
        <trkpt lat="28.664027" lon="105.384369"><ele>276.4406</ele><time>2025-11-23T19:06:45.000Z</time></trkpt>
        <trkpt lat="28.664047" lon="105.38443"><ele>276.12863</ele><time>2025-11-23T19:06:49.000Z</time></trkpt>
        <trkpt lat="28.664045" lon="105.384485"><ele>275.14053</ele><time>2025-11-23T19:06:55.000Z</time></trkpt>
        <trkpt lat="28.664046" lon="105.384547"><ele>276.31815</ele><time>2025-11-23T19:07:00.000Z</time></trkpt>
        <trkpt lat="28.664042" lon="105.384607"><ele>276.60397</ele><time>2025-11-23T19:07:05.000Z</time></trkpt>
        <trkpt lat="28.664005" lon="105.384648"><ele>275.8322</ele><time>2025-11-23T19:07:09.000Z</time></trkpt>
        <trkpt lat="28.663991" lon="105.384705"><ele>277.41888</ele><time>2025-11-23T19:07:14.000Z</time></trkpt>
        <trkpt lat="28.663956" lon="105.384754"><ele>276.9436</ele><time>2025-11-23T19:07:19.000Z</time></trkpt>
        <trkpt lat="28.663909" lon="105.384778"><ele>277.07523</ele><time>2025-11-23T19:07:23.000Z</time></trkpt>
        <trkpt lat="28.663879" lon="105.384815"><ele>276.33835</ele><time>2025-11-23T19:07:27.000Z</time></trkpt>
        <trkpt lat="28.663844" lon="105.384858"><ele>276.36044</ele><time>2025-11-23T19:07:30.000Z</time></trkpt>
        <trkpt lat="28.663819" lon="105.384906"><ele>274.8749</ele><time>2025-11-23T19:07:35.000Z</time></trkpt>
        <trkpt lat="28.663786" lon="105.384949"><ele>275.06244</ele><time>2025-11-23T19:07:39.000Z</time></trkpt>
        <trkpt lat="28.663764" lon="105.384994"><ele>273.71912</ele><time>2025-11-23T19:07:44.000Z</time></trkpt>
        <trkpt lat="28.663735" lon="105.385035"><ele>274.49408</ele><time>2025-11-23T19:07:47.000Z</time></trkpt>
        <trkpt lat="28.663703" lon="105.385085"><ele>274.62466</ele><time>2025-11-23T19:07:51.000Z</time></trkpt>
        <trkpt lat="28.66369" lon="105.38514"><ele>274.21835</ele><time>2025-11-23T19:07:56.000Z</time></trkpt>
        <trkpt lat="28.663659" lon="105.385186"><ele>275.0445</ele><time>2025-11-23T19:08:00.000Z</time></trkpt>
        <trkpt lat="28.663635" lon="105.385231"><ele>275.206</ele><time>2025-11-23T19:08:03.000Z</time></trkpt>
        <trkpt lat="28.663599" lon="105.385278"><ele>274.92688</ele><time>2025-11-23T19:08:07.000Z</time></trkpt>
        <trkpt lat="28.663574" lon="105.385334"><ele>275.03198</ele><time>2025-11-23T19:08:12.000Z</time></trkpt>
        <trkpt lat="28.663571" lon="105.385392"><ele>273.88922</ele><time>2025-11-23T19:08:25.000Z</time></trkpt>
        <trkpt lat="28.663547" lon="105.385444"><ele>274.0696</ele><time>2025-11-23T19:08:30.000Z</time></trkpt>
        <trkpt lat="28.663514" lon="105.385478"><ele>269.58716</ele><time>2025-11-23T19:08:36.000Z</time></trkpt>
        <trkpt lat="28.663509" lon="105.385554"><ele>271.62042</ele><time>2025-11-23T19:08:40.000Z</time></trkpt>
        <trkpt lat="28.663562" lon="105.385567"><ele>272.1525</ele><time>2025-11-23T19:08:42.000Z</time></trkpt>
        <trkpt lat="28.663516" lon="105.385565"><ele>273.86914</ele><time>2025-11-23T19:08:45.000Z</time></trkpt>
        <trkpt lat="28.663541" lon="105.385614"><ele>274.78015</ele><time>2025-11-23T19:08:48.000Z</time></trkpt>
        <trkpt lat="28.663548" lon="105.385671"><ele>274.84546</ele><time>2025-11-23T19:08:54.000Z</time></trkpt>
        <trkpt lat="28.663552" lon="105.385729"><ele>275.7905</ele><time>2025-11-23T19:09:00.000Z</time></trkpt>
        <trkpt lat="28.663551" lon="105.385788"><ele>276.16757</ele><time>2025-11-23T19:09:05.000Z</time></trkpt>
        <trkpt lat="28.663551" lon="105.385856"><ele>274.29413</ele><time>2025-11-23T19:10:32.000Z</time></trkpt>
        <trkpt lat="28.663579" lon="105.385897"><ele>273.8267</ele><time>2025-11-23T19:10:37.000Z</time></trkpt>
        <trkpt lat="28.663615" lon="105.38594"><ele>274.24173</ele><time>2025-11-23T19:10:39.000Z</time></trkpt>
        <trkpt lat="28.663632" lon="105.385995"><ele>275.60654</ele><time>2025-11-23T19:10:46.000Z</time></trkpt>
        <trkpt lat="28.663656" lon="105.386045"><ele>275.7433</ele><time>2025-11-23T19:10:51.000Z</time></trkpt>
        <trkpt lat="28.663682" lon="105.386089"><ele>275.41132</ele><time>2025-11-23T19:10:55.000Z</time></trkpt>
        <trkpt lat="28.663711" lon="105.38614"><ele>275.12857</ele><time>2025-11-23T19:11:00.000Z</time></trkpt>
        <trkpt lat="28.663731" lon="105.386186"><ele>274.40524</ele><time>2025-11-23T19:11:04.000Z</time></trkpt>
        <trkpt lat="28.663752" lon="105.386234"><ele>275.71616</ele><time>2025-11-23T19:11:10.000Z</time></trkpt>
        <trkpt lat="28.663768" lon="105.386287"><ele>277.21075</ele><time>2025-11-23T19:11:49.000Z</time></trkpt>
        <trkpt lat="28.663764" lon="105.386339"><ele>275.21054</ele><time>2025-11-23T19:11:55.000Z</time></trkpt>
        <trkpt lat="28.66378" lon="105.38639"><ele>276.43</ele><time>2025-11-23T19:11:59.000Z</time></trkpt>
        <trkpt lat="28.663806" lon="105.386441"><ele>275.68008</ele><time>2025-11-23T19:12:04.000Z</time></trkpt>
        <trkpt lat="28.663815" lon="105.386492"><ele>276.49295</ele><time>2025-11-23T19:12:10.000Z</time></trkpt>
        <trkpt lat="28.663826" lon="105.386548"><ele>277.4006</ele><time>2025-11-23T19:12:15.000Z</time></trkpt>
        <trkpt lat="28.663842" lon="105.386596"><ele>277.8244</ele><time>2025-11-23T19:12:19.000Z</time></trkpt>
        <trkpt lat="28.663872" lon="105.386643"><ele>278.83386</ele><time>2025-11-23T19:12:36.000Z</time></trkpt>
        <trkpt lat="28.663877" lon="105.386694"><ele>280.1004</ele><time>2025-11-23T19:12:42.000Z</time></trkpt>
        <trkpt lat="28.663882" lon="105.386755"><ele>279.90594</ele><time>2025-11-23T19:12:48.000Z</time></trkpt>
        <trkpt lat="28.663881" lon="105.386818"><ele>280.92117</ele><time>2025-11-23T19:12:53.000Z</time></trkpt>
        <trkpt lat="28.663893" lon="105.386872"><ele>281.14633</ele><time>2025-11-23T19:12:57.000Z</time></trkpt>
        <trkpt lat="28.663886" lon="105.386927"><ele>281.1937</ele><time>2025-11-23T19:13:02.000Z</time></trkpt>
        <trkpt lat="28.663888" lon="105.387"><ele>281.16248</ele><time>2025-11-23T19:13:06.000Z</time></trkpt>
        <trkpt lat="28.663866" lon="105.387056"><ele>279.9294</ele><time>2025-11-23T19:13:11.000Z</time></trkpt>
        <trkpt lat="28.663845" lon="105.387113"><ele>279.637</ele><time>2025-11-23T19:13:16.000Z</time></trkpt>
        <trkpt lat="28.663846" lon="105.387169"><ele>279.03973</ele><time>2025-11-23T19:13:19.000Z</time></trkpt>
        <trkpt lat="28.663837" lon="105.387228"><ele>277.79355</ele><time>2025-11-23T19:13:23.000Z</time></trkpt>
        <trkpt lat="28.663827" lon="105.387286"><ele>276.82584</ele><time>2025-11-23T19:13:28.000Z</time></trkpt>
        <trkpt lat="28.663809" lon="105.387345"><ele>277.21518</ele><time>2025-11-23T19:13:32.000Z</time></trkpt>
        <trkpt lat="28.663782" lon="105.387387"><ele>277.7034</ele><time>2025-11-23T19:13:36.000Z</time></trkpt>
        <trkpt lat="28.663763" lon="105.38744"><ele>277.365</ele><time>2025-11-23T19:13:40.000Z</time></trkpt>
        <trkpt lat="28.663743" lon="105.3875"><ele>277.24426</ele><time>2025-11-23T19:13:45.000Z</time></trkpt>
        <trkpt lat="28.663709" lon="105.387546"><ele>277.22607</ele><time>2025-11-23T19:13:49.000Z</time></trkpt>
        <trkpt lat="28.663695" lon="105.387595"><ele>276.50714</ele><time>2025-11-23T19:13:53.000Z</time></trkpt>
        <trkpt lat="28.663673" lon="105.387648"><ele>275.62698</ele><time>2025-11-23T19:13:58.000Z</time></trkpt>
        <trkpt lat="28.663648" lon="105.387694"><ele>276.12427</ele><time>2025-11-23T19:14:01.000Z</time></trkpt>
        <trkpt lat="28.663611" lon="105.387743"><ele>276.47662</ele><time>2025-11-23T19:14:05.000Z</time></trkpt>
        <trkpt lat="28.663591" lon="105.387793"><ele>275.37997</ele><time>2025-11-23T19:14:09.000Z</time></trkpt>
        <trkpt lat="28.663564" lon="105.387852"><ele>274.98642</ele><time>2025-11-23T19:14:14.000Z</time></trkpt>
        <trkpt lat="28.663527" lon="105.387888"><ele>275.74994</ele><time>2025-11-23T19:14:18.000Z</time></trkpt>
        <trkpt lat="28.663498" lon="105.387937"><ele>275.33228</ele><time>2025-11-23T19:14:22.000Z</time></trkpt>
        <trkpt lat="28.663464" lon="105.387977"><ele>275.77744</ele><time>2025-11-23T19:14:26.000Z</time></trkpt>
        <trkpt lat="28.663435" lon="105.388025"><ele>275.09033</ele><time>2025-11-23T19:14:30.000Z</time></trkpt>
        <trkpt lat="28.663418" lon="105.388074"><ele>275.28</ele><time>2025-11-23T19:14:34.000Z</time></trkpt>
        <trkpt lat="28.663393" lon="105.388131"><ele>274.664</ele><time>2025-11-23T19:14:39.000Z</time></trkpt>
        <trkpt lat="28.663365" lon="105.388179"><ele>274.49973</ele><time>2025-11-23T19:14:44.000Z</time></trkpt>
        <trkpt lat="28.663331" lon="105.388234"><ele>274.36127</ele><time>2025-11-23T19:14:49.000Z</time></trkpt>
        <trkpt lat="28.663299" lon="105.388287"><ele>274.30896</ele><time>2025-11-23T19:14:53.000Z</time></trkpt>
        <trkpt lat="28.663291" lon="105.388338"><ele>274.62885</ele><time>2025-11-23T19:14:57.000Z</time></trkpt>
        <trkpt lat="28.663273" lon="105.388396"><ele>273.44977</ele><time>2025-11-23T19:15:01.000Z</time></trkpt>
        <trkpt lat="28.66324" lon="105.388438"><ele>273.602</ele><time>2025-11-23T19:15:05.000Z</time></trkpt>
        <trkpt lat="28.66321" lon="105.388483"><ele>273.56677</ele><time>2025-11-23T19:15:09.000Z</time></trkpt>
        <trkpt lat="28.663177" lon="105.388521"><ele>272.56476</ele><time>2025-11-23T19:15:22.000Z</time></trkpt>
        <trkpt lat="28.663141" lon="105.38857"><ele>271.2871</ele><time>2025-11-23T19:15:27.000Z</time></trkpt>
        <trkpt lat="28.663106" lon="105.388612"><ele>270.4459</ele><time>2025-11-23T19:15:32.000Z</time></trkpt>
        <trkpt lat="28.663084" lon="105.388663"><ele>270.22147</ele><time>2025-11-23T19:15:36.000Z</time></trkpt>
        <trkpt lat="28.663065" lon="105.388718"><ele>269.3045</ele><time>2025-11-23T19:15:48.000Z</time></trkpt>
        <trkpt lat="28.663023" lon="105.388752"><ele>269.61447</ele><time>2025-11-23T19:15:53.000Z</time></trkpt>
        <trkpt lat="28.662979" lon="105.38878"><ele>270.11533</ele><time>2025-11-23T19:15:59.000Z</time></trkpt>
        <trkpt lat="28.662933" lon="105.388782"><ele>269.10962</ele><time>2025-11-23T19:16:07.000Z</time></trkpt>
        <trkpt lat="28.662908" lon="105.388827"><ele>270.01627</ele><time>2025-11-23T19:16:16.000Z</time></trkpt>
        <trkpt lat="28.662859" lon="105.388847"><ele>270.39032</ele><time>2025-11-23T19:17:04.000Z</time></trkpt>
        <trkpt lat="28.662806" lon="105.388851"><ele>268.82632</ele><time>2025-11-23T19:17:09.000Z</time></trkpt>
        <trkpt lat="28.662753" lon="105.388857"><ele>269.14926</ele><time>2025-11-23T19:17:13.000Z</time></trkpt>
        <trkpt lat="28.662699" lon="105.388865"><ele>270.31543</ele><time>2025-11-23T19:17:18.000Z</time></trkpt>
        <trkpt lat="28.662646" lon="105.388869"><ele>271.09363</ele><time>2025-11-23T19:17:23.000Z</time></trkpt>
        <trkpt lat="28.662612" lon="105.38891"><ele>271.8361</ele><time>2025-11-23T19:17:29.000Z</time></trkpt>
        <trkpt lat="28.662602" lon="105.388974"><ele>271.98206</ele><time>2025-11-23T19:17:35.000Z</time></trkpt>
        <trkpt lat="28.662615" lon="105.389026"><ele>272.64636</ele><time>2025-11-23T19:17:39.000Z</time></trkpt>
        <trkpt lat="28.662621" lon="105.389089"><ele>272.39456</ele><time>2025-11-23T19:17:43.000Z</time></trkpt>
        <trkpt lat="28.662607" lon="105.389138"><ele>271.24542</ele><time>2025-11-23T19:17:48.000Z</time></trkpt>
        <trkpt lat="28.662582" lon="105.389192"><ele>270.77554</ele><time>2025-11-23T19:17:53.000Z</time></trkpt>
        <trkpt lat="28.662539" lon="105.389231"><ele>271.10062</ele><time>2025-11-23T19:17:57.000Z</time></trkpt>
        <trkpt lat="28.662513" lon="105.389279"><ele>271.28503</ele><time>2025-11-23T19:18:01.000Z</time></trkpt>
        <trkpt lat="28.662481" lon="105.389323"><ele>270.9016</ele><time>2025-11-23T19:18:05.000Z</time></trkpt>
        <trkpt lat="28.662454" lon="105.389365"><ele>270.48114</ele><time>2025-11-23T19:18:12.000Z</time></trkpt>
        <trkpt lat="28.662398" lon="105.389363"><ele>270.72534</ele><time>2025-11-23T19:18:17.000Z</time></trkpt>
        <trkpt lat="28.66236" lon="105.389409"><ele>270.11658</ele><time>2025-11-23T19:18:21.000Z</time></trkpt>
        <trkpt lat="28.662312" lon="105.389403"><ele>268.99622</ele><time>2025-11-23T19:18:25.000Z</time></trkpt>
        <trkpt lat="28.662267" lon="105.389404"><ele>270.91174</ele><time>2025-11-23T19:18:30.000Z</time></trkpt>
        <trkpt lat="28.662221" lon="105.389378"><ele>273.0473</ele><time>2025-11-23T19:18:38.000Z</time></trkpt>
        <trkpt lat="28.662195" lon="105.389426"><ele>271.1312</ele><time>2025-11-23T19:18:45.000Z</time></trkpt>
        <trkpt lat="28.662154" lon="105.389474"><ele>271.40146</ele><time>2025-11-23T19:18:53.000Z</time></trkpt>
        <trkpt lat="28.662119" lon="105.389518"><ele>274.24872</ele><time>2025-11-23T19:18:59.000Z</time></trkpt>
        <trkpt lat="28.66207" lon="105.389527"><ele>272.72354</ele><time>2025-11-23T19:19:05.000Z</time></trkpt>
        <trkpt lat="28.662019" lon="105.389558"><ele>277.6081</ele><time>2025-11-23T19:19:10.000Z</time></trkpt>
        <trkpt lat="28.661979" lon="105.389532"><ele>282.63556</ele><time>2025-11-23T19:19:17.000Z</time></trkpt>
        <trkpt lat="28.661926" lon="105.389494"><ele>287.50375</ele><time>2025-11-23T19:19:27.000Z</time></trkpt>
        <trkpt lat="28.661875" lon="105.389494"><ele>289.34528</ele><time>2025-11-23T19:19:30.000Z</time></trkpt>
        <trkpt lat="28.661833" lon="105.389538"><ele>289.9363</ele><time>2025-11-23T19:19:34.000Z</time></trkpt>
        <trkpt lat="28.661775" lon="105.389547"><ele>291.5713</ele><time>2025-11-23T19:19:41.000Z</time></trkpt>
        <trkpt lat="28.661727" lon="105.389549"><ele>291.93704</ele><time>2025-11-23T19:19:50.000Z</time></trkpt>
        <trkpt lat="28.661707" lon="105.389598"><ele>294.2386</ele><time>2025-11-23T19:20:00.000Z</time></trkpt>
        <trkpt lat="28.661732" lon="105.389643"><ele>293.87442</ele><time>2025-11-23T19:20:04.000Z</time></trkpt>
        <trkpt lat="28.66174" lon="105.389698"><ele>293.21985</ele><time>2025-11-23T19:20:11.000Z</time></trkpt>
        <trkpt lat="28.661762" lon="105.389746"><ele>291.7844</ele><time>2025-11-23T19:20:18.000Z</time></trkpt>
        <trkpt lat="28.661775" lon="105.3898"><ele>293.16995</ele><time>2025-11-23T19:20:27.000Z</time></trkpt>
        <trkpt lat="28.661802" lon="105.389848"><ele>292.8924</ele><time>2025-11-23T19:20:34.000Z</time></trkpt>
        <trkpt lat="28.661839" lon="105.38988"><ele>295.76672</ele><time>2025-11-23T19:20:40.000Z</time></trkpt>
        <trkpt lat="28.661885" lon="105.389912"><ele>295.2672</ele><time>2025-11-23T19:20:45.000Z</time></trkpt>
        <trkpt lat="28.661923" lon="105.38996"><ele>295.80167</ele><time>2025-11-23T19:20:52.000Z</time></trkpt>
        <trkpt lat="28.661909" lon="105.389874"><ele>296.94455</ele><time>2025-11-23T19:20:57.000Z</time></trkpt>
        <trkpt lat="28.66193" lon="105.38992"><ele>297.1192</ele><time>2025-11-23T19:21:00.000Z</time></trkpt>
        <trkpt lat="28.661976" lon="105.389922"><ele>297.21384</ele><time>2025-11-23T19:21:06.000Z</time></trkpt>
        <trkpt lat="28.661962" lon="105.389977"><ele>292.79486</ele><time>2025-11-23T19:21:10.000Z</time></trkpt>
        <trkpt lat="28.661987" lon="105.390031"><ele>289.79868</ele><time>2025-11-23T19:21:16.000Z</time></trkpt>
        <trkpt lat="28.662025" lon="105.390059"><ele>289.78778</ele><time>2025-11-23T19:21:21.000Z</time></trkpt>
        <trkpt lat="28.662073" lon="105.390047"><ele>293.61014</ele><time>2025-11-23T19:21:30.000Z</time></trkpt>
        <trkpt lat="28.662118" lon="105.390063"><ele>292.29895</ele><time>2025-11-23T19:21:36.000Z</time></trkpt>
        <trkpt lat="28.662155" lon="105.390114"><ele>290.58917</ele><time>2025-11-23T19:21:47.000Z</time></trkpt>
        <trkpt lat="28.662195" lon="105.390149"><ele>291.0053</ele><time>2025-11-23T19:21:54.000Z</time></trkpt>
        <trkpt lat="28.662244" lon="105.390185"><ele>288.55887</ele><time>2025-11-23T19:22:18.000Z</time></trkpt>
        <trkpt lat="28.662282" lon="105.390219"><ele>288.8376</ele><time>2025-11-23T19:22:22.000Z</time></trkpt>
        <trkpt lat="28.66233" lon="105.390247"><ele>290.08038</ele><time>2025-11-23T19:22:27.000Z</time></trkpt>
        <trkpt lat="28.662318" lon="105.390178"><ele>293.90118</ele><time>2025-11-23T19:22:30.000Z</time></trkpt>
        <trkpt lat="28.662354" lon="105.390258"><ele>290.46356</ele><time>2025-11-23T19:22:35.000Z</time></trkpt>
        <trkpt lat="28.662306" lon="105.390284"><ele>291.47473</ele><time>2025-11-23T19:22:45.000Z</time></trkpt>
        <trkpt lat="28.662301" lon="105.390339"><ele>292.76572</ele><time>2025-11-23T19:22:48.000Z</time></trkpt>
        <trkpt lat="28.662298" lon="105.390397"><ele>289.8824</ele><time>2025-11-23T19:22:49.000Z</time></trkpt>
        <trkpt lat="28.662297" lon="105.390451"><ele>292.219</ele><time>2025-11-23T19:22:58.000Z</time></trkpt>
        <trkpt lat="28.662323" lon="105.390503"><ele>292.54828</ele><time>2025-11-23T19:23:02.000Z</time></trkpt>
        <trkpt lat="28.662324" lon="105.390556"><ele>294.26764</ele><time>2025-11-23T19:23:09.000Z</time></trkpt>
        <trkpt lat="28.66232" lon="105.390612"><ele>295.55972</ele><time>2025-11-23T19:23:14.000Z</time></trkpt>
        <trkpt lat="28.662334" lon="105.390691"><ele>297.76968</ele><time>2025-11-23T19:23:19.000Z</time></trkpt>
        <trkpt lat="28.662376" lon="105.390758"><ele>298.75607</ele><time>2025-11-23T19:23:24.000Z</time></trkpt>
        <trkpt lat="28.662337" lon="105.390801"><ele>297.1942</ele><time>2025-11-23T19:23:32.000Z</time></trkpt>
        <trkpt lat="28.66234" lon="105.390853"><ele>292.04446</ele><time>2025-11-23T19:24:11.000Z</time></trkpt>
        <trkpt lat="28.662329" lon="105.390906"><ele>296.1481</ele><time>2025-11-23T19:24:17.000Z</time></trkpt>
        <trkpt lat="28.662337" lon="105.390965"><ele>300.2057</ele><time>2025-11-23T19:24:27.000Z</time></trkpt>
        <trkpt lat="28.662347" lon="105.391032"><ele>300.8611</ele><time>2025-11-23T19:24:34.000Z</time></trkpt>
        <trkpt lat="28.662346" lon="105.391087"><ele>302.25064</ele><time>2025-11-23T19:24:44.000Z</time></trkpt>
        <trkpt lat="28.662355" lon="105.391145"><ele>302.07285</ele><time>2025-11-23T19:24:50.000Z</time></trkpt>
        <trkpt lat="28.662368" lon="105.391208"><ele>302.80984</ele><time>2025-11-23T19:24:54.000Z</time></trkpt>
        <trkpt lat="28.662324" lon="105.391232"><ele>297.86435</ele><time>2025-11-23T19:25:04.000Z</time></trkpt>
        <trkpt lat="28.662299" lon="105.391279"><ele>302.2045</ele><time>2025-11-23T19:25:11.000Z</time></trkpt>
        <trkpt lat="28.662264" lon="105.391313"><ele>303.1272</ele><time>2025-11-23T19:25:18.000Z</time></trkpt>
        <trkpt lat="28.66222" lon="105.391345"><ele>304.21893</ele><time>2025-11-23T19:25:24.000Z</time></trkpt>
        <trkpt lat="28.662212" lon="105.391404"><ele>305.41125</ele><time>2025-11-23T19:25:30.000Z</time></trkpt>
        <trkpt lat="28.662207" lon="105.391462"><ele>305.98538</ele><time>2025-11-23T19:25:36.000Z</time></trkpt>
        <trkpt lat="28.662222" lon="105.391513"><ele>306.04968</ele><time>2025-11-23T19:25:40.000Z</time></trkpt>
        <trkpt lat="28.662205" lon="105.391595"><ele>309.20792</ele><time>2025-11-23T19:25:46.000Z</time></trkpt>
        <trkpt lat="28.66225" lon="105.391615"><ele>308.9023</ele><time>2025-11-23T19:25:56.000Z</time></trkpt>
        <trkpt lat="28.662237" lon="105.391671"><ele>305.4117</ele><time>2025-11-23T19:26:18.000Z</time></trkpt>
        <trkpt lat="28.662241" lon="105.391723"><ele>308.8929</ele><time>2025-11-23T19:26:34.000Z</time></trkpt>
        <trkpt lat="28.662284" lon="105.391746"><ele>309.21948</ele><time>2025-11-23T19:26:39.000Z</time></trkpt>
        <trkpt lat="28.662233" lon="105.391725"><ele>306.8246</ele><time>2025-11-23T19:26:43.000Z</time></trkpt>
        <trkpt lat="28.662198" lon="105.391798"><ele>300.01294</ele><time>2025-11-23T19:26:57.000Z</time></trkpt>
        <trkpt lat="28.662203" lon="105.391849"><ele>299.52393</ele><time>2025-11-23T19:27:05.000Z</time></trkpt>
        <trkpt lat="28.662178" lon="105.391902"><ele>297.04556</ele><time>2025-11-23T19:27:13.000Z</time></trkpt>
        <trkpt lat="28.662193" lon="105.391957"><ele>299.18988</ele><time>2025-11-23T19:27:16.000Z</time></trkpt>
        <trkpt lat="28.662181" lon="105.39201"><ele>300.1271</ele><time>2025-11-23T19:27:24.000Z</time></trkpt>
        <trkpt lat="28.662175" lon="105.392065"><ele>300.96393</ele><time>2025-11-23T19:27:31.000Z</time></trkpt>
        <trkpt lat="28.662158" lon="105.392113"><ele>301.48297</ele><time>2025-11-23T19:27:47.000Z</time></trkpt>
        <trkpt lat="28.662115" lon="105.392142"><ele>301.57233</ele><time>2025-11-23T19:27:54.000Z</time></trkpt>
        <trkpt lat="28.662124" lon="105.392199"><ele>303.45236</ele><time>2025-11-23T19:28:12.000Z</time></trkpt>
        <trkpt lat="28.662127" lon="105.392263"><ele>304.6425</ele><time>2025-11-23T19:28:23.000Z</time></trkpt>
        <trkpt lat="28.662133" lon="105.392357"><ele>305.3938</ele><time>2025-11-23T19:28:49.000Z</time></trkpt>
        <trkpt lat="28.662202" lon="105.392359"><ele>305.7313</ele><time>2025-11-23T19:28:50.000Z</time></trkpt>
        <trkpt lat="28.662138" lon="105.392325"><ele>304.7419</ele><time>2025-11-23T19:28:52.000Z</time></trkpt>
        <trkpt lat="28.662062" lon="105.392295"><ele>306.22574</ele><time>2025-11-23T19:28:54.000Z</time></trkpt>
        <trkpt lat="28.662043" lon="105.392342"><ele>305.0762</ele><time>2025-11-23T19:29:03.000Z</time></trkpt>
        <trkpt lat="28.662073" lon="105.392399"><ele>308.98666</ele><time>2025-11-23T19:29:12.000Z</time></trkpt>
        <trkpt lat="28.662094" lon="105.392449"><ele>310.17084</ele><time>2025-11-23T19:29:13.000Z</time></trkpt>
        <trkpt lat="28.662044" lon="105.392403"><ele>310.20987</ele><time>2025-11-23T19:29:15.000Z</time></trkpt>
        <trkpt lat="28.662075" lon="105.392451"><ele>310.65518</ele><time>2025-11-23T19:29:20.000Z</time></trkpt>
        <trkpt lat="28.662034" lon="105.39242"><ele>311.20743</ele><time>2025-11-23T19:29:25.000Z</time></trkpt>
        <trkpt lat="28.661982" lon="105.392416"><ele>311.3114</ele><time>2025-11-23T19:29:32.000Z</time></trkpt>
        <trkpt lat="28.661954" lon="105.392461"><ele>311.12012</ele><time>2025-11-23T19:29:46.000Z</time></trkpt>
        <trkpt lat="28.661949" lon="105.392524"><ele>313.5632</ele><time>2025-11-23T19:29:53.000Z</time></trkpt>
        <trkpt lat="28.661983" lon="105.392577"><ele>315.2603</ele><time>2025-11-23T19:29:56.000Z</time></trkpt>
        <trkpt lat="28.661931" lon="105.392546"><ele>315.986</ele><time>2025-11-23T19:30:01.000Z</time></trkpt>
        <trkpt lat="28.661879" lon="105.392581"><ele>320.08948</ele><time>2025-11-23T19:30:18.000Z</time></trkpt>
        <trkpt lat="28.661873" lon="105.392646"><ele>323.35968</ele><time>2025-11-23T19:30:36.000Z</time></trkpt>
        <trkpt lat="28.661833" lon="105.392671"><ele>322.8124</ele><time>2025-11-23T19:30:38.000Z</time></trkpt>
        <trkpt lat="28.661834" lon="105.392723"><ele>323.96036</ele><time>2025-11-23T19:30:44.000Z</time></trkpt>
        <trkpt lat="28.661805" lon="105.392771"><ele>326.033</ele><time>2025-11-23T19:30:51.000Z</time></trkpt>
        <trkpt lat="28.661817" lon="105.392823"><ele>326.8268</ele><time>2025-11-23T19:30:55.000Z</time></trkpt>
        <trkpt lat="28.661807" lon="105.392875"><ele>328.38223</ele><time>2025-11-23T19:30:58.000Z</time></trkpt>
        <trkpt lat="28.661837" lon="105.392929"><ele>327.7835</ele><time>2025-11-23T19:31:02.000Z</time></trkpt>
        <trkpt lat="28.661808" lon="105.392974"><ele>325.1505</ele><time>2025-11-23T19:31:07.000Z</time></trkpt>
        <trkpt lat="28.661779" lon="105.393013"><ele>324.45193</ele><time>2025-11-23T19:31:12.000Z</time></trkpt>
        <trkpt lat="28.661772" lon="105.393064"><ele>323.48734</ele><time>2025-11-23T19:31:38.000Z</time></trkpt>
        <trkpt lat="28.661786" lon="105.393126"><ele>325.8949</ele><time>2025-11-23T19:31:52.000Z</time></trkpt>
        <trkpt lat="28.661745" lon="105.393161"><ele>327.54602</ele><time>2025-11-23T19:32:03.000Z</time></trkpt>
        <trkpt lat="28.661706" lon="105.393189"><ele>327.89456</ele><time>2025-11-23T19:32:08.000Z</time></trkpt>
        <trkpt lat="28.661689" lon="105.393245"><ele>329.27203</ele><time>2025-11-23T19:32:15.000Z</time></trkpt>
        <trkpt lat="28.661727" lon="105.393302"><ele>330.8905</ele><time>2025-11-23T19:32:35.000Z</time></trkpt>
        <trkpt lat="28.661717" lon="105.393364"><ele>330.1194</ele><time>2025-11-23T19:32:55.000Z</time></trkpt>
        <trkpt lat="28.661712" lon="105.393417"><ele>330.43024</ele><time>2025-11-23T19:33:05.000Z</time></trkpt>
        <trkpt lat="28.66172" lon="105.393477"><ele>329.7957</ele><time>2025-11-23T19:33:13.000Z</time></trkpt>
        <trkpt lat="28.66169" lon="105.393519"><ele>329.59332</ele><time>2025-11-23T19:33:18.000Z</time></trkpt>
        <trkpt lat="28.661677" lon="105.393569"><ele>329.5974</ele><time>2025-11-23T19:33:25.000Z</time></trkpt>
        <trkpt lat="28.66165" lon="105.393615"><ele>327.36786</ele><time>2025-11-23T19:33:40.000Z</time></trkpt>
        <trkpt lat="28.661649" lon="105.393674"><ele>327.3918</ele><time>2025-11-23T19:33:46.000Z</time></trkpt>
        <trkpt lat="28.66163" lon="105.39373"><ele>328.78766</ele><time>2025-11-23T19:33:53.000Z</time></trkpt>
        <trkpt lat="28.661612" lon="105.393787"><ele>330.94708</ele><time>2025-11-23T19:34:01.000Z</time></trkpt>
        <trkpt lat="28.66159" lon="105.393833"><ele>329.2875</ele><time>2025-11-23T19:34:07.000Z</time></trkpt>
        <trkpt lat="28.661607" lon="105.393887"><ele>329.82462</ele><time>2025-11-23T19:34:20.000Z</time></trkpt>
        <trkpt lat="28.661659" lon="105.393928"><ele>329.0867</ele><time>2025-11-23T19:34:29.000Z</time></trkpt>
        <trkpt lat="28.661682" lon="105.39399"><ele>327.5674</ele><time>2025-11-23T19:34:34.000Z</time></trkpt>
        <trkpt lat="28.661684" lon="105.394044"><ele>328.51315</ele><time>2025-11-23T19:34:49.000Z</time></trkpt>
        <trkpt lat="28.661704" lon="105.394098"><ele>329.58627</ele><time>2025-11-23T19:34:54.000Z</time></trkpt>
        <trkpt lat="28.661736" lon="105.394146"><ele>331.34875</ele><time>2025-11-23T19:35:10.000Z</time></trkpt>
        <trkpt lat="28.661731" lon="105.394203"><ele>329.91675</ele><time>2025-11-23T19:35:33.000Z</time></trkpt>
        <trkpt lat="28.66176" lon="105.394242"><ele>331.40335</ele><time>2025-11-23T19:35:44.000Z</time></trkpt>
        <trkpt lat="28.661771" lon="105.3943"><ele>328.46262</ele><time>2025-11-23T19:35:54.000Z</time></trkpt>
        <trkpt lat="28.661769" lon="105.394354"><ele>327.2997</ele><time>2025-11-23T19:35:58.000Z</time></trkpt>
        <trkpt lat="28.661781" lon="105.394413"><ele>328.65616</ele><time>2025-11-23T19:36:03.000Z</time></trkpt>
        <trkpt lat="28.661788" lon="105.394471"><ele>328.7101</ele><time>2025-11-23T19:36:07.000Z</time></trkpt>
        <trkpt lat="28.661803" lon="105.39453"><ele>329.27094</ele><time>2025-11-23T19:36:12.000Z</time></trkpt>
        <trkpt lat="28.66182" lon="105.394584"><ele>329.96332</ele><time>2025-11-23T19:36:19.000Z</time></trkpt>
        <trkpt lat="28.661833" lon="105.394636"><ele>330.9784</ele><time>2025-11-23T19:36:25.000Z</time></trkpt>
        <trkpt lat="28.661859" lon="105.394683"><ele>331.08524</ele><time>2025-11-23T19:36:30.000Z</time></trkpt>
        <trkpt lat="28.661877" lon="105.394734"><ele>331.7814</ele><time>2025-11-23T19:36:34.000Z</time></trkpt>
        <trkpt lat="28.661896" lon="105.394783"><ele>331.96387</ele><time>2025-11-23T19:36:39.000Z</time></trkpt>
        <trkpt lat="28.661918" lon="105.39483"><ele>331.50192</ele><time>2025-11-23T19:36:45.000Z</time></trkpt>
        <trkpt lat="28.661961" lon="105.394861"><ele>333.09427</ele><time>2025-11-23T19:36:48.000Z</time></trkpt>
        <trkpt lat="28.661983" lon="105.394906"><ele>334.25894</ele><time>2025-11-23T19:36:52.000Z</time></trkpt>
        <trkpt lat="28.662003" lon="105.394958"><ele>335.29526</ele><time>2025-11-23T19:36:56.000Z</time></trkpt>
        <trkpt lat="28.662041" lon="105.394999"><ele>336.44113</ele><time>2025-11-23T19:37:01.000Z</time></trkpt>
        <trkpt lat="28.662083" lon="105.39503"><ele>337.7609</ele><time>2025-11-23T19:37:06.000Z</time></trkpt>
        <trkpt lat="28.66208" lon="105.394969"><ele>337.26944</ele><time>2025-11-23T19:37:10.000Z</time></trkpt>
        <trkpt lat="28.662108" lon="105.395044"><ele>335.14746</ele><time>2025-11-23T19:37:13.000Z</time></trkpt>
        <trkpt lat="28.662121" lon="105.395104"><ele>337.35205</ele><time>2025-11-23T19:37:16.000Z</time></trkpt>
        <trkpt lat="28.662137" lon="105.395162"><ele>336.71634</ele><time>2025-11-23T19:37:20.000Z</time></trkpt>
        <trkpt lat="28.66216" lon="105.395207"><ele>337.17117</ele><time>2025-11-23T19:37:23.000Z</time></trkpt>
        <trkpt lat="28.662214" lon="105.395231"><ele>338.55392</ele><time>2025-11-23T19:37:28.000Z</time></trkpt>
        <trkpt lat="28.662274" lon="105.395259"><ele>339.14084</ele><time>2025-11-23T19:37:35.000Z</time></trkpt>
        <trkpt lat="28.662304" lon="105.395298"><ele>339.6484</ele><time>2025-11-23T19:37:39.000Z</time></trkpt>
        <trkpt lat="28.662323" lon="105.395351"><ele>339.60635</ele><time>2025-11-23T19:37:44.000Z</time></trkpt>
        <trkpt lat="28.662357" lon="105.395399"><ele>339.67258</ele><time>2025-11-23T19:37:50.000Z</time></trkpt>
        <trkpt lat="28.662383" lon="105.395443"><ele>341.4907</ele><time>2025-11-23T19:37:55.000Z</time></trkpt>
        <trkpt lat="28.66239" lon="105.395506"><ele>342.49286</ele><time>2025-11-23T19:38:00.000Z</time></trkpt>
        <trkpt lat="28.662436" lon="105.39555"><ele>342.41702</ele><time>2025-11-23T19:38:07.000Z</time></trkpt>
        <trkpt lat="28.662477" lon="105.395585"><ele>342.4695</ele><time>2025-11-23T19:38:10.000Z</time></trkpt>
        <trkpt lat="28.662526" lon="105.395613"><ele>340.6296</ele><time>2025-11-23T19:38:13.000Z</time></trkpt>
        <trkpt lat="28.662568" lon="105.395656"><ele>339.96585</ele><time>2025-11-23T19:38:17.000Z</time></trkpt>
        <trkpt lat="28.662511" lon="105.395682"><ele>339.99765</ele><time>2025-11-23T19:38:20.000Z</time></trkpt>
        <trkpt lat="28.66246" lon="105.395618"><ele>340.90747</ele><time>2025-11-23T19:38:22.000Z</time></trkpt>
        <trkpt lat="28.662519" lon="105.395666"><ele>341.70547</ele><time>2025-11-23T19:38:31.000Z</time></trkpt>
        <trkpt lat="28.662502" lon="105.395721"><ele>337.2181</ele><time>2025-11-23T19:38:40.000Z</time></trkpt>
        <trkpt lat="28.662526" lon="105.39577"><ele>339.35718</ele><time>2025-11-23T19:38:46.000Z</time></trkpt>
        <trkpt lat="28.662546" lon="105.39582"><ele>341.00388</ele><time>2025-11-23T19:38:50.000Z</time></trkpt>
        <trkpt lat="28.662567" lon="105.39587"><ele>343.2295</ele><time>2025-11-23T19:38:59.000Z</time></trkpt>
        <trkpt lat="28.662588" lon="105.395924"><ele>343.5537</ele><time>2025-11-23T19:39:05.000Z</time></trkpt>
        <trkpt lat="28.662608" lon="105.395974"><ele>345.26477</ele><time>2025-11-23T19:39:09.000Z</time></trkpt>
        <trkpt lat="28.66263" lon="105.396028"><ele>344.35187</ele><time>2025-11-23T19:39:19.000Z</time></trkpt>
        <trkpt lat="28.662656" lon="105.396076"><ele>345.94955</ele><time>2025-11-23T19:39:27.000Z</time></trkpt>
        <trkpt lat="28.662685" lon="105.396126"><ele>344.63797</ele><time>2025-11-23T19:39:35.000Z</time></trkpt>
        <trkpt lat="28.662707" lon="105.396174"><ele>345.39752</ele><time>2025-11-23T19:39:44.000Z</time></trkpt>
        <trkpt lat="28.662743" lon="105.396206"><ele>345.94128</ele><time>2025-11-23T19:39:50.000Z</time></trkpt>
        <trkpt lat="28.662766" lon="105.396266"><ele>346.35724</ele><time>2025-11-23T19:39:56.000Z</time></trkpt>
        <trkpt lat="28.662828" lon="105.39631"><ele>349.16275</ele><time>2025-11-23T19:40:03.000Z</time></trkpt>
        <trkpt lat="28.662765" lon="105.396313"><ele>350.98245</ele><time>2025-11-23T19:40:10.000Z</time></trkpt>
        <trkpt lat="28.662766" lon="105.396398"><ele>350.95184</ele><time>2025-11-23T19:40:11.000Z</time></trkpt>
        <trkpt lat="28.662747" lon="105.396528"><ele>351.08322</ele><time>2025-11-23T19:40:13.000Z</time></trkpt>
        <trkpt lat="28.662737" lon="105.396386"><ele>351.1307</ele><time>2025-11-23T19:40:14.000Z</time></trkpt>
        <trkpt lat="28.662786" lon="105.396359"><ele>351.2364</ele><time>2025-11-23T19:40:15.000Z</time></trkpt>
        <trkpt lat="28.662846" lon="105.396342"><ele>350.00928</ele><time>2025-11-23T19:40:19.000Z</time></trkpt>
        <trkpt lat="28.662875" lon="105.396384"><ele>351.07483</ele><time>2025-11-23T19:40:23.000Z</time></trkpt>
        <trkpt lat="28.662897" lon="105.396431"><ele>349.85062</ele><time>2025-11-23T19:40:30.000Z</time></trkpt>
        <trkpt lat="28.662893" lon="105.396486"><ele>350.8585</ele><time>2025-11-23T19:40:40.000Z</time></trkpt>
        <trkpt lat="28.662922" lon="105.396535"><ele>351.12085</ele><time>2025-11-23T19:40:46.000Z</time></trkpt>
        <trkpt lat="28.662955" lon="105.39659"><ele>349.61954</ele><time>2025-11-23T19:40:55.000Z</time></trkpt>
        <trkpt lat="28.662982" lon="105.396637"><ele>349.52078</ele><time>2025-11-23T19:40:59.000Z</time></trkpt>
        <trkpt lat="28.663004" lon="105.396683"><ele>349.09006</ele><time>2025-11-23T19:41:04.000Z</time></trkpt>
        <trkpt lat="28.663019" lon="105.396741"><ele>348.1561</ele><time>2025-11-23T19:41:08.000Z</time></trkpt>
        <trkpt lat="28.663037" lon="105.396797"><ele>348.65808</ele><time>2025-11-23T19:41:13.000Z</time></trkpt>
        <trkpt lat="28.663045" lon="105.39685"><ele>347.06082</ele><time>2025-11-23T19:41:18.000Z</time></trkpt>
        <trkpt lat="28.663058" lon="105.396904"><ele>345.3323</ele><time>2025-11-23T19:41:23.000Z</time></trkpt>
        <trkpt lat="28.663051" lon="105.396954"><ele>349.9746</ele><time>2025-11-23T19:41:26.000Z</time></trkpt>
        <trkpt lat="28.663045" lon="105.397011"><ele>355.93848</ele><time>2025-11-23T19:41:33.000Z</time></trkpt>
        <trkpt lat="28.663078" lon="105.397069"><ele>363.2425</ele><time>2025-11-23T19:41:48.000Z</time></trkpt>
        <trkpt lat="28.663088" lon="105.397137"><ele>364.4231</ele><time>2025-11-23T19:41:55.000Z</time></trkpt>
        <trkpt lat="28.663118" lon="105.397179"><ele>365.61392</ele><time>2025-11-23T19:42:01.000Z</time></trkpt>
        <trkpt lat="28.663139" lon="105.39723"><ele>366.9691</ele><time>2025-11-23T19:42:08.000Z</time></trkpt>
        <trkpt lat="28.66314" lon="105.397282"><ele>368.31195</ele><time>2025-11-23T19:42:20.000Z</time></trkpt>
        <trkpt lat="28.663134" lon="105.397338"><ele>370.4399</ele><time>2025-11-23T19:42:26.000Z</time></trkpt>
        <trkpt lat="28.66313" lon="105.397397"><ele>371.7455</ele><time>2025-11-23T19:42:31.000Z</time></trkpt>
        <trkpt lat="28.663117" lon="105.39745"><ele>374.04584</ele><time>2025-11-23T19:42:35.000Z</time></trkpt>
        <trkpt lat="28.663102" lon="105.397513"><ele>376.04654</ele><time>2025-11-23T19:42:41.000Z</time></trkpt>
        <trkpt lat="28.663086" lon="105.397563"><ele>376.70273</ele><time>2025-11-23T19:42:47.000Z</time></trkpt>
        <trkpt lat="28.66308" lon="105.397625"><ele>376.14935</ele><time>2025-11-23T19:42:54.000Z</time></trkpt>
        <trkpt lat="28.663068" lon="105.397678"><ele>375.21964</ele><time>2025-11-23T19:43:00.000Z</time></trkpt>
        <trkpt lat="28.663063" lon="105.397733"><ele>374.7224</ele><time>2025-11-23T19:43:10.000Z</time></trkpt>
        <trkpt lat="28.663051" lon="105.397801"><ele>373.49533</ele><time>2025-11-23T19:43:16.000Z</time></trkpt>
        <trkpt lat="28.663043" lon="105.397857"><ele>372.27548</ele><time>2025-11-23T19:43:26.000Z</time></trkpt>
        <trkpt lat="28.663017" lon="105.397903"><ele>373.16183</ele><time>2025-11-23T19:43:33.000Z</time></trkpt>
        <trkpt lat="28.662985" lon="105.39796"><ele>373.23218</ele><time>2025-11-23T19:43:39.000Z</time></trkpt>
        <trkpt lat="28.662938" lon="105.397969"><ele>374.73727</ele><time>2025-11-23T19:43:53.000Z</time></trkpt>
        <trkpt lat="28.662897" lon="105.397996"><ele>374.878</ele><time>2025-11-23T19:44:02.000Z</time></trkpt>
        <trkpt lat="28.662876" lon="105.398055"><ele>377.26926</ele><time>2025-11-23T19:44:08.000Z</time></trkpt>
        <trkpt lat="28.662835" lon="105.398081"><ele>378.17123</ele><time>2025-11-23T19:44:18.000Z</time></trkpt>
        <trkpt lat="28.662817" lon="105.398131"><ele>380.1862</ele><time>2025-11-23T19:44:24.000Z</time></trkpt>
        <trkpt lat="28.662779" lon="105.398165"><ele>380.37817</ele><time>2025-11-23T19:44:37.000Z</time></trkpt>
        <trkpt lat="28.662732" lon="105.39817"><ele>381.83057</ele><time>2025-11-23T19:44:48.000Z</time></trkpt>
        <trkpt lat="28.662687" lon="105.39818"><ele>382.79306</ele><time>2025-11-23T19:44:54.000Z</time></trkpt>
        <trkpt lat="28.662656" lon="105.398217"><ele>386.15265</ele><time>2025-11-23T19:45:01.000Z</time></trkpt>
        <trkpt lat="28.662707" lon="105.398229"><ele>387.87186</ele><time>2025-11-23T19:45:28.000Z</time></trkpt>
        <trkpt lat="28.662754" lon="105.39824"><ele>385.07007</ele><time>2025-11-23T19:45:36.000Z</time></trkpt>
        <trkpt lat="28.662774" lon="105.398294"><ele>383.6588</ele><time>2025-11-23T19:45:44.000Z</time></trkpt>
        <trkpt lat="28.662817" lon="105.398311"><ele>382.46432</ele><time>2025-11-23T19:45:58.000Z</time></trkpt>
        <trkpt lat="28.662851" lon="105.398276"><ele>381.44748</ele><time>2025-11-23T19:46:16.000Z</time></trkpt>
        <trkpt lat="28.662896" lon="105.39829"><ele>378.92484</ele><time>2025-11-23T19:46:45.000Z</time></trkpt>
        <trkpt lat="28.662896" lon="105.398344"><ele>378.6406</ele><time>2025-11-23T19:47:11.000Z</time></trkpt>
        <trkpt lat="28.662868" lon="105.398395"><ele>381.367</ele><time>2025-11-23T19:47:25.000Z</time></trkpt>
        <trkpt lat="28.662863" lon="105.398448"><ele>383.0516</ele><time>2025-11-23T19:47:30.000Z</time></trkpt>
        <trkpt lat="28.662825" lon="105.398487"><ele>386.11102</ele><time>2025-11-23T19:48:08.000Z</time></trkpt>
        <trkpt lat="28.662792" lon="105.398524"><ele>379.98895</ele><time>2025-11-23T19:48:58.000Z</time></trkpt>
        <trkpt lat="28.662794" lon="105.398577"><ele>379.2362</ele><time>2025-11-23T19:49:36.000Z</time></trkpt>
        <trkpt lat="28.662743" lon="105.398583"><ele>382.16266</ele><time>2025-11-23T19:49:51.000Z</time></trkpt>
        <trkpt lat="28.662703" lon="105.398545"><ele>388.63522</ele><time>2025-11-23T19:50:08.000Z</time></trkpt>
        <trkpt lat="28.662675" lon="105.398592"><ele>391.06287</ele><time>2025-11-23T19:50:24.000Z</time></trkpt>
        <trkpt lat="28.662629" lon="105.398611"><ele>393.0288</ele><time>2025-11-23T19:50:32.000Z</time></trkpt>
        <trkpt lat="28.662579" lon="105.3986"><ele>394.47906</ele><time>2025-11-23T19:50:39.000Z</time></trkpt>
        <trkpt lat="28.662538" lon="105.398575"><ele>394.80994</ele><time>2025-11-23T19:50:46.000Z</time></trkpt>
        <trkpt lat="28.662487" lon="105.398562"><ele>394.06943</ele><time>2025-11-23T19:50:50.000Z</time></trkpt>
        <trkpt lat="28.662442" lon="105.398561"><ele>392.8927</ele><time>2025-11-23T19:50:55.000Z</time></trkpt>
        <trkpt lat="28.662395" lon="105.398551"><ele>392.53592</ele><time>2025-11-23T19:51:03.000Z</time></trkpt>
        <trkpt lat="28.662348" lon="105.398546"><ele>392.2315</ele><time>2025-11-23T19:51:10.000Z</time></trkpt>
        <trkpt lat="28.662306" lon="105.398568"><ele>390.97183</ele><time>2025-11-23T19:51:22.000Z</time></trkpt>
        <trkpt lat="28.662292" lon="105.398518"><ele>390.07642</ele><time>2025-11-23T19:51:31.000Z</time></trkpt>
        <trkpt lat="28.66234" lon="105.398495"><ele>389.43582</ele><time>2025-11-23T19:51:41.000Z</time></trkpt>
        <trkpt lat="28.662318" lon="105.398541"><ele>388.4091</ele><time>2025-11-23T19:52:57.000Z</time></trkpt>
        <trkpt lat="28.662287" lon="105.398503"><ele>390.41196</ele><time>2025-11-23T19:53:37.000Z</time></trkpt>
        <trkpt lat="28.662336" lon="105.398531"><ele>389.32666</ele><time>2025-11-23T19:55:29.000Z</time></trkpt>
        <trkpt lat="28.6623" lon="105.3985"><ele>389.26868</ele><time>2025-11-23T19:56:01.000Z</time></trkpt>
        <trkpt lat="28.662291" lon="105.398513"><ele>390.18652</ele><time>2025-11-23T19:57:17.000Z</time></trkpt>
        <trkpt lat="28.662311" lon="105.398565"><ele>388.34464</ele><time>2025-11-23T19:58:13.000Z</time></trkpt>
        <trkpt lat="28.662354" lon="105.39859"><ele>390.5846</ele><time>2025-11-23T19:58:29.000Z</time></trkpt>
        <trkpt lat="28.662327" lon="105.398541"><ele>391.01407</ele><time>2025-11-23T19:58:43.000Z</time></trkpt>
        <trkpt lat="28.662315" lon="105.398532"><ele>390.8724</ele><time>2025-11-23T19:59:12.000Z</time></trkpt>
        <trkpt lat="28.662295" lon="105.398534"><ele>390.13336</ele><time>2025-11-23T19:59:26.000Z</time></trkpt>
        <trkpt lat="28.662314" lon="105.398597"><ele>389.29944</ele><time>2025-11-23T20:00:04.000Z</time></trkpt>
        <trkpt lat="28.66232" lon="105.398657"><ele>391.16428</ele><time>2025-11-23T20:00:10.000Z</time></trkpt>
        <trkpt lat="28.662305" lon="105.398673"><ele>389.73206</ele><time>2025-11-23T20:00:17.000Z</time></trkpt>
        <trkpt lat="28.662289" lon="105.398724"><ele>389.37085</ele><time>2025-11-23T20:00:27.000Z</time></trkpt>
        <trkpt lat="28.662233" lon="105.398805"><ele>390.2851</ele><time>2025-11-23T20:00:47.000Z</time></trkpt>
        <trkpt lat="28.662212" lon="105.39885"><ele>390.9798</ele><time>2025-11-23T20:00:49.000Z</time></trkpt>
        <trkpt lat="28.662228" lon="105.398903"><ele>392.4062</ele><time>2025-11-23T20:00:55.000Z</time></trkpt>
        <trkpt lat="28.662241" lon="105.398958"><ele>392.30035</ele><time>2025-11-23T20:01:03.000Z</time></trkpt>
        <trkpt lat="28.662269" lon="105.399012"><ele>393.55737</ele><time>2025-11-23T20:01:07.000Z</time></trkpt>
        <trkpt lat="28.662313" lon="105.399049"><ele>393.62793</ele><time>2025-11-23T20:01:18.000Z</time></trkpt>
        <trkpt lat="28.662333" lon="105.399097"><ele>393.58237</ele><time>2025-11-23T20:01:26.000Z</time></trkpt>
        <trkpt lat="28.662348" lon="105.399158"><ele>395.162</ele><time>2025-11-23T20:01:31.000Z</time></trkpt>
        <trkpt lat="28.662365" lon="105.399219"><ele>396.93637</ele><time>2025-11-23T20:01:44.000Z</time></trkpt>
        <trkpt lat="28.662398" lon="105.399259"><ele>398.15955</ele><time>2025-11-23T20:01:48.000Z</time></trkpt>
        <trkpt lat="28.66242" lon="105.399306"><ele>398.85</ele><time>2025-11-23T20:02:01.000Z</time></trkpt>
        <trkpt lat="28.662404" lon="105.399359"><ele>399.41644</ele><time>2025-11-23T20:02:05.000Z</time></trkpt>
        <trkpt lat="28.662382" lon="105.39941"><ele>400.97916</ele><time>2025-11-23T20:02:10.000Z</time></trkpt>
        <trkpt lat="28.662346" lon="105.399457"><ele>402.89417</ele><time>2025-11-23T20:02:16.000Z</time></trkpt>
        <trkpt lat="28.662303" lon="105.399488"><ele>402.5115</ele><time>2025-11-23T20:02:20.000Z</time></trkpt>
        <trkpt lat="28.662265" lon="105.399521"><ele>403.0417</ele><time>2025-11-23T20:02:23.000Z</time></trkpt>
        <trkpt lat="28.662234" lon="105.399565"><ele>401.94684</ele><time>2025-11-23T20:02:28.000Z</time></trkpt>
        <trkpt lat="28.662211" lon="105.399611"><ele>401.7734</ele><time>2025-11-23T20:02:31.000Z</time></trkpt>
        <trkpt lat="28.662187" lon="105.39967"><ele>401.4082</ele><time>2025-11-23T20:02:35.000Z</time></trkpt>
        <trkpt lat="28.662175" lon="105.399727"><ele>399.96606</ele><time>2025-11-23T20:02:39.000Z</time></trkpt>
        <trkpt lat="28.6622" lon="105.399777"><ele>401.53537</ele><time>2025-11-23T20:02:53.000Z</time></trkpt>
        <trkpt lat="28.662202" lon="105.399834"><ele>400.8466</ele><time>2025-11-23T20:02:57.000Z</time></trkpt>
        <trkpt lat="28.662221" lon="105.399894"><ele>400.97797</ele><time>2025-11-23T20:03:01.000Z</time></trkpt>
        <trkpt lat="28.662244" lon="105.399948"><ele>402.33432</ele><time>2025-11-23T20:03:05.000Z</time></trkpt>
        <trkpt lat="28.662292" lon="105.399986"><ele>404.2787</ele><time>2025-11-23T20:03:07.000Z</time></trkpt>
        <trkpt lat="28.66235" lon="105.400004"><ele>405.65295</ele><time>2025-11-23T20:03:14.000Z</time></trkpt>
        <trkpt lat="28.662373" lon="105.400059"><ele>405.6879</ele><time>2025-11-23T20:03:18.000Z</time></trkpt>
        <trkpt lat="28.662404" lon="105.400104"><ele>407.29877</ele><time>2025-11-23T20:03:23.000Z</time></trkpt>
        <trkpt lat="28.662436" lon="105.400155"><ele>407.78818</ele><time>2025-11-23T20:03:31.000Z</time></trkpt>
        <trkpt lat="28.662477" lon="105.4002"><ele>408.08063</ele><time>2025-11-23T20:03:37.000Z</time></trkpt>
        <trkpt lat="28.662497" lon="105.400252"><ele>411.12274</ele><time>2025-11-23T20:03:51.000Z</time></trkpt>
        <trkpt lat="28.662541" lon="105.400262"><ele>408.9941</ele><time>2025-11-23T20:03:57.000Z</time></trkpt>
        <trkpt lat="28.662553" lon="105.400316"><ele>408.71863</ele><time>2025-11-23T20:04:18.000Z</time></trkpt>
        <trkpt lat="28.662559" lon="105.400382"><ele>409.72668</ele><time>2025-11-23T20:04:23.000Z</time></trkpt>
        <trkpt lat="28.662562" lon="105.400436"><ele>409.62784</ele><time>2025-11-23T20:04:25.000Z</time></trkpt>
        <trkpt lat="28.662563" lon="105.4005"><ele>410.6114</ele><time>2025-11-23T20:04:29.000Z</time></trkpt>
        <trkpt lat="28.662565" lon="105.400557"><ele>410.5912</ele><time>2025-11-23T20:04:33.000Z</time></trkpt>
        <trkpt lat="28.662568" lon="105.400614"><ele>410.3439</ele><time>2025-11-23T20:04:36.000Z</time></trkpt>
        <trkpt lat="28.662572" lon="105.400671"><ele>410.9838</ele><time>2025-11-23T20:04:40.000Z</time></trkpt>
        <trkpt lat="28.662588" lon="105.400723"><ele>411.0886</ele><time>2025-11-23T20:04:43.000Z</time></trkpt>
        <trkpt lat="28.662605" lon="105.400772"><ele>411.31702</ele><time>2025-11-23T20:04:46.000Z</time></trkpt>
        <trkpt lat="28.66264" lon="105.400817"><ele>412.90164</ele><time>2025-11-23T20:04:50.000Z</time></trkpt>
        <trkpt lat="28.662673" lon="105.400855"><ele>414.1317</ele><time>2025-11-23T20:04:54.000Z</time></trkpt>
        <trkpt lat="28.66271" lon="105.400888"><ele>415.56613</ele><time>2025-11-23T20:04:58.000Z</time></trkpt>
        <trkpt lat="28.662759" lon="105.400919"><ele>416.83133</ele><time>2025-11-23T20:05:00.000Z</time></trkpt>
        <trkpt lat="28.662807" lon="105.400939"><ele>417.5542</ele><time>2025-11-23T20:05:09.000Z</time></trkpt>
        <trkpt lat="28.662844" lon="105.40099"><ele>417.91296</ele><time>2025-11-23T20:05:16.000Z</time></trkpt>
        <trkpt lat="28.662875" lon="105.401042"><ele>418.56122</ele><time>2025-11-23T20:05:22.000Z</time></trkpt>
        <trkpt lat="28.662918" lon="105.401081"><ele>418.24713</ele><time>2025-11-23T20:05:33.000Z</time></trkpt>
        <trkpt lat="28.662961" lon="105.40111"><ele>419.27853</ele><time>2025-11-23T20:05:39.000Z</time></trkpt>
        <trkpt lat="28.663012" lon="105.401127"><ele>420.24</ele><time>2025-11-23T20:05:46.000Z</time></trkpt>
        <trkpt lat="28.663059" lon="105.401108"><ele>420.6592</ele><time>2025-11-23T20:05:53.000Z</time></trkpt>
        <trkpt lat="28.663109" lon="105.401099"><ele>423.0786</ele><time>2025-11-23T20:05:59.000Z</time></trkpt>
        <trkpt lat="28.663154" lon="105.401108"><ele>424.46365</ele><time>2025-11-23T20:06:04.000Z</time></trkpt>
        <trkpt lat="28.663199" lon="105.401134"><ele>426.23465</ele><time>2025-11-23T20:06:08.000Z</time></trkpt>
        <trkpt lat="28.663251" lon="105.401164"><ele>426.94638</ele><time>2025-11-23T20:06:14.000Z</time></trkpt>
        <trkpt lat="28.663302" lon="105.401196"><ele>429.04263</ele><time>2025-11-23T20:06:17.000Z</time></trkpt>
        <trkpt lat="28.663334" lon="105.401233"><ele>430.03445</ele><time>2025-11-23T20:06:20.000Z</time></trkpt>
        <trkpt lat="28.663325" lon="105.401287"><ele>429.97165</ele><time>2025-11-23T20:06:26.000Z</time></trkpt>
        <trkpt lat="28.663363" lon="105.401322"><ele>429.98764</ele><time>2025-11-23T20:06:34.000Z</time></trkpt>
        <trkpt lat="28.663392" lon="105.401365"><ele>428.33615</ele><time>2025-11-23T20:06:40.000Z</time></trkpt>
        <trkpt lat="28.663446" lon="105.401387"><ele>428.36343</ele><time>2025-11-23T20:06:45.000Z</time></trkpt>
        <trkpt lat="28.663488" lon="105.401408"><ele>427.86426</ele><time>2025-11-23T20:06:49.000Z</time></trkpt>
        <trkpt lat="28.663533" lon="105.401422"><ele>428.84067</ele><time>2025-11-23T20:06:54.000Z</time></trkpt>
        <trkpt lat="28.663583" lon="105.401453"><ele>429.41232</ele><time>2025-11-23T20:07:01.000Z</time></trkpt>
        <trkpt lat="28.663646" lon="105.401454"><ele>431.55096</ele><time>2025-11-23T20:07:07.000Z</time></trkpt>
        <trkpt lat="28.663691" lon="105.401461"><ele>431.72766</ele><time>2025-11-23T20:07:12.000Z</time></trkpt>
        <trkpt lat="28.663725" lon="105.401508"><ele>433.2073</ele><time>2025-11-23T20:07:16.000Z</time></trkpt>
        <trkpt lat="28.663769" lon="105.401521"><ele>432.356</ele><time>2025-11-23T20:07:19.000Z</time></trkpt>
        <trkpt lat="28.663815" lon="105.401525"><ele>432.94992</ele><time>2025-11-23T20:07:23.000Z</time></trkpt>
        <trkpt lat="28.663859" lon="105.401552"><ele>435.1428</ele><time>2025-11-23T20:07:27.000Z</time></trkpt>
        <trkpt lat="28.663914" lon="105.401565"><ele>436.95074</ele><time>2025-11-23T20:07:31.000Z</time></trkpt>
        <trkpt lat="28.663966" lon="105.401568"><ele>438.45413</ele><time>2025-11-23T20:07:35.000Z</time></trkpt>
        <trkpt lat="28.664012" lon="105.401577"><ele>438.4414</ele><time>2025-11-23T20:07:40.000Z</time></trkpt>
        <trkpt lat="28.664067" lon="105.401589"><ele>438.08295</ele><time>2025-11-23T20:07:46.000Z</time></trkpt>
        <trkpt lat="28.664109" lon="105.401607"><ele>439.03345</ele><time>2025-11-23T20:07:51.000Z</time></trkpt>
        <trkpt lat="28.664148" lon="105.401646"><ele>440.49213</ele><time>2025-11-23T20:07:57.000Z</time></trkpt>
        <trkpt lat="28.664166" lon="105.401696"><ele>440.40393</ele><time>2025-11-23T20:08:04.000Z</time></trkpt>
        <trkpt lat="28.66418" lon="105.401747"><ele>438.49606</ele><time>2025-11-23T20:08:10.000Z</time></trkpt>
        <trkpt lat="28.664175" lon="105.401805"><ele>436.99603</ele><time>2025-11-23T20:08:16.000Z</time></trkpt>
        <trkpt lat="28.664192" lon="105.401858"><ele>436.77588</ele><time>2025-11-23T20:08:22.000Z</time></trkpt>
        <trkpt lat="28.664206" lon="105.401915"><ele>438.32437</ele><time>2025-11-23T20:08:27.000Z</time></trkpt>
        <trkpt lat="28.664232" lon="105.401984"><ele>438.06842</ele><time>2025-11-23T20:08:33.000Z</time></trkpt>
        <trkpt lat="28.664281" lon="105.402003"><ele>439.4053</ele><time>2025-11-23T20:08:38.000Z</time></trkpt>
        <trkpt lat="28.664305" lon="105.402051"><ele>437.75317</ele><time>2025-11-23T20:08:43.000Z</time></trkpt>
        <trkpt lat="28.664342" lon="105.402088"><ele>437.9688</ele><time>2025-11-23T20:08:48.000Z</time></trkpt>
        <trkpt lat="28.664376" lon="105.402127"><ele>438.53418</ele><time>2025-11-23T20:08:52.000Z</time></trkpt>
        <trkpt lat="28.664414" lon="105.402158"><ele>438.31793</ele><time>2025-11-23T20:08:56.000Z</time></trkpt>
        <trkpt lat="28.664456" lon="105.402197"><ele>438.15738</ele><time>2025-11-23T20:09:02.000Z</time></trkpt>
        <trkpt lat="28.664505" lon="105.402201"><ele>438.6889</ele><time>2025-11-23T20:09:06.000Z</time></trkpt>
        <trkpt lat="28.66455" lon="105.402208"><ele>439.86188</ele><time>2025-11-23T20:09:11.000Z</time></trkpt>
        <trkpt lat="28.664599" lon="105.402214"><ele>439.5183</ele><time>2025-11-23T20:09:15.000Z</time></trkpt>
        <trkpt lat="28.664651" lon="105.402217"><ele>438.72</ele><time>2025-11-23T20:09:20.000Z</time></trkpt>
        <trkpt lat="28.664698" lon="105.40222"><ele>439.25778</ele><time>2025-11-23T20:09:25.000Z</time></trkpt>
        <trkpt lat="28.664745" lon="105.402232"><ele>437.37378</ele><time>2025-11-23T20:09:30.000Z</time></trkpt>
        <trkpt lat="28.664789" lon="105.402247"><ele>438.15503</ele><time>2025-11-23T20:09:34.000Z</time></trkpt>
        <trkpt lat="28.664835" lon="105.402273"><ele>437.90744</ele><time>2025-11-23T20:09:39.000Z</time></trkpt>
        <trkpt lat="28.664884" lon="105.402287"><ele>438.87927</ele><time>2025-11-23T20:09:43.000Z</time></trkpt>
        <trkpt lat="28.664928" lon="105.402309"><ele>439.07593</ele><time>2025-11-23T20:09:48.000Z</time></trkpt>
        <trkpt lat="28.664992" lon="105.402336"><ele>439.31656</ele><time>2025-11-23T20:09:57.000Z</time></trkpt>
        <trkpt lat="28.665034" lon="105.40236"><ele>439.80356</ele><time>2025-11-23T20:10:02.000Z</time></trkpt>
        <trkpt lat="28.66507" lon="105.402392"><ele>438.43176</ele><time>2025-11-23T20:10:07.000Z</time></trkpt>
        <trkpt lat="28.665124" lon="105.402417"><ele>436.54675</ele><time>2025-11-23T20:10:12.000Z</time></trkpt>
        <trkpt lat="28.665171" lon="105.402423"><ele>437.28946</ele><time>2025-11-23T20:10:16.000Z</time></trkpt>
        <trkpt lat="28.665219" lon="105.402416"><ele>437.2107</ele><time>2025-11-23T20:10:20.000Z</time></trkpt>
        <trkpt lat="28.665265" lon="105.402406"><ele>436.39478</ele><time>2025-11-23T20:10:24.000Z</time></trkpt>
        <trkpt lat="28.665318" lon="105.402393"><ele>437.51254</ele><time>2025-11-23T20:10:28.000Z</time></trkpt>
        <trkpt lat="28.665368" lon="105.402372"><ele>437.19604</ele><time>2025-11-23T20:10:32.000Z</time></trkpt>
        <trkpt lat="28.665417" lon="105.402355"><ele>436.52994</ele><time>2025-11-23T20:10:36.000Z</time></trkpt>
        <trkpt lat="28.665462" lon="105.402343"><ele>437.61374</ele><time>2025-11-23T20:10:40.000Z</time></trkpt>
        <trkpt lat="28.665512" lon="105.40233"><ele>436.57828</ele><time>2025-11-23T20:10:44.000Z</time></trkpt>
        <trkpt lat="28.665558" lon="105.402302"><ele>440.55817</ele><time>2025-11-23T20:10:47.000Z</time></trkpt>
        <trkpt lat="28.665603" lon="105.402295"><ele>438.2182</ele><time>2025-11-23T20:10:51.000Z</time></trkpt>
        <trkpt lat="28.665656" lon="105.402284"><ele>438.23285</ele><time>2025-11-23T20:10:55.000Z</time></trkpt>
        <trkpt lat="28.665705" lon="105.402288"><ele>439.94485</ele><time>2025-11-23T20:10:59.000Z</time></trkpt>
        <trkpt lat="28.665755" lon="105.402282"><ele>440.49982</ele><time>2025-11-23T20:11:04.000Z</time></trkpt>
        <trkpt lat="28.665809" lon="105.402278"><ele>440.05295</ele><time>2025-11-23T20:11:09.000Z</time></trkpt>
        <trkpt lat="28.665864" lon="105.402279"><ele>439.0765</ele><time>2025-11-23T20:11:14.000Z</time></trkpt>
        <trkpt lat="28.665908" lon="105.402293"><ele>437.664</ele><time>2025-11-23T20:11:18.000Z</time></trkpt>
        <trkpt lat="28.665952" lon="105.402308"><ele>438.23538</ele><time>2025-11-23T20:11:22.000Z</time></trkpt>
        <trkpt lat="28.666001" lon="105.402332"><ele>437.05164</ele><time>2025-11-23T20:11:27.000Z</time></trkpt>
        <trkpt lat="28.66604" lon="105.402362"><ele>437.16397</ele><time>2025-11-23T20:11:31.000Z</time></trkpt>
        <trkpt lat="28.666082" lon="105.402401"><ele>437.10913</ele><time>2025-11-23T20:11:36.000Z</time></trkpt>
        <trkpt lat="28.666125" lon="105.402446"><ele>436.05023</ele><time>2025-11-23T20:11:41.000Z</time></trkpt>
        <trkpt lat="28.666164" lon="105.402482"><ele>437.19714</ele><time>2025-11-23T20:11:46.000Z</time></trkpt>
        <trkpt lat="28.666198" lon="105.402519"><ele>437.90683</ele><time>2025-11-23T20:11:51.000Z</time></trkpt>
        <trkpt lat="28.666233" lon="105.402555"><ele>438.3552</ele><time>2025-11-23T20:11:56.000Z</time></trkpt>
        <trkpt lat="28.666271" lon="105.402594"><ele>438.90506</ele><time>2025-11-23T20:12:01.000Z</time></trkpt>
        <trkpt lat="28.666316" lon="105.402618"><ele>438.55835</ele><time>2025-11-23T20:12:06.000Z</time></trkpt>
        <trkpt lat="28.666362" lon="105.402633"><ele>438.86917</ele><time>2025-11-23T20:12:11.000Z</time></trkpt>
        <trkpt lat="28.666413" lon="105.402627"><ele>438.65457</ele><time>2025-11-23T20:12:16.000Z</time></trkpt>
        <trkpt lat="28.66647" lon="105.402611"><ele>439.38608</ele><time>2025-11-23T20:12:22.000Z</time></trkpt>
        <trkpt lat="28.666512" lon="105.402583"><ele>440.78723</ele><time>2025-11-23T20:12:26.000Z</time></trkpt>
        <trkpt lat="28.666552" lon="105.402553"><ele>439.367</ele><time>2025-11-23T20:12:31.000Z</time></trkpt>
        <trkpt lat="28.666594" lon="105.402531"><ele>438.17245</ele><time>2025-11-23T20:12:36.000Z</time></trkpt>
        <trkpt lat="28.666628" lon="105.402485"><ele>438.01904</ele><time>2025-11-23T20:12:43.000Z</time></trkpt>
        <trkpt lat="28.666632" lon="105.402428"><ele>438.90643</ele><time>2025-11-23T20:12:47.000Z</time></trkpt>
        <trkpt lat="28.66665" lon="105.402372"><ele>438.67874</ele><time>2025-11-23T20:12:52.000Z</time></trkpt>
        <trkpt lat="28.666661" lon="105.402318"><ele>438.2902</ele><time>2025-11-23T20:12:57.000Z</time></trkpt>
        <trkpt lat="28.666671" lon="105.402263"><ele>438.14438</ele><time>2025-11-23T20:13:02.000Z</time></trkpt>
        <trkpt lat="28.666675" lon="105.4022"><ele>438.52563</ele><time>2025-11-23T20:13:07.000Z</time></trkpt>
        <trkpt lat="28.666659" lon="105.402138"><ele>439.94855</ele><time>2025-11-23T20:13:19.000Z</time></trkpt>
        <trkpt lat="28.666643" lon="105.402079"><ele>441.7417</ele><time>2025-11-23T20:13:26.000Z</time></trkpt>
        <trkpt lat="28.666623" lon="105.402032"><ele>440.7035</ele><time>2025-11-23T20:13:33.000Z</time></trkpt>
        <trkpt lat="28.666617" lon="105.401975"><ele>441.10175</ele><time>2025-11-23T20:13:46.000Z</time></trkpt>
        <trkpt lat="28.666619" lon="105.401924"><ele>442.02325</ele><time>2025-11-23T20:13:53.000Z</time></trkpt>
        <trkpt lat="28.666599" lon="105.401863"><ele>444.06952</ele><time>2025-11-23T20:14:05.000Z</time></trkpt>
        <trkpt lat="28.666607" lon="105.401812"><ele>443.51544</ele><time>2025-11-23T20:14:24.000Z</time></trkpt>
        <trkpt lat="28.666579" lon="105.401762"><ele>444.2506</ele><time>2025-11-23T20:14:33.000Z</time></trkpt>
        <trkpt lat="28.666563" lon="105.40171"><ele>444.28568</ele><time>2025-11-23T20:14:39.000Z</time></trkpt>
        <trkpt lat="28.666543" lon="105.401655"><ele>444.0298</ele><time>2025-11-23T20:14:44.000Z</time></trkpt>
        <trkpt lat="28.6665" lon="105.401616"><ele>443.90622</ele><time>2025-11-23T20:14:50.000Z</time></trkpt>
        <trkpt lat="28.666462" lon="105.401579"><ele>444.21362</ele><time>2025-11-23T20:14:55.000Z</time></trkpt>
        <trkpt lat="28.66643" lon="105.401532"><ele>441.56693</ele><time>2025-11-23T20:15:00.000Z</time></trkpt>
        <trkpt lat="28.666386" lon="105.401508"><ele>440.48297</ele><time>2025-11-23T20:15:04.000Z</time></trkpt>
        <trkpt lat="28.666359" lon="105.401461"><ele>442.0656</ele><time>2025-11-23T20:15:08.000Z</time></trkpt>
        <trkpt lat="28.666338" lon="105.401415"><ele>442.5215</ele><time>2025-11-23T20:15:11.000Z</time></trkpt>
        <trkpt lat="28.666327" lon="105.401357"><ele>443.6833</ele><time>2025-11-23T20:15:16.000Z</time></trkpt>
        <trkpt lat="28.666337" lon="105.401305"><ele>443.58948</ele><time>2025-11-23T20:15:20.000Z</time></trkpt>
        <trkpt lat="28.666371" lon="105.401263"><ele>443.53864</ele><time>2025-11-23T20:15:24.000Z</time></trkpt>
        <trkpt lat="28.666399" lon="105.401223"><ele>444.0053</ele><time>2025-11-23T20:15:28.000Z</time></trkpt>
        <trkpt lat="28.666443" lon="105.401189"><ele>444.08676</ele><time>2025-11-23T20:15:32.000Z</time></trkpt>
        <trkpt lat="28.666478" lon="105.401152"><ele>444.1399</ele><time>2025-11-23T20:15:36.000Z</time></trkpt>
        <trkpt lat="28.666537" lon="105.401139"><ele>438.56516</ele><time>2025-11-23T20:15:44.000Z</time></trkpt>
        <trkpt lat="28.666573" lon="105.401098"><ele>438.76666</ele><time>2025-11-23T20:15:47.000Z</time></trkpt>
        <trkpt lat="28.666599" lon="105.401045"><ele>438.3342</ele><time>2025-11-23T20:15:51.000Z</time></trkpt>
        <trkpt lat="28.666636" lon="105.400988"><ele>439.54022</ele><time>2025-11-23T20:15:56.000Z</time></trkpt>
        <trkpt lat="28.666646" lon="105.400936"><ele>438.95517</ele><time>2025-11-23T20:15:59.000Z</time></trkpt>
        <trkpt lat="28.666654" lon="105.400876"><ele>437.95657</ele><time>2025-11-23T20:16:03.000Z</time></trkpt>
        <trkpt lat="28.66667" lon="105.400819"><ele>438.56393</ele><time>2025-11-23T20:16:07.000Z</time></trkpt>
        <trkpt lat="28.666592" lon="105.400834"><ele>438.74625</ele><time>2025-11-23T20:16:25.000Z</time></trkpt>
        <trkpt lat="28.666538" lon="105.400829"><ele>438.58636</ele><time>2025-11-23T20:16:27.000Z</time></trkpt>
        <trkpt lat="28.666586" lon="105.40085"><ele>438.4636</ele><time>2025-11-23T20:16:33.000Z</time></trkpt>
        <trkpt lat="28.666632" lon="105.40084"><ele>439.64468</ele><time>2025-11-23T20:16:49.000Z</time></trkpt>
        <trkpt lat="28.666656" lon="105.400793"><ele>438.85657</ele><time>2025-11-23T20:17:35.000Z</time></trkpt>
        <trkpt lat="28.666666" lon="105.400742"><ele>438.84036</ele><time>2025-11-23T20:17:55.000Z</time></trkpt>
        <trkpt lat="28.666669" lon="105.400684"><ele>438.10666</ele><time>2025-11-23T20:18:00.000Z</time></trkpt>
        <trkpt lat="28.666668" lon="105.400623"><ele>438.3621</ele><time>2025-11-23T20:18:10.000Z</time></trkpt>
        <trkpt lat="28.666668" lon="105.400556"><ele>438.97644</ele><time>2025-11-23T20:18:14.000Z</time></trkpt>
        <trkpt lat="28.666645" lon="105.400491"><ele>437.94586</ele><time>2025-11-23T20:18:19.000Z</time></trkpt>
        <trkpt lat="28.666629" lon="105.400441"><ele>436.16495</ele><time>2025-11-23T20:18:24.000Z</time></trkpt>
        <trkpt lat="28.666609" lon="105.400382"><ele>435.75824</ele><time>2025-11-23T20:18:27.000Z</time></trkpt>
        <trkpt lat="28.666574" lon="105.400333"><ele>438.80325</ele><time>2025-11-23T20:18:40.000Z</time></trkpt>
        <trkpt lat="28.666534" lon="105.4003"><ele>435.61795</ele><time>2025-11-23T20:18:48.000Z</time></trkpt>
        <trkpt lat="28.666497" lon="105.400268"><ele>433.4543</ele><time>2025-11-23T20:19:00.000Z</time></trkpt>
        <trkpt lat="28.666455" lon="105.400235"><ele>432.36142</ele><time>2025-11-23T20:19:24.000Z</time></trkpt>
        <trkpt lat="28.666429" lon="105.400192"><ele>432.0386</ele><time>2025-11-23T20:19:28.000Z</time></trkpt>
        <trkpt lat="28.666397" lon="105.400142"><ele>432.17776</ele><time>2025-11-23T20:19:33.000Z</time></trkpt>
        <trkpt lat="28.66636" lon="105.400099"><ele>431.1812</ele><time>2025-11-23T20:19:37.000Z</time></trkpt>
        <trkpt lat="28.666342" lon="105.400045"><ele>429.68088</ele><time>2025-11-23T20:19:42.000Z</time></trkpt>
        <trkpt lat="28.666318" lon="105.399999"><ele>429.16638</ele><time>2025-11-23T20:19:46.000Z</time></trkpt>
        <trkpt lat="28.66629" lon="105.399955"><ele>428.27655</ele><time>2025-11-23T20:19:50.000Z</time></trkpt>
        <trkpt lat="28.666259" lon="105.399906"><ele>427.99307</ele><time>2025-11-23T20:19:54.000Z</time></trkpt>
        <trkpt lat="28.666218" lon="105.399862"><ele>427.00995</ele><time>2025-11-23T20:19:58.000Z</time></trkpt>
        <trkpt lat="28.666182" lon="105.39983"><ele>425.88144</ele><time>2025-11-23T20:20:02.000Z</time></trkpt>
        <trkpt lat="28.666144" lon="105.399797"><ele>424.8447</ele><time>2025-11-23T20:20:06.000Z</time></trkpt>
        <trkpt lat="28.666099" lon="105.399765"><ele>424.89236</ele><time>2025-11-23T20:20:10.000Z</time></trkpt>
        <trkpt lat="28.66606" lon="105.399731"><ele>426.1664</ele><time>2025-11-23T20:20:14.000Z</time></trkpt>
        <trkpt lat="28.666017" lon="105.3997"><ele>425.0774</ele><time>2025-11-23T20:20:18.000Z</time></trkpt>
        <trkpt lat="28.665973" lon="105.399652"><ele>427.00705</ele><time>2025-11-23T20:20:23.000Z</time></trkpt>
        <trkpt lat="28.665926" lon="105.399616"><ele>426.336</ele><time>2025-11-23T20:20:37.000Z</time></trkpt>
        <trkpt lat="28.665889" lon="105.399579"><ele>426.89468</ele><time>2025-11-23T20:20:41.000Z</time></trkpt>
        <trkpt lat="28.665862" lon="105.399531"><ele>428.1695</ele><time>2025-11-23T20:20:44.000Z</time></trkpt>
        <trkpt lat="28.665845" lon="105.399468"><ele>427.6848</ele><time>2025-11-23T20:20:49.000Z</time></trkpt>
        <trkpt lat="28.665826" lon="105.399416"><ele>428.14005</ele><time>2025-11-23T20:20:53.000Z</time></trkpt>
        <trkpt lat="28.665807" lon="105.399353"><ele>428.06082</ele><time>2025-11-23T20:20:59.000Z</time></trkpt>
        <trkpt lat="28.665808" lon="105.399302"><ele>429.28052</ele><time>2025-11-23T20:21:03.000Z</time></trkpt>
        <trkpt lat="28.6658" lon="105.399248"><ele>428.7412</ele><time>2025-11-23T20:21:07.000Z</time></trkpt>
        <trkpt lat="28.665795" lon="105.399183"><ele>429.00592</ele><time>2025-11-23T20:21:11.000Z</time></trkpt>
        <trkpt lat="28.665799" lon="105.399125"><ele>429.24393</ele><time>2025-11-23T20:21:15.000Z</time></trkpt>
        <trkpt lat="28.665798" lon="105.399069"><ele>429.62115</ele><time>2025-11-23T20:21:19.000Z</time></trkpt>
        <trkpt lat="28.665804" lon="105.399008"><ele>428.47177</ele><time>2025-11-23T20:21:23.000Z</time></trkpt>
        <trkpt lat="28.665809" lon="105.398951"><ele>427.19852</ele><time>2025-11-23T20:21:27.000Z</time></trkpt>
        <trkpt lat="28.665828" lon="105.398889"><ele>427.53018</ele><time>2025-11-23T20:21:32.000Z</time></trkpt>
        <trkpt lat="28.665851" lon="105.398833"><ele>427.2207</ele><time>2025-11-23T20:21:38.000Z</time></trkpt>
        <trkpt lat="28.665855" lon="105.39878"><ele>424.81323</ele><time>2025-11-23T20:21:42.000Z</time></trkpt>
        <trkpt lat="28.665905" lon="105.398757"><ele>423.28635</ele><time>2025-11-23T20:21:47.000Z</time></trkpt>
        <trkpt lat="28.665959" lon="105.398731"><ele>423.2466</ele><time>2025-11-23T20:21:52.000Z</time></trkpt>
        <trkpt lat="28.666001" lon="105.398694"><ele>424.27475</ele><time>2025-11-23T20:21:55.000Z</time></trkpt>
        <trkpt lat="28.666038" lon="105.398653"><ele>422.58414</ele><time>2025-11-23T20:21:59.000Z</time></trkpt>
        <trkpt lat="28.66608" lon="105.398617"><ele>421.04407</ele><time>2025-11-23T20:22:03.000Z</time></trkpt>
        <trkpt lat="28.666114" lon="105.39858"><ele>421.29776</ele><time>2025-11-23T20:22:06.000Z</time></trkpt>
        <trkpt lat="28.666135" lon="105.398533"><ele>421.62668</ele><time>2025-11-23T20:22:09.000Z</time></trkpt>
        <trkpt lat="28.666163" lon="105.39848"><ele>421.79443</ele><time>2025-11-23T20:22:13.000Z</time></trkpt>
        <trkpt lat="28.666187" lon="105.398432"><ele>421.54803</ele><time>2025-11-23T20:22:17.000Z</time></trkpt>
        <trkpt lat="28.666206" lon="105.398383"><ele>422.12036</ele><time>2025-11-23T20:22:21.000Z</time></trkpt>
        <trkpt lat="28.666212" lon="105.398329"><ele>422.11322</ele><time>2025-11-23T20:22:25.000Z</time></trkpt>
        <trkpt lat="28.666187" lon="105.398275"><ele>421.11545</ele><time>2025-11-23T20:22:29.000Z</time></trkpt>
        <trkpt lat="28.666131" lon="105.398258"><ele>421.384</ele><time>2025-11-23T20:22:33.000Z</time></trkpt>
        <trkpt lat="28.66608" lon="105.398271"><ele>420.48676</ele><time>2025-11-23T20:22:37.000Z</time></trkpt>
        <trkpt lat="28.666026" lon="105.398249"><ele>421.2305</ele><time>2025-11-23T20:22:41.000Z</time></trkpt>
        <trkpt lat="28.665975" lon="105.398254"><ele>420.8499</ele><time>2025-11-23T20:22:45.000Z</time></trkpt>
        <trkpt lat="28.665931" lon="105.398267"><ele>420.81918</ele><time>2025-11-23T20:22:49.000Z</time></trkpt>
        <trkpt lat="28.66588" lon="105.398272"><ele>421.1682</ele><time>2025-11-23T20:22:58.000Z</time></trkpt>
        <trkpt lat="28.665827" lon="105.398273"><ele>420.85397</ele><time>2025-11-23T20:23:03.000Z</time></trkpt>
        <trkpt lat="28.665779" lon="105.398274"><ele>420.42596</ele><time>2025-11-23T20:23:08.000Z</time></trkpt>
        <trkpt lat="28.665724" lon="105.398272"><ele>421.01376</ele><time>2025-11-23T20:23:13.000Z</time></trkpt>
        <trkpt lat="28.665671" lon="105.398272"><ele>420.50763</ele><time>2025-11-23T20:23:18.000Z</time></trkpt>
        <trkpt lat="28.665623" lon="105.398254"><ele>422.80368</ele><time>2025-11-23T20:23:32.000Z</time></trkpt>
        <trkpt lat="28.665578" lon="105.398263"><ele>419.2035</ele><time>2025-11-23T20:23:59.000Z</time></trkpt>
        <trkpt lat="28.665531" lon="105.398277"><ele>418.7842</ele><time>2025-11-23T20:24:03.000Z</time></trkpt>
        <trkpt lat="28.665481" lon="105.398296"><ele>418.96533</ele><time>2025-11-23T20:24:07.000Z</time></trkpt>
        <trkpt lat="28.665437" lon="105.398313"><ele>418.85254</ele><time>2025-11-23T20:24:11.000Z</time></trkpt>
        <trkpt lat="28.665395" lon="105.398335"><ele>419.2274</ele><time>2025-11-23T20:24:15.000Z</time></trkpt>
        <trkpt lat="28.665351" lon="105.398359"><ele>420.1441</ele><time>2025-11-23T20:24:19.000Z</time></trkpt>
        <trkpt lat="28.665303" lon="105.398383"><ele>420.93573</ele><time>2025-11-23T20:24:23.000Z</time></trkpt>
        <trkpt lat="28.665254" lon="105.398396"><ele>420.48938</ele><time>2025-11-23T20:24:27.000Z</time></trkpt>
        <trkpt lat="28.665202" lon="105.398422"><ele>421.73788</ele><time>2025-11-23T20:24:33.000Z</time></trkpt>
        <trkpt lat="28.665146" lon="105.398419"><ele>421.81387</ele><time>2025-11-23T20:24:40.000Z</time></trkpt>
        <trkpt lat="28.665098" lon="105.398431"><ele>421.15668</ele><time>2025-11-23T20:24:44.000Z</time></trkpt>
        <trkpt lat="28.665047" lon="105.398426"><ele>421.62027</ele><time>2025-11-23T20:24:48.000Z</time></trkpt>
        <trkpt lat="28.664998" lon="105.398429"><ele>421.8023</ele><time>2025-11-23T20:24:52.000Z</time></trkpt>
        <trkpt lat="28.664952" lon="105.398418"><ele>420.93552</ele><time>2025-11-23T20:25:01.000Z</time></trkpt>
        <trkpt lat="28.664896" lon="105.398413"><ele>420.11844</ele><time>2025-11-23T20:25:06.000Z</time></trkpt>
        <trkpt lat="28.664848" lon="105.398405"><ele>419.43326</ele><time>2025-11-23T20:25:10.000Z</time></trkpt>
        <trkpt lat="28.664799" lon="105.39839"><ele>418.8751</ele><time>2025-11-23T20:25:15.000Z</time></trkpt>
        <trkpt lat="28.664754" lon="105.398359"><ele>419.3438</ele><time>2025-11-23T20:25:20.000Z</time></trkpt>
        <trkpt lat="28.664705" lon="105.398337"><ele>419.27402</ele><time>2025-11-23T20:25:27.000Z</time></trkpt>
        <trkpt lat="28.664654" lon="105.398335"><ele>419.07413</ele><time>2025-11-23T20:25:31.000Z</time></trkpt>
        <trkpt lat="28.664601" lon="105.398324"><ele>418.0701</ele><time>2025-11-23T20:25:35.000Z</time></trkpt>
        <trkpt lat="28.664549" lon="105.398337"><ele>418.41846</ele><time>2025-11-23T20:25:39.000Z</time></trkpt>
        <trkpt lat="28.6645" lon="105.398366"><ele>418.5514</ele><time>2025-11-23T20:25:52.000Z</time></trkpt>
        <trkpt lat="28.664454" lon="105.398376"><ele>417.39188</ele><time>2025-11-23T20:25:57.000Z</time></trkpt>
        <trkpt lat="28.664412" lon="105.398409"><ele>417.07108</ele><time>2025-11-23T20:26:01.000Z</time></trkpt>
        <trkpt lat="28.664361" lon="105.398427"><ele>417.53613</ele><time>2025-11-23T20:26:06.000Z</time></trkpt>
        <trkpt lat="28.664308" lon="105.398448"><ele>417.8044</ele><time>2025-11-23T20:26:11.000Z</time></trkpt>
        <trkpt lat="28.664255" lon="105.398454"><ele>417.32397</ele><time>2025-11-23T20:26:16.000Z</time></trkpt>
        <trkpt lat="28.664203" lon="105.398465"><ele>417.3739</ele><time>2025-11-23T20:26:22.000Z</time></trkpt>
        <trkpt lat="28.664157" lon="105.39847"><ele>417.33304</ele><time>2025-11-23T20:26:26.000Z</time></trkpt>
        <trkpt lat="28.664108" lon="105.398474"><ele>416.78015</ele><time>2025-11-23T20:26:31.000Z</time></trkpt>
        <trkpt lat="28.664063" lon="105.398467"><ele>416.4014</ele><time>2025-11-23T20:26:35.000Z</time></trkpt>
        <trkpt lat="28.66401" lon="105.398448"><ele>415.8161</ele><time>2025-11-23T20:26:40.000Z</time></trkpt>
        <trkpt lat="28.663964" lon="105.398424"><ele>415.06665</ele><time>2025-11-23T20:26:44.000Z</time></trkpt>
        <trkpt lat="28.663947" lon="105.398367"><ele>415.47925</ele><time>2025-11-23T20:26:47.000Z</time></trkpt>
        <trkpt lat="28.663914" lon="105.39833"><ele>414.30386</ele><time>2025-11-23T20:26:51.000Z</time></trkpt>
        <trkpt lat="28.663883" lon="105.398282"><ele>414.89197</ele><time>2025-11-23T20:26:57.000Z</time></trkpt>
        <trkpt lat="28.663853" lon="105.398242"><ele>415.70267</ele><time>2025-11-23T20:27:02.000Z</time></trkpt>
        <trkpt lat="28.66384" lon="105.398186"><ele>414.31885</ele><time>2025-11-23T20:27:16.000Z</time></trkpt>
        <trkpt lat="28.663841" lon="105.398134"><ele>414.01697</ele><time>2025-11-23T20:27:21.000Z</time></trkpt>
        <trkpt lat="28.663849" lon="105.398069"><ele>415.1234</ele><time>2025-11-23T20:27:27.000Z</time></trkpt>
        <trkpt lat="28.663833" lon="105.39802"><ele>415.67035</ele><time>2025-11-23T20:27:30.000Z</time></trkpt>
        <trkpt lat="28.663841" lon="105.397966"><ele>416.16513</ele><time>2025-11-23T20:27:34.000Z</time></trkpt>
        <trkpt lat="28.663842" lon="105.397907"><ele>416.1122</ele><time>2025-11-23T20:27:39.000Z</time></trkpt>
        <trkpt lat="28.663854" lon="105.397842"><ele>415.97507</ele><time>2025-11-23T20:27:44.000Z</time></trkpt>
        <trkpt lat="28.66387" lon="105.397784"><ele>412.85242</ele><time>2025-11-23T20:27:49.000Z</time></trkpt>
        <trkpt lat="28.663899" lon="105.397736"><ele>415.20007</ele><time>2025-11-23T20:27:55.000Z</time></trkpt>
        <trkpt lat="28.6639" lon="105.39768"><ele>416.163</ele><time>2025-11-23T20:27:58.000Z</time></trkpt>
        <trkpt lat="28.66391" lon="105.397618"><ele>415.97064</ele><time>2025-11-23T20:28:02.000Z</time></trkpt>
        <trkpt lat="28.663921" lon="105.397562"><ele>414.65543</ele><time>2025-11-23T20:28:06.000Z</time></trkpt>
        <trkpt lat="28.663926" lon="105.397504"><ele>414.81607</ele><time>2025-11-23T20:28:10.000Z</time></trkpt>
        <trkpt lat="28.663927" lon="105.397453"><ele>414.74463</ele><time>2025-11-23T20:28:14.000Z</time></trkpt>
        <trkpt lat="28.66394" lon="105.397385"><ele>414.3254</ele><time>2025-11-23T20:28:19.000Z</time></trkpt>
        <trkpt lat="28.663936" lon="105.397329"><ele>415.17648</ele><time>2025-11-23T20:28:23.000Z</time></trkpt>
        <trkpt lat="28.663909" lon="105.397269"><ele>415.97037</ele><time>2025-11-23T20:28:26.000Z</time></trkpt>
        <trkpt lat="28.663898" lon="105.397217"><ele>413.85962</ele><time>2025-11-23T20:28:30.000Z</time></trkpt>
        <trkpt lat="28.663889" lon="105.39716"><ele>413.34283</ele><time>2025-11-23T20:28:43.000Z</time></trkpt>
        <trkpt lat="28.663892" lon="105.397104"><ele>413.10843</ele><time>2025-11-23T20:28:48.000Z</time></trkpt>
        <trkpt lat="28.663889" lon="105.397053"><ele>412.9561</ele><time>2025-11-23T20:28:53.000Z</time></trkpt>
        <trkpt lat="28.663874" lon="105.397003"><ele>412.41956</ele><time>2025-11-23T20:28:58.000Z</time></trkpt>
        <trkpt lat="28.66387" lon="105.396939"><ele>412.68896</ele><time>2025-11-23T20:29:03.000Z</time></trkpt>
        <trkpt lat="28.663863" lon="105.39688"><ele>412.7238</ele><time>2025-11-23T20:29:08.000Z</time></trkpt>
        <trkpt lat="28.663844" lon="105.396834"><ele>412.09576</ele><time>2025-11-23T20:29:12.000Z</time></trkpt>
        <trkpt lat="28.663837" lon="105.396778"><ele>411.73175</ele><time>2025-11-23T20:29:18.000Z</time></trkpt>
        <trkpt lat="28.663828" lon="105.396723"><ele>412.28952</ele><time>2025-11-23T20:29:23.000Z</time></trkpt>
        <trkpt lat="28.663826" lon="105.396669"><ele>411.65613</ele><time>2025-11-23T20:29:28.000Z</time></trkpt>
        <trkpt lat="28.663823" lon="105.396611"><ele>411.34515</ele><time>2025-11-23T20:29:33.000Z</time></trkpt>
        <trkpt lat="28.663827" lon="105.396557"><ele>411.70703</ele><time>2025-11-23T20:29:37.000Z</time></trkpt>
        <trkpt lat="28.663831" lon="105.396505"><ele>411.31137</ele><time>2025-11-23T20:29:41.000Z</time></trkpt>
        <trkpt lat="28.663833" lon="105.396444"><ele>410.80777</ele><time>2025-11-23T20:29:47.000Z</time></trkpt>
        <trkpt lat="28.663838" lon="105.396383"><ele>411.70294</ele><time>2025-11-23T20:29:53.000Z</time></trkpt>
        <trkpt lat="28.663882" lon="105.396363"><ele>409.69254</ele><time>2025-11-23T20:30:28.000Z</time></trkpt>
        <trkpt lat="28.663878" lon="105.396298"><ele>410.5817</ele><time>2025-11-23T20:30:58.000Z</time></trkpt>
        <trkpt lat="28.663853" lon="105.39625"><ele>412.1735</ele><time>2025-11-23T20:31:02.000Z</time></trkpt>
        <trkpt lat="28.663838" lon="105.396199"><ele>412.53372</ele><time>2025-11-23T20:31:06.000Z</time></trkpt>
        <trkpt lat="28.663839" lon="105.396143"><ele>414.0906</ele><time>2025-11-23T20:31:10.000Z</time></trkpt>
        <trkpt lat="28.663824" lon="105.396095"><ele>414.34763</ele><time>2025-11-23T20:31:16.000Z</time></trkpt>
        <trkpt lat="28.663814" lon="105.39604"><ele>415.01633</ele><time>2025-11-23T20:31:20.000Z</time></trkpt>
        <trkpt lat="28.663799" lon="105.395982"><ele>415.27548</ele><time>2025-11-23T20:31:24.000Z</time></trkpt>
        <trkpt lat="28.663784" lon="105.395933"><ele>415.00592</ele><time>2025-11-23T20:31:27.000Z</time></trkpt>
        <trkpt lat="28.663744" lon="105.395905"><ele>415.03345</ele><time>2025-11-23T20:31:29.000Z</time></trkpt>
        <trkpt lat="28.663756" lon="105.395853"><ele>413.4503</ele><time>2025-11-23T20:31:33.000Z</time></trkpt>
        <trkpt lat="28.663734" lon="105.3958"><ele>415.1848</ele><time>2025-11-23T20:31:38.000Z</time></trkpt>
        <trkpt lat="28.663717" lon="105.395742"><ele>416.46744</ele><time>2025-11-23T20:31:44.000Z</time></trkpt>
        <trkpt lat="28.663693" lon="105.395695"><ele>417.4723</ele><time>2025-11-23T20:31:48.000Z</time></trkpt>
        <trkpt lat="28.663668" lon="105.39565"><ele>416.93253</ele><time>2025-11-23T20:31:53.000Z</time></trkpt>
        <trkpt lat="28.66364" lon="105.395601"><ele>416.56342</ele><time>2025-11-23T20:31:59.000Z</time></trkpt>
        <trkpt lat="28.663616" lon="105.395551"><ele>416.45627</ele><time>2025-11-23T20:32:05.000Z</time></trkpt>
        <trkpt lat="28.663608" lon="105.395497"><ele>416.74747</ele><time>2025-11-23T20:32:15.000Z</time></trkpt>
        <trkpt lat="28.663588" lon="105.395438"><ele>416.0155</ele><time>2025-11-23T20:32:20.000Z</time></trkpt>
        <trkpt lat="28.663574" lon="105.395372"><ele>416.95013</ele><time>2025-11-23T20:32:25.000Z</time></trkpt>
        <trkpt lat="28.663569" lon="105.39532"><ele>415.38672</ele><time>2025-11-23T20:32:30.000Z</time></trkpt>
        <trkpt lat="28.66357" lon="105.395268"><ele>413.29868</ele><time>2025-11-23T20:32:34.000Z</time></trkpt>
        <trkpt lat="28.663572" lon="105.395206"><ele>413.17212</ele><time>2025-11-23T20:32:38.000Z</time></trkpt>
        <trkpt lat="28.663554" lon="105.395159"><ele>413.9691</ele><time>2025-11-23T20:32:41.000Z</time></trkpt>
        <trkpt lat="28.663533" lon="105.395107"><ele>414.80164</ele><time>2025-11-23T20:32:44.000Z</time></trkpt>
        <trkpt lat="28.663509" lon="105.395062"><ele>416.31107</ele><time>2025-11-23T20:32:47.000Z</time></trkpt>
        <trkpt lat="28.663481" lon="105.395021"><ele>414.684</ele><time>2025-11-23T20:32:50.000Z</time></trkpt>
        <trkpt lat="28.66344" lon="105.394984"><ele>412.72742</ele><time>2025-11-23T20:32:59.000Z</time></trkpt>
        <trkpt lat="28.663394" lon="105.394945"><ele>412.73093</ele><time>2025-11-23T20:33:03.000Z</time></trkpt>
        <trkpt lat="28.663359" lon="105.394894"><ele>413.60645</ele><time>2025-11-23T20:33:07.000Z</time></trkpt>
        <trkpt lat="28.663335" lon="105.394837"><ele>413.06766</ele><time>2025-11-23T20:33:11.000Z</time></trkpt>
        <trkpt lat="28.663321" lon="105.39478"><ele>412.77277</ele><time>2025-11-23T20:33:15.000Z</time></trkpt>
        <trkpt lat="28.663305" lon="105.394726"><ele>412.1949</ele><time>2025-11-23T20:33:19.000Z</time></trkpt>
        <trkpt lat="28.663299" lon="105.394664"><ele>412.2999</ele><time>2025-11-23T20:33:23.000Z</time></trkpt>
        <trkpt lat="28.663295" lon="105.394603"><ele>413.58908</ele><time>2025-11-23T20:33:27.000Z</time></trkpt>
        <trkpt lat="28.663299" lon="105.394545"><ele>415.1303</ele><time>2025-11-23T20:33:31.000Z</time></trkpt>
        <trkpt lat="28.663283" lon="105.394483"><ele>417.588</ele><time>2025-11-23T20:33:35.000Z</time></trkpt>
        <trkpt lat="28.66324" lon="105.394451"><ele>418.4952</ele><time>2025-11-23T20:33:39.000Z</time></trkpt>
        <trkpt lat="28.66321" lon="105.394405"><ele>418.54077</ele><time>2025-11-23T20:33:44.000Z</time></trkpt>
        <trkpt lat="28.66316" lon="105.39437"><ele>417.96387</ele><time>2025-11-23T20:33:49.000Z</time></trkpt>
        <trkpt lat="28.663122" lon="105.39433"><ele>417.84457</ele><time>2025-11-23T20:33:54.000Z</time></trkpt>
        <trkpt lat="28.663071" lon="105.394305"><ele>415.9328</ele><time>2025-11-23T20:33:57.000Z</time></trkpt>
        <trkpt lat="28.663022" lon="105.394284"><ele>415.15073</ele><time>2025-11-23T20:34:09.000Z</time></trkpt>
        <trkpt lat="28.663002" lon="105.394234"><ele>414.65155</ele><time>2025-11-23T20:34:23.000Z</time></trkpt>
        <trkpt lat="28.66299" lon="105.394183"><ele>414.66403</ele><time>2025-11-23T20:34:30.000Z</time></trkpt>
        <trkpt lat="28.662974" lon="105.394134"><ele>414.93555</ele><time>2025-11-23T20:34:36.000Z</time></trkpt>
        <trkpt lat="28.662968" lon="105.394066"><ele>415.7064</ele><time>2025-11-23T20:34:45.000Z</time></trkpt>
        <trkpt lat="28.662995" lon="105.394013"><ele>415.2746</ele><time>2025-11-23T20:34:52.000Z</time></trkpt>
        <trkpt lat="28.663032" lon="105.393977"><ele>415.3372</ele><time>2025-11-23T20:34:57.000Z</time></trkpt>
        <trkpt lat="28.663068" lon="105.393934"><ele>415.41873</ele><time>2025-11-23T20:35:02.000Z</time></trkpt>
        <trkpt lat="28.663102" lon="105.393897"><ele>416.3226</ele><time>2025-11-23T20:35:06.000Z</time></trkpt>
        <trkpt lat="28.663134" lon="105.393854"><ele>416.82642</ele><time>2025-11-23T20:35:11.000Z</time></trkpt>
        <trkpt lat="28.663169" lon="105.393813"><ele>417.2297</ele><time>2025-11-23T20:35:16.000Z</time></trkpt>
        <trkpt lat="28.663207" lon="105.393775"><ele>417.04874</ele><time>2025-11-23T20:35:21.000Z</time></trkpt>
        <trkpt lat="28.663249" lon="105.393729"><ele>415.77875</ele><time>2025-11-23T20:35:27.000Z</time></trkpt>
        <trkpt lat="28.663281" lon="105.393685"><ele>416.87643</ele><time>2025-11-23T20:35:32.000Z</time></trkpt>
        <trkpt lat="28.663321" lon="105.393647"><ele>416.89008</ele><time>2025-11-23T20:35:37.000Z</time></trkpt>
        <trkpt lat="28.663363" lon="105.393614"><ele>416.5393</ele><time>2025-11-23T20:35:42.000Z</time></trkpt>
        <trkpt lat="28.663404" lon="105.393586"><ele>417.9367</ele><time>2025-11-23T20:35:47.000Z</time></trkpt>
        <trkpt lat="28.663455" lon="105.39358"><ele>418.6058</ele><time>2025-11-23T20:35:52.000Z</time></trkpt>
        <trkpt lat="28.663495" lon="105.393544"><ele>418.94632</ele><time>2025-11-23T20:36:04.000Z</time></trkpt>
        <trkpt lat="28.663507" lon="105.393492"><ele>418.51163</ele><time>2025-11-23T20:36:07.000Z</time></trkpt>
        <trkpt lat="28.663514" lon="105.393434"><ele>417.23032</ele><time>2025-11-23T20:36:11.000Z</time></trkpt>
        <trkpt lat="28.663506" lon="105.393373"><ele>419.81033</ele><time>2025-11-23T20:36:15.000Z</time></trkpt>
        <trkpt lat="28.663491" lon="105.393325"><ele>418.39417</ele><time>2025-11-23T20:36:20.000Z</time></trkpt>
        <trkpt lat="28.663473" lon="105.393276"><ele>418.43387</ele><time>2025-11-23T20:36:26.000Z</time></trkpt>
        <trkpt lat="28.663465" lon="105.393215"><ele>418.13586</ele><time>2025-11-23T20:36:33.000Z</time></trkpt>
        <trkpt lat="28.663466" lon="105.393163"><ele>419.15494</ele><time>2025-11-23T20:36:37.000Z</time></trkpt>
        <trkpt lat="28.663492" lon="105.393121"><ele>418.51962</ele><time>2025-11-23T20:36:47.000Z</time></trkpt>
        <trkpt lat="28.663498" lon="105.393065"><ele>418.7509</ele><time>2025-11-23T20:37:00.000Z</time></trkpt>
        <trkpt lat="28.663507" lon="105.393015"><ele>419.35498</ele><time>2025-11-23T20:37:06.000Z</time></trkpt>
        <trkpt lat="28.663516" lon="105.392955"><ele>419.54843</ele><time>2025-11-23T20:37:13.000Z</time></trkpt>
        <trkpt lat="28.663534" lon="105.392904"><ele>419.66708</ele><time>2025-11-23T20:37:19.000Z</time></trkpt>
        <trkpt lat="28.663547" lon="105.392853"><ele>419.95184</ele><time>2025-11-23T20:37:25.000Z</time></trkpt>
        <trkpt lat="28.663562" lon="105.392803"><ele>420.11026</ele><time>2025-11-23T20:37:31.000Z</time></trkpt>
        <trkpt lat="28.663589" lon="105.392754"><ele>420.9631</ele><time>2025-11-23T20:37:40.000Z</time></trkpt>
        <trkpt lat="28.663612" lon="105.392709"><ele>421.24872</ele><time>2025-11-23T20:37:45.000Z</time></trkpt>
        <trkpt lat="28.663642" lon="105.392653"><ele>422.8247</ele><time>2025-11-23T20:37:50.000Z</time></trkpt>
        <trkpt lat="28.663677" lon="105.392608"><ele>422.38245</ele><time>2025-11-23T20:37:55.000Z</time></trkpt>
        <trkpt lat="28.663701" lon="105.392564"><ele>421.91714</ele><time>2025-11-23T20:37:59.000Z</time></trkpt>
        <trkpt lat="28.663738" lon="105.392526"><ele>422.5771</ele><time>2025-11-23T20:38:15.000Z</time></trkpt>
        <trkpt lat="28.663761" lon="105.392479"><ele>422.5331</ele><time>2025-11-23T20:38:33.000Z</time></trkpt>
        <trkpt lat="28.663784" lon="105.392433"><ele>421.2837</ele><time>2025-11-23T20:38:36.000Z</time></trkpt>
        <trkpt lat="28.663816" lon="105.392384"><ele>420.68448</ele><time>2025-11-23T20:38:40.000Z</time></trkpt>
        <trkpt lat="28.663839" lon="105.392329"><ele>422.25885</ele><time>2025-11-23T20:38:43.000Z</time></trkpt>
        <trkpt lat="28.663874" lon="105.392296"><ele>420.16867</ele><time>2025-11-23T20:38:47.000Z</time></trkpt>
        <trkpt lat="28.663925" lon="105.392272"><ele>420.37314</ele><time>2025-11-23T20:38:52.000Z</time></trkpt>
        <trkpt lat="28.663971" lon="105.392267"><ele>420.49747</ele><time>2025-11-23T20:38:56.000Z</time></trkpt>
        <trkpt lat="28.664018" lon="105.392279"><ele>419.99823</ele><time>2025-11-23T20:39:01.000Z</time></trkpt>
        <trkpt lat="28.664067" lon="105.392297"><ele>420.04932</ele><time>2025-11-23T20:39:05.000Z</time></trkpt>
        <trkpt lat="28.664116" lon="105.392329"><ele>419.55234</ele><time>2025-11-23T20:39:10.000Z</time></trkpt>
        <trkpt lat="28.664161" lon="105.392367"><ele>418.9818</ele><time>2025-11-23T20:39:15.000Z</time></trkpt>
        <trkpt lat="28.664198" lon="105.392398"><ele>418.91656</ele><time>2025-11-23T20:39:19.000Z</time></trkpt>
        <trkpt lat="28.664239" lon="105.392439"><ele>418.41678</ele><time>2025-11-23T20:39:24.000Z</time></trkpt>
        <trkpt lat="28.66428" lon="105.392475"><ele>417.70938</ele><time>2025-11-23T20:39:29.000Z</time></trkpt>
        <trkpt lat="28.664329" lon="105.392503"><ele>416.82858</ele><time>2025-11-23T20:39:34.000Z</time></trkpt>
        <trkpt lat="28.66438" lon="105.39252"><ele>416.06195</ele><time>2025-11-23T20:39:39.000Z</time></trkpt>
        <trkpt lat="28.664425" lon="105.392522"><ele>415.4507</ele><time>2025-11-23T20:39:43.000Z</time></trkpt>
        <trkpt lat="28.664477" lon="105.392523"><ele>415.95444</ele><time>2025-11-23T20:39:49.000Z</time></trkpt>
        <trkpt lat="28.664521" lon="105.39249"><ele>414.4634</ele><time>2025-11-23T20:39:53.000Z</time></trkpt>
        <trkpt lat="28.664568" lon="105.392504"><ele>413.43753</ele><time>2025-11-23T20:39:57.000Z</time></trkpt>
        <trkpt lat="28.664622" lon="105.392497"><ele>413.2894</ele><time>2025-11-23T20:40:02.000Z</time></trkpt>
        <trkpt lat="28.664673" lon="105.392508"><ele>411.57245</ele><time>2025-11-23T20:40:05.000Z</time></trkpt>
        <trkpt lat="28.664718" lon="105.392489"><ele>412.58414</ele><time>2025-11-23T20:40:10.000Z</time></trkpt>
        <trkpt lat="28.664772" lon="105.392477"><ele>413.40735</ele><time>2025-11-23T20:40:14.000Z</time></trkpt>
        <trkpt lat="28.664821" lon="105.392455"><ele>413.17578</ele><time>2025-11-23T20:40:18.000Z</time></trkpt>
        <trkpt lat="28.664876" lon="105.392422"><ele>412.36166</ele><time>2025-11-23T20:40:22.000Z</time></trkpt>
        <trkpt lat="28.664921" lon="105.392375"><ele>411.9762</ele><time>2025-11-23T20:40:26.000Z</time></trkpt>
        <trkpt lat="28.664963" lon="105.39233"><ele>411.0079</ele><time>2025-11-23T20:40:30.000Z</time></trkpt>
        <trkpt lat="28.664992" lon="105.39227"><ele>411.46548</ele><time>2025-11-23T20:40:34.000Z</time></trkpt>
        <trkpt lat="28.665001" lon="105.392212"><ele>412.2952</ele><time>2025-11-23T20:40:37.000Z</time></trkpt>
        <trkpt lat="28.665021" lon="105.392149"><ele>413.56534</ele><time>2025-11-23T20:40:41.000Z</time></trkpt>
        <trkpt lat="28.665016" lon="105.392087"><ele>414.0059</ele><time>2025-11-23T20:40:45.000Z</time></trkpt>
        <trkpt lat="28.665012" lon="105.392026"><ele>413.28925</ele><time>2025-11-23T20:40:49.000Z</time></trkpt>
        <trkpt lat="28.664996" lon="105.391965"><ele>413.3996</ele><time>2025-11-23T20:40:53.000Z</time></trkpt>
        <trkpt lat="28.664969" lon="105.39191"><ele>414.72485</ele><time>2025-11-23T20:40:57.000Z</time></trkpt>
        <trkpt lat="28.664939" lon="105.39187"><ele>414.47955</ele><time>2025-11-23T20:41:01.000Z</time></trkpt>
        <trkpt lat="28.6649" lon="105.391826"><ele>416.20584</ele><time>2025-11-23T20:41:06.000Z</time></trkpt>
        <trkpt lat="28.664863" lon="105.391789"><ele>416.0345</ele><time>2025-11-23T20:41:10.000Z</time></trkpt>
        <trkpt lat="28.664827" lon="105.391754"><ele>415.9765</ele><time>2025-11-23T20:41:14.000Z</time></trkpt>
        <trkpt lat="28.664786" lon="105.391719"><ele>417.09708</ele><time>2025-11-23T20:41:19.000Z</time></trkpt>
        <trkpt lat="28.664744" lon="105.391695"><ele>416.70572</ele><time>2025-11-23T20:41:23.000Z</time></trkpt>
        <trkpt lat="28.664705" lon="105.391664"><ele>417.10785</ele><time>2025-11-23T20:41:40.000Z</time></trkpt>
        <trkpt lat="28.664667" lon="105.39163"><ele>418.0329</ele><time>2025-11-23T20:41:46.000Z</time></trkpt>
        <trkpt lat="28.664633" lon="105.391595"><ele>418.41766</ele><time>2025-11-23T20:41:51.000Z</time></trkpt>
        <trkpt lat="28.664597" lon="105.39156"><ele>419.40616</ele><time>2025-11-23T20:41:58.000Z</time></trkpt>
        <trkpt lat="28.664555" lon="105.391528"><ele>420.71487</ele><time>2025-11-23T20:42:05.000Z</time></trkpt>
        <trkpt lat="28.664528" lon="105.391483"><ele>420.60956</ele><time>2025-11-23T20:42:15.000Z</time></trkpt>
        <trkpt lat="28.664503" lon="105.39144"><ele>420.86072</ele><time>2025-11-23T20:42:20.000Z</time></trkpt>
        <trkpt lat="28.664477" lon="105.391395"><ele>420.8796</ele><time>2025-11-23T20:42:25.000Z</time></trkpt>
        <trkpt lat="28.664449" lon="105.391346"><ele>420.9366</ele><time>2025-11-23T20:42:31.000Z</time></trkpt>
        <trkpt lat="28.664434" lon="105.391287"><ele>420.96857</ele><time>2025-11-23T20:42:36.000Z</time></trkpt>
        <trkpt lat="28.664427" lon="105.39123"><ele>420.9639</ele><time>2025-11-23T20:42:43.000Z</time></trkpt>
        <trkpt lat="28.664426" lon="105.391172"><ele>421.3574</ele><time>2025-11-23T20:42:48.000Z</time></trkpt>
        <trkpt lat="28.664429" lon="105.391116"><ele>421.8016</ele><time>2025-11-23T20:42:53.000Z</time></trkpt>
        <trkpt lat="28.664435" lon="105.391063"><ele>421.86514</ele><time>2025-11-23T20:42:58.000Z</time></trkpt>
        <trkpt lat="28.664452" lon="105.391012"><ele>421.33987</ele><time>2025-11-23T20:43:03.000Z</time></trkpt>
        <trkpt lat="28.664474" lon="105.390967"><ele>421.05438</ele><time>2025-11-23T20:43:08.000Z</time></trkpt>
        <trkpt lat="28.664498" lon="105.390923"><ele>421.02707</ele><time>2025-11-23T20:43:13.000Z</time></trkpt>
        <trkpt lat="28.664528" lon="105.39087"><ele>420.77902</ele><time>2025-11-23T20:43:18.000Z</time></trkpt>
        <trkpt lat="28.66457" lon="105.390828"><ele>420.4939</ele><time>2025-11-23T20:43:23.000Z</time></trkpt>
        <trkpt lat="28.664623" lon="105.390793"><ele>420.0446</ele><time>2025-11-23T20:43:27.000Z</time></trkpt>
        <trkpt lat="28.664661" lon="105.390752"><ele>421.15536</ele><time>2025-11-23T20:43:32.000Z</time></trkpt>
        <trkpt lat="28.664703" lon="105.390712"><ele>420.46317</ele><time>2025-11-23T20:43:38.000Z</time></trkpt>
        <trkpt lat="28.664745" lon="105.39068"><ele>419.9818</ele><time>2025-11-23T20:43:44.000Z</time></trkpt>
        <trkpt lat="28.664766" lon="105.390629"><ele>420.778</ele><time>2025-11-23T20:43:50.000Z</time></trkpt>
        <trkpt lat="28.66478" lon="105.39057"><ele>421.4133</ele><time>2025-11-23T20:43:55.000Z</time></trkpt>
        <trkpt lat="28.664774" lon="105.390516"><ele>422.3669</ele><time>2025-11-23T20:44:01.000Z</time></trkpt>
        <trkpt lat="28.664766" lon="105.39044"><ele>423.26657</ele><time>2025-11-23T20:44:06.000Z</time></trkpt>
        <trkpt lat="28.664764" lon="105.390382"><ele>422.62283</ele><time>2025-11-23T20:44:10.000Z</time></trkpt>
        <trkpt lat="28.66476" lon="105.390323"><ele>422.90427</ele><time>2025-11-23T20:44:17.000Z</time></trkpt>
        <trkpt lat="28.664757" lon="105.390261"><ele>423.06104</ele><time>2025-11-23T20:44:26.000Z</time></trkpt>
        <trkpt lat="28.664725" lon="105.39022"><ele>423.02072</ele><time>2025-11-23T20:44:36.000Z</time></trkpt>
        <trkpt lat="28.664699" lon="105.390174"><ele>423.28546</ele><time>2025-11-23T20:44:44.000Z</time></trkpt>
        <trkpt lat="28.664668" lon="105.390129"><ele>424.212</ele><time>2025-11-23T20:44:51.000Z</time></trkpt>
        <trkpt lat="28.664632" lon="105.390097"><ele>425.3531</ele><time>2025-11-23T20:44:57.000Z</time></trkpt>
        <trkpt lat="28.664611" lon="105.39004"><ele>426.67947</ele><time>2025-11-23T20:45:03.000Z</time></trkpt>
        <trkpt lat="28.664587" lon="105.389994"><ele>426.17175</ele><time>2025-11-23T20:45:10.000Z</time></trkpt>
        <trkpt lat="28.664571" lon="105.389939"><ele>426.9702</ele><time>2025-11-23T20:45:19.000Z</time></trkpt>
        <trkpt lat="28.664568" lon="105.389887"><ele>427.04602</ele><time>2025-11-23T20:45:24.000Z</time></trkpt>
        <trkpt lat="28.66458" lon="105.389835"><ele>426.27548</ele><time>2025-11-23T20:45:29.000Z</time></trkpt>
        <trkpt lat="28.664599" lon="105.389781"><ele>425.41187</ele><time>2025-11-23T20:45:34.000Z</time></trkpt>
        <trkpt lat="28.664625" lon="105.389732"><ele>425.449</ele><time>2025-11-23T20:45:39.000Z</time></trkpt>
        <trkpt lat="28.664647" lon="105.389686"><ele>425.60867</ele><time>2025-11-23T20:45:44.000Z</time></trkpt>
        <trkpt lat="28.664671" lon="105.389633"><ele>425.70847</ele><time>2025-11-23T20:45:49.000Z</time></trkpt>
        <trkpt lat="28.664699" lon="105.389583"><ele>424.84564</ele><time>2025-11-23T20:45:54.000Z</time></trkpt>
        <trkpt lat="28.66473" lon="105.389532"><ele>425.3315</ele><time>2025-11-23T20:46:00.000Z</time></trkpt>
        <trkpt lat="28.664762" lon="105.389494"><ele>425.8258</ele><time>2025-11-23T20:46:05.000Z</time></trkpt>
        <trkpt lat="28.664801" lon="105.389463"><ele>426.30142</ele><time>2025-11-23T20:46:10.000Z</time></trkpt>
        <trkpt lat="28.664852" lon="105.389447"><ele>426.23788</ele><time>2025-11-23T20:46:15.000Z</time></trkpt>
        <trkpt lat="28.664901" lon="105.389428"><ele>426.5925</ele><time>2025-11-23T20:46:20.000Z</time></trkpt>
        <trkpt lat="28.664945" lon="105.389404"><ele>426.82526</ele><time>2025-11-23T20:46:25.000Z</time></trkpt>
        <trkpt lat="28.664991" lon="105.389386"><ele>426.87814</ele><time>2025-11-23T20:46:30.000Z</time></trkpt>
        <trkpt lat="28.665031" lon="105.389359"><ele>427.59717</ele><time>2025-11-23T20:46:34.000Z</time></trkpt>
        <trkpt lat="28.665075" lon="105.389323"><ele>427.809</ele><time>2025-11-23T20:46:39.000Z</time></trkpt>
        <trkpt lat="28.665109" lon="105.389274"><ele>427.62982</ele><time>2025-11-23T20:46:45.000Z</time></trkpt>
        <trkpt lat="28.665126" lon="105.38922"><ele>427.8019</ele><time>2025-11-23T20:46:50.000Z</time></trkpt>
        <trkpt lat="28.665119" lon="105.389169"><ele>427.92258</ele><time>2025-11-23T20:46:56.000Z</time></trkpt>
        <trkpt lat="28.665094" lon="105.389116"><ele>427.1769</ele><time>2025-11-23T20:47:02.000Z</time></trkpt>
        <trkpt lat="28.665076" lon="105.389068"><ele>426.32153</ele><time>2025-11-23T20:47:07.000Z</time></trkpt>
        <trkpt lat="28.66506" lon="105.389018"><ele>425.38882</ele><time>2025-11-23T20:47:12.000Z</time></trkpt>
        <trkpt lat="28.665044" lon="105.388969"><ele>421.35965</ele><time>2025-11-23T20:47:17.000Z</time></trkpt>
        <trkpt lat="28.665037" lon="105.388913"><ele>418.90527</ele><time>2025-11-23T20:47:21.000Z</time></trkpt>
        <trkpt lat="28.665044" lon="105.388847"><ele>417.52124</ele><time>2025-11-23T20:47:25.000Z</time></trkpt>
        <trkpt lat="28.665062" lon="105.388788"><ele>417.79868</ele><time>2025-11-23T20:47:33.000Z</time></trkpt>
        <trkpt lat="28.665098" lon="105.388746"><ele>411.03873</ele><time>2025-11-23T20:47:38.000Z</time></trkpt>
        <trkpt lat="28.665139" lon="105.388725"><ele>411.67004</ele><time>2025-11-23T20:47:43.000Z</time></trkpt>
        <trkpt lat="28.665178" lon="105.38869"><ele>415.8026</ele><time>2025-11-23T20:47:57.000Z</time></trkpt>
        <trkpt lat="28.665213" lon="105.388647"><ele>415.34167</ele><time>2025-11-23T20:48:04.000Z</time></trkpt>
        <trkpt lat="28.665251" lon="105.3886"><ele>413.7529</ele><time>2025-11-23T20:48:07.000Z</time></trkpt>
        <trkpt lat="28.665251" lon="105.388533"><ele>416.13043</ele><time>2025-11-23T20:48:09.000Z</time></trkpt>
        <trkpt lat="28.665301" lon="105.388511"><ele>414.22314</ele><time>2025-11-23T20:48:15.000Z</time></trkpt>
        <trkpt lat="28.665353" lon="105.388517"><ele>413.5147</ele><time>2025-11-23T20:48:20.000Z</time></trkpt>
        <trkpt lat="28.665398" lon="105.38852"><ele>413.6601</ele><time>2025-11-23T20:48:24.000Z</time></trkpt>
        <trkpt lat="28.665444" lon="105.388538"><ele>413.29437</ele><time>2025-11-23T20:48:29.000Z</time></trkpt>
        <trkpt lat="28.665489" lon="105.388531"><ele>414.4098</ele><time>2025-11-23T20:48:34.000Z</time></trkpt>
        <trkpt lat="28.665542" lon="105.388545"><ele>416.2077</ele><time>2025-11-23T20:48:39.000Z</time></trkpt>
        <trkpt lat="28.665593" lon="105.388546"><ele>417.47385</ele><time>2025-11-23T20:48:44.000Z</time></trkpt>
        <trkpt lat="28.665646" lon="105.388536"><ele>419.26175</ele><time>2025-11-23T20:48:49.000Z</time></trkpt>
        <trkpt lat="28.665689" lon="105.388519"><ele>422.11172</ele><time>2025-11-23T20:48:54.000Z</time></trkpt>
        <trkpt lat="28.66574" lon="105.388521"><ele>419.91248</ele><time>2025-11-23T20:48:58.000Z</time></trkpt>
        <trkpt lat="28.66579" lon="105.388508"><ele>420.36475</ele><time>2025-11-23T20:49:03.000Z</time></trkpt>
        <trkpt lat="28.665834" lon="105.388522"><ele>419.5612</ele><time>2025-11-23T20:49:06.000Z</time></trkpt>
        <trkpt lat="28.665881" lon="105.388496"><ele>419.5781</ele><time>2025-11-23T20:49:11.000Z</time></trkpt>
        <trkpt lat="28.66593" lon="105.388486"><ele>420.1725</ele><time>2025-11-23T20:49:16.000Z</time></trkpt>
        <trkpt lat="28.665972" lon="105.388454"><ele>419.54877</ele><time>2025-11-23T20:49:21.000Z</time></trkpt>
        <trkpt lat="28.666012" lon="105.388427"><ele>418.68655</ele><time>2025-11-23T20:49:26.000Z</time></trkpt>
        <trkpt lat="28.666043" lon="105.388387"><ele>417.3506</ele><time>2025-11-23T20:49:32.000Z</time></trkpt>
        <trkpt lat="28.666068" lon="105.388335"><ele>417.53644</ele><time>2025-11-23T20:49:39.000Z</time></trkpt>
        <trkpt lat="28.666092" lon="105.388288"><ele>416.1819</ele><time>2025-11-23T20:49:45.000Z</time></trkpt>
        <trkpt lat="28.66609" lon="105.388231"><ele>418.5021</ele><time>2025-11-23T20:49:54.000Z</time></trkpt>
        <trkpt lat="28.666085" lon="105.388167"><ele>419.1441</ele><time>2025-11-23T20:50:06.000Z</time></trkpt>
        <trkpt lat="28.666067" lon="105.388113"><ele>420.4994</ele><time>2025-11-23T20:50:18.000Z</time></trkpt>
        <trkpt lat="28.666051" lon="105.388059"><ele>420.84375</ele><time>2025-11-23T20:50:21.000Z</time></trkpt>
        <trkpt lat="28.666037" lon="105.388001"><ele>420.9985</ele><time>2025-11-23T20:50:33.000Z</time></trkpt>
        <trkpt lat="28.66602" lon="105.387952"><ele>422.05902</ele><time>2025-11-23T20:50:49.000Z</time></trkpt>
        <trkpt lat="28.665981" lon="105.38791"><ele>421.60886</ele><time>2025-11-23T20:51:01.000Z</time></trkpt>
        <trkpt lat="28.665942" lon="105.387869"><ele>422.13107</ele><time>2025-11-23T20:51:13.000Z</time></trkpt>
        <trkpt lat="28.665904" lon="105.387836"><ele>422.21088</ele><time>2025-11-23T20:51:23.000Z</time></trkpt>
        <trkpt lat="28.66587" lon="105.387786"><ele>422.3751</ele><time>2025-11-23T20:51:31.000Z</time></trkpt>
        <trkpt lat="28.665854" lon="105.387736"><ele>421.43787</ele><time>2025-11-23T20:51:36.000Z</time></trkpt>
        <trkpt lat="28.665841" lon="105.387678"><ele>420.5921</ele><time>2025-11-23T20:51:46.000Z</time></trkpt>
        <trkpt lat="28.665825" lon="105.387618"><ele>419.81067</ele><time>2025-11-23T20:51:52.000Z</time></trkpt>
        <trkpt lat="28.665831" lon="105.387562"><ele>419.12805</ele><time>2025-11-23T20:51:57.000Z</time></trkpt>
        <trkpt lat="28.665855" lon="105.387512"><ele>419.20078</ele><time>2025-11-23T20:52:14.000Z</time></trkpt>
        <trkpt lat="28.66588" lon="105.387469"><ele>420.23917</ele><time>2025-11-23T20:52:30.000Z</time></trkpt>
        <trkpt lat="28.665915" lon="105.38743"><ele>420.1112</ele><time>2025-11-23T20:52:35.000Z</time></trkpt>
        <trkpt lat="28.665956" lon="105.387393"><ele>421.1224</ele><time>2025-11-23T20:52:41.000Z</time></trkpt>
        <trkpt lat="28.665994" lon="105.387347"><ele>421.35202</ele><time>2025-11-23T20:52:47.000Z</time></trkpt>
        <trkpt lat="28.666046" lon="105.387328"><ele>422.5024</ele><time>2025-11-23T20:52:51.000Z</time></trkpt>
        <trkpt lat="28.666086" lon="105.387301"><ele>422.14825</ele><time>2025-11-23T20:52:55.000Z</time></trkpt>
        <trkpt lat="28.666128" lon="105.387263"><ele>423.26028</ele><time>2025-11-23T20:52:59.000Z</time></trkpt>
        <trkpt lat="28.666151" lon="105.387215"><ele>424.51584</ele><time>2025-11-23T20:53:05.000Z</time></trkpt>
        <trkpt lat="28.666185" lon="105.387176"><ele>425.88794</ele><time>2025-11-23T20:53:10.000Z</time></trkpt>
        <trkpt lat="28.66619" lon="105.38712"><ele>427.04483</ele><time>2025-11-23T20:53:12.000Z</time></trkpt>
        <trkpt lat="28.666219" lon="105.387081"><ele>429.04922</ele><time>2025-11-23T20:53:16.000Z</time></trkpt>
        <trkpt lat="28.666254" lon="105.387042"><ele>428.78632</ele><time>2025-11-23T20:53:34.000Z</time></trkpt>
        <trkpt lat="28.6663" lon="105.387027"><ele>428.40295</ele><time>2025-11-23T20:53:41.000Z</time></trkpt>
        <trkpt lat="28.666338" lon="105.386996"><ele>429.04507</ele><time>2025-11-23T20:53:47.000Z</time></trkpt>
        <trkpt lat="28.666378" lon="105.386956"><ele>430.73764</ele><time>2025-11-23T20:54:03.000Z</time></trkpt>
        <trkpt lat="28.666416" lon="105.386928"><ele>432.1719</ele><time>2025-11-23T20:54:15.000Z</time></trkpt>
        <trkpt lat="28.666454" lon="105.386892"><ele>433.99554</ele><time>2025-11-23T20:54:23.000Z</time></trkpt>
        <trkpt lat="28.666503" lon="105.38689"><ele>431.63995</ele><time>2025-11-23T20:54:39.000Z</time></trkpt>
        <trkpt lat="28.666541" lon="105.386862"><ele>433.61453</ele><time>2025-11-23T20:54:44.000Z</time></trkpt>
        <trkpt lat="28.666589" lon="105.386832"><ele>434.93195</ele><time>2025-11-23T20:54:54.000Z</time></trkpt>
        <trkpt lat="28.66664" lon="105.38681"><ele>434.4589</ele><time>2025-11-23T20:55:00.000Z</time></trkpt>
        <trkpt lat="28.666675" lon="105.386768"><ele>435.11725</ele><time>2025-11-23T20:55:02.000Z</time></trkpt>
        <trkpt lat="28.666724" lon="105.386767"><ele>435.89804</ele><time>2025-11-23T20:55:09.000Z</time></trkpt>
        <trkpt lat="28.666772" lon="105.386745"><ele>435.72107</ele><time>2025-11-23T20:55:18.000Z</time></trkpt>
        <trkpt lat="28.666818" lon="105.386716"><ele>435.3918</ele><time>2025-11-23T20:55:24.000Z</time></trkpt>
        <trkpt lat="28.666864" lon="105.386695"><ele>436.40274</ele><time>2025-11-23T20:55:29.000Z</time></trkpt>
        <trkpt lat="28.666906" lon="105.386667"><ele>435.6076</ele><time>2025-11-23T20:55:34.000Z</time></trkpt>
        <trkpt lat="28.666926" lon="105.386619"><ele>435.44644</ele><time>2025-11-23T20:55:37.000Z</time></trkpt>
        <trkpt lat="28.66695" lon="105.386561"><ele>435.48428</ele><time>2025-11-23T20:55:42.000Z</time></trkpt>
        <trkpt lat="28.66696" lon="105.386508"><ele>436.37988</ele><time>2025-11-23T20:55:47.000Z</time></trkpt>
        <trkpt lat="28.66696" lon="105.386449"><ele>437.3827</ele><time>2025-11-23T20:55:53.000Z</time></trkpt>
        <trkpt lat="28.666945" lon="105.386395"><ele>438.02698</ele><time>2025-11-23T20:56:05.000Z</time></trkpt>
        <trkpt lat="28.666923" lon="105.386343"><ele>438.35117</ele><time>2025-11-23T20:56:11.000Z</time></trkpt>
        <trkpt lat="28.666898" lon="105.386298"><ele>439.29373</ele><time>2025-11-23T20:56:17.000Z</time></trkpt>
        <trkpt lat="28.666861" lon="105.386256"><ele>440.0611</ele><time>2025-11-23T20:56:30.000Z</time></trkpt>
        <trkpt lat="28.666818" lon="105.386221"><ele>440.73444</ele><time>2025-11-23T20:56:37.000Z</time></trkpt>
        <trkpt lat="28.666771" lon="105.386205"><ele>440.57767</ele><time>2025-11-23T20:56:43.000Z</time></trkpt>
        <trkpt lat="28.666739" lon="105.386168"><ele>440.00388</ele><time>2025-11-23T20:56:52.000Z</time></trkpt>
        <trkpt lat="28.666786" lon="105.386158"><ele>440.29013</ele><time>2025-11-23T20:58:20.000Z</time></trkpt>
        <trkpt lat="28.666744" lon="105.386138"><ele>441.25882</ele><time>2025-11-23T20:58:40.000Z</time></trkpt>
        <trkpt lat="28.666698" lon="105.386138"><ele>441.56253</ele><time>2025-11-23T21:03:22.000Z</time></trkpt>
        <trkpt lat="28.666663" lon="105.386094"><ele>441.76733</ele><time>2025-11-23T21:03:25.000Z</time></trkpt>
        <trkpt lat="28.666622" lon="105.386072"><ele>442.81097</ele><time>2025-11-23T21:03:29.000Z</time></trkpt>
        <trkpt lat="28.66659" lon="105.386035"><ele>444.05798</ele><time>2025-11-23T21:03:33.000Z</time></trkpt>
        <trkpt lat="28.666551" lon="105.386004"><ele>446.14883</ele><time>2025-11-23T21:03:38.000Z</time></trkpt>
        <trkpt lat="28.666523" lon="105.385956"><ele>445.76242</ele><time>2025-11-23T21:03:42.000Z</time></trkpt>
        <trkpt lat="28.666513" lon="105.385897"><ele>443.74292</ele><time>2025-11-23T21:03:46.000Z</time></trkpt>
        <trkpt lat="28.666494" lon="105.385846"><ele>444.13806</ele><time>2025-11-23T21:03:51.000Z</time></trkpt>
        <trkpt lat="28.66649" lon="105.385784"><ele>444.44778</ele><time>2025-11-23T21:03:56.000Z</time></trkpt>
        <trkpt lat="28.666496" lon="105.385731"><ele>444.3192</ele><time>2025-11-23T21:04:00.000Z</time></trkpt>
        <trkpt lat="28.666526" lon="105.385681"><ele>444.0024</ele><time>2025-11-23T21:04:05.000Z</time></trkpt>
        <trkpt lat="28.666549" lon="105.385634"><ele>443.7653</ele><time>2025-11-23T21:04:15.000Z</time></trkpt>
        <trkpt lat="28.666585" lon="105.385592"><ele>444.0187</ele><time>2025-11-23T21:04:21.000Z</time></trkpt>
        <trkpt lat="28.666628" lon="105.385555"><ele>444.67972</ele><time>2025-11-23T21:04:27.000Z</time></trkpt>
        <trkpt lat="28.666677" lon="105.385526"><ele>447.39447</ele><time>2025-11-23T21:04:41.000Z</time></trkpt>
        <trkpt lat="28.666719" lon="105.385495"><ele>446.7511</ele><time>2025-11-23T21:04:46.000Z</time></trkpt>
        <trkpt lat="28.666763" lon="105.385473"><ele>447.181</ele><time>2025-11-23T21:04:52.000Z</time></trkpt>
        <trkpt lat="28.666815" lon="105.385453"><ele>447.71136</ele><time>2025-11-23T21:04:58.000Z</time></trkpt>
        <trkpt lat="28.66686" lon="105.385433"><ele>447.16525</ele><time>2025-11-23T21:05:04.000Z</time></trkpt>
        <trkpt lat="28.666906" lon="105.385416"><ele>447.37814</ele><time>2025-11-23T21:05:09.000Z</time></trkpt>
        <trkpt lat="28.666951" lon="105.385392"><ele>447.46292</ele><time>2025-11-23T21:05:15.000Z</time></trkpt>
        <trkpt lat="28.666989" lon="105.385362"><ele>446.7863</ele><time>2025-11-23T21:05:20.000Z</time></trkpt>
        <trkpt lat="28.667011" lon="105.385312"><ele>447.07016</ele><time>2025-11-23T21:05:25.000Z</time></trkpt>
        <trkpt lat="28.667028" lon="105.385261"><ele>446.87738</ele><time>2025-11-23T21:05:30.000Z</time></trkpt>
        <trkpt lat="28.667045" lon="105.385209"><ele>446.20282</ele><time>2025-11-23T21:05:36.000Z</time></trkpt>
        <trkpt lat="28.667052" lon="105.385155"><ele>445.76443</ele><time>2025-11-23T21:05:41.000Z</time></trkpt>
        <trkpt lat="28.667061" lon="105.385101"><ele>445.06802</ele><time>2025-11-23T21:05:46.000Z</time></trkpt>
        <trkpt lat="28.667058" lon="105.385041"><ele>444.54257</ele><time>2025-11-23T21:05:57.000Z</time></trkpt>
        <trkpt lat="28.667035" lon="105.384985"><ele>444.29166</ele><time>2025-11-23T21:06:03.000Z</time></trkpt>
        <trkpt lat="28.667008" lon="105.384937"><ele>443.72675</ele><time>2025-11-23T21:06:08.000Z</time></trkpt>
        <trkpt lat="28.666984" lon="105.38489"><ele>443.1301</ele><time>2025-11-23T21:06:12.000Z</time></trkpt>
        <trkpt lat="28.666989" lon="105.38483"><ele>442.32736</ele><time>2025-11-23T21:06:16.000Z</time></trkpt>
        <trkpt lat="28.667025" lon="105.384792"><ele>441.3537</ele><time>2025-11-23T21:06:20.000Z</time></trkpt>
        <trkpt lat="28.667074" lon="105.384801"><ele>441.41995</ele><time>2025-11-23T21:06:24.000Z</time></trkpt>
        <trkpt lat="28.667122" lon="105.384794"><ele>440.8723</ele><time>2025-11-23T21:06:27.000Z</time></trkpt>
        <trkpt lat="28.667177" lon="105.384793"><ele>442.62894</ele><time>2025-11-23T21:06:31.000Z</time></trkpt>
        <trkpt lat="28.667237" lon="105.384794"><ele>442.10223</ele><time>2025-11-23T21:06:35.000Z</time></trkpt>
        <trkpt lat="28.667285" lon="105.384796"><ele>441.7434</ele><time>2025-11-23T21:06:38.000Z</time></trkpt>
        <trkpt lat="28.667331" lon="105.384824"><ele>439.28256</ele><time>2025-11-23T21:06:42.000Z</time></trkpt>
        <trkpt lat="28.667374" lon="105.384857"><ele>438.69092</ele><time>2025-11-23T21:06:47.000Z</time></trkpt>
        <trkpt lat="28.667415" lon="105.384897"><ele>438.4277</ele><time>2025-11-23T21:06:52.000Z</time></trkpt>
        <trkpt lat="28.667455" lon="105.384933"><ele>437.5836</ele><time>2025-11-23T21:06:57.000Z</time></trkpt>
        <trkpt lat="28.667502" lon="105.38497"><ele>437.83484</ele><time>2025-11-23T21:07:02.000Z</time></trkpt>
        <trkpt lat="28.667548" lon="105.385015"><ele>437.3162</ele><time>2025-11-23T21:07:07.000Z</time></trkpt>
        <trkpt lat="28.667589" lon="105.385052"><ele>437.7527</ele><time>2025-11-23T21:07:12.000Z</time></trkpt>
        <trkpt lat="28.667632" lon="105.385073"><ele>437.5952</ele><time>2025-11-23T21:07:17.000Z</time></trkpt>
        <trkpt lat="28.667677" lon="105.385086"><ele>437.08206</ele><time>2025-11-23T21:07:22.000Z</time></trkpt>
        <trkpt lat="28.667725" lon="105.385085"><ele>436.30655</ele><time>2025-11-23T21:07:27.000Z</time></trkpt>
        <trkpt lat="28.667773" lon="105.385057"><ele>435.83456</ele><time>2025-11-23T21:07:32.000Z</time></trkpt>
        <trkpt lat="28.667817" lon="105.385032"><ele>435.27377</ele><time>2025-11-23T21:07:37.000Z</time></trkpt>
        <trkpt lat="28.66786" lon="105.384995"><ele>434.9067</ele><time>2025-11-23T21:07:42.000Z</time></trkpt>
        <trkpt lat="28.667892" lon="105.384954"><ele>433.23883</ele><time>2025-11-23T21:08:45.000Z</time></trkpt>
        <trkpt lat="28.667906" lon="105.384893"><ele>433.8061</ele><time>2025-11-23T21:08:51.000Z</time></trkpt>
        <trkpt lat="28.667915" lon="105.384842"><ele>433.57153</ele><time>2025-11-23T21:08:56.000Z</time></trkpt>
        <trkpt lat="28.667899" lon="105.384786"><ele>434.0716</ele><time>2025-11-23T21:09:02.000Z</time></trkpt>
        <trkpt lat="28.667883" lon="105.384734"><ele>434.8361</ele><time>2025-11-23T21:09:07.000Z</time></trkpt>
        <trkpt lat="28.667869" lon="105.38468"><ele>434.21222</ele><time>2025-11-23T21:09:12.000Z</time></trkpt>
        <trkpt lat="28.667853" lon="105.384632"><ele>434.0397</ele><time>2025-11-23T21:09:17.000Z</time></trkpt>
        <trkpt lat="28.667837" lon="105.384569"><ele>434.4745</ele><time>2025-11-23T21:09:22.000Z</time></trkpt>
        <trkpt lat="28.667825" lon="105.384511"><ele>433.84686</ele><time>2025-11-23T21:09:28.000Z</time></trkpt>
        <trkpt lat="28.66781" lon="105.384457"><ele>433.91895</ele><time>2025-11-23T21:09:33.000Z</time></trkpt>
        <trkpt lat="28.667797" lon="105.3844"><ele>433.76608</ele><time>2025-11-23T21:09:38.000Z</time></trkpt>
        <trkpt lat="28.667778" lon="105.384354"><ele>432.93396</ele><time>2025-11-23T21:09:43.000Z</time></trkpt>
        <trkpt lat="28.66775" lon="105.384312"><ele>432.39365</ele><time>2025-11-23T21:09:49.000Z</time></trkpt>
        <trkpt lat="28.667718" lon="105.384265"><ele>431.26913</ele><time>2025-11-23T21:09:53.000Z</time></trkpt>
        <trkpt lat="28.667689" lon="105.384222"><ele>429.69235</ele><time>2025-11-23T21:09:58.000Z</time></trkpt>
        <trkpt lat="28.667651" lon="105.384191"><ele>429.92776</ele><time>2025-11-23T21:10:02.000Z</time></trkpt>
        <trkpt lat="28.66762" lon="105.384143"><ele>429.76996</ele><time>2025-11-23T21:10:06.000Z</time></trkpt>
        <trkpt lat="28.667578" lon="105.384112"><ele>430.42725</ele><time>2025-11-23T21:10:10.000Z</time></trkpt>
        <trkpt lat="28.667527" lon="105.384105"><ele>428.2541</ele><time>2025-11-23T21:10:15.000Z</time></trkpt>
        <trkpt lat="28.667483" lon="105.384088"><ele>428.2722</ele><time>2025-11-23T21:10:20.000Z</time></trkpt>
        <trkpt lat="28.667434" lon="105.384074"><ele>428.58926</ele><time>2025-11-23T21:10:25.000Z</time></trkpt>
        <trkpt lat="28.667381" lon="105.38408"><ele>428.80295</ele><time>2025-11-23T21:10:30.000Z</time></trkpt>
        <trkpt lat="28.667326" lon="105.384074"><ele>428.317</ele><time>2025-11-23T21:10:36.000Z</time></trkpt>
        <trkpt lat="28.66727" lon="105.384074"><ele>428.46133</ele><time>2025-11-23T21:10:41.000Z</time></trkpt>
        <trkpt lat="28.667219" lon="105.384076"><ele>428.3656</ele><time>2025-11-23T21:10:46.000Z</time></trkpt>
        <trkpt lat="28.667174" lon="105.384069"><ele>428.26938</ele><time>2025-11-23T21:10:51.000Z</time></trkpt>
        <trkpt lat="28.667121" lon="105.384082"><ele>427.75818</ele><time>2025-11-23T21:10:56.000Z</time></trkpt>
        <trkpt lat="28.66707" lon="105.384089"><ele>427.49338</ele><time>2025-11-23T21:11:01.000Z</time></trkpt>
        <trkpt lat="28.667025" lon="105.384102"><ele>427.03198</ele><time>2025-11-23T21:11:06.000Z</time></trkpt>
        <trkpt lat="28.666974" lon="105.384102"><ele>426.5977</ele><time>2025-11-23T21:11:41.000Z</time></trkpt>
        <trkpt lat="28.666925" lon="105.384122"><ele>425.51645</ele><time>2025-11-23T21:11:51.000Z</time></trkpt>
        <trkpt lat="28.666876" lon="105.384135"><ele>424.7688</ele><time>2025-11-23T21:11:56.000Z</time></trkpt>
        <trkpt lat="28.666823" lon="105.384145"><ele>425.04434</ele><time>2025-11-23T21:12:01.000Z</time></trkpt>
        <trkpt lat="28.666773" lon="105.384154"><ele>423.63226</ele><time>2025-11-23T21:12:06.000Z</time></trkpt>
        <trkpt lat="28.666729" lon="105.384167"><ele>421.95523</ele><time>2025-11-23T21:12:10.000Z</time></trkpt>
        <trkpt lat="28.666687" lon="105.384198"><ele>421.07993</ele><time>2025-11-23T21:12:15.000Z</time></trkpt>
        <trkpt lat="28.66666" lon="105.384151"><ele>422.6776</ele><time>2025-11-23T21:12:19.000Z</time></trkpt>
        <trkpt lat="28.666634" lon="105.3842"><ele>421.13562</ele><time>2025-11-23T21:12:49.000Z</time></trkpt>
        <trkpt lat="28.666595" lon="105.384229"><ele>420.89774</ele><time>2025-11-23T21:12:53.000Z</time></trkpt>
        <trkpt lat="28.666547" lon="105.384256"><ele>420.2955</ele><time>2025-11-23T21:12:58.000Z</time></trkpt>
        <trkpt lat="28.666502" lon="105.384285"><ele>419.84433</ele><time>2025-11-23T21:13:02.000Z</time></trkpt>
        <trkpt lat="28.66645" lon="105.384304"><ele>418.70972</ele><time>2025-11-23T21:13:07.000Z</time></trkpt>
        <trkpt lat="28.666395" lon="105.38433"><ele>417.5966</ele><time>2025-11-23T21:13:12.000Z</time></trkpt>
        <trkpt lat="28.666352" lon="105.384352"><ele>415.84622</ele><time>2025-11-23T21:13:16.000Z</time></trkpt>
        <trkpt lat="28.666306" lon="105.384346"><ele>414.77524</ele><time>2025-11-23T21:13:19.000Z</time></trkpt>
        <trkpt lat="28.666255" lon="105.384346"><ele>413.13086</ele><time>2025-11-23T21:13:23.000Z</time></trkpt>
        <trkpt lat="28.666206" lon="105.38437"><ele>409.3933</ele><time>2025-11-23T21:13:27.000Z</time></trkpt>
        <trkpt lat="28.666157" lon="105.384365"><ele>409.49203</ele><time>2025-11-23T21:13:30.000Z</time></trkpt>
        <trkpt lat="28.66611" lon="105.384352"><ele>407.40146</ele><time>2025-11-23T21:13:33.000Z</time></trkpt>
        <trkpt lat="28.666062" lon="105.38433"><ele>408.42667</ele><time>2025-11-23T21:13:36.000Z</time></trkpt>
        <trkpt lat="28.66604" lon="105.384273"><ele>405.11435</ele><time>2025-11-23T21:13:39.000Z</time></trkpt>
        <trkpt lat="28.66603" lon="105.384211"><ele>403.689</ele><time>2025-11-23T21:13:43.000Z</time></trkpt>
        <trkpt lat="28.666024" lon="105.384155"><ele>403.078</ele><time>2025-11-23T21:13:47.000Z</time></trkpt>
        <trkpt lat="28.66604" lon="105.384105"><ele>400.73373</ele><time>2025-11-23T21:13:51.000Z</time></trkpt>
        <trkpt lat="28.666062" lon="105.384055"><ele>397.89664</ele><time>2025-11-23T21:13:55.000Z</time></trkpt>
        <trkpt lat="28.666071" lon="105.384005"><ele>398.7871</ele><time>2025-11-23T21:13:58.000Z</time></trkpt>
        <trkpt lat="28.66609" lon="105.383947"><ele>397.90784</ele><time>2025-11-23T21:14:14.000Z</time></trkpt>
        <trkpt lat="28.666109" lon="105.383891"><ele>398.5023</ele><time>2025-11-23T21:14:27.000Z</time></trkpt>
        <trkpt lat="28.666111" lon="105.383824"><ele>396.31723</ele><time>2025-11-23T21:14:32.000Z</time></trkpt>
        <trkpt lat="28.666108" lon="105.383769"><ele>395.5868</ele><time>2025-11-23T21:14:35.000Z</time></trkpt>
        <trkpt lat="28.666097" lon="105.383708"><ele>394.62045</ele><time>2025-11-23T21:14:39.000Z</time></trkpt>
        <trkpt lat="28.666109" lon="105.383653"><ele>393.55273</ele><time>2025-11-23T21:14:43.000Z</time></trkpt>
        <trkpt lat="28.666117" lon="105.383597"><ele>393.5237</ele><time>2025-11-23T21:14:47.000Z</time></trkpt>
        <trkpt lat="28.666124" lon="105.383543"><ele>394.47842</ele><time>2025-11-23T21:14:50.000Z</time></trkpt>
        <trkpt lat="28.666139" lon="105.383493"><ele>394.4251</ele><time>2025-11-23T21:14:54.000Z</time></trkpt>
        <trkpt lat="28.66617" lon="105.383425"><ele>392.88925</ele><time>2025-11-23T21:14:59.000Z</time></trkpt>
        <trkpt lat="28.666204" lon="105.383383"><ele>392.7976</ele><time>2025-11-23T21:15:03.000Z</time></trkpt>
        <trkpt lat="28.666236" lon="105.383345"><ele>391.1069</ele><time>2025-11-23T21:15:07.000Z</time></trkpt>
        <trkpt lat="28.666292" lon="105.383337"><ele>391.09384</ele><time>2025-11-23T21:15:12.000Z</time></trkpt>
        <trkpt lat="28.666329" lon="105.383302"><ele>393.7686</ele><time>2025-11-23T21:15:16.000Z</time></trkpt>
        <trkpt lat="28.666296" lon="105.383238"><ele>393.66193</ele><time>2025-11-23T21:16:00.000Z</time></trkpt>
        <trkpt lat="28.66635" lon="105.383283"><ele>393.36008</ele><time>2025-11-23T21:16:01.000Z</time></trkpt>
        <trkpt lat="28.666402" lon="105.383295"><ele>392.81207</ele><time>2025-11-23T21:16:06.000Z</time></trkpt>
        <trkpt lat="28.66645" lon="105.383303"><ele>392.27737</ele><time>2025-11-23T21:16:10.000Z</time></trkpt>
        <trkpt lat="28.666506" lon="105.383318"><ele>392.57883</ele><time>2025-11-23T21:16:14.000Z</time></trkpt>
        <trkpt lat="28.666559" lon="105.38332"><ele>394.0559</ele><time>2025-11-23T21:16:19.000Z</time></trkpt>
        <trkpt lat="28.666619" lon="105.383315"><ele>396.8737</ele><time>2025-11-23T21:16:24.000Z</time></trkpt>
        <trkpt lat="28.666666" lon="105.383327"><ele>397.84482</ele><time>2025-11-23T21:16:27.000Z</time></trkpt>
        <trkpt lat="28.66671" lon="105.383344"><ele>397.18594</ele><time>2025-11-23T21:16:30.000Z</time></trkpt>
        <trkpt lat="28.666756" lon="105.383377"><ele>398.41138</ele><time>2025-11-23T21:16:34.000Z</time></trkpt>
        <trkpt lat="28.666812" lon="105.383385"><ele>399.21982</ele><time>2025-11-23T21:16:39.000Z</time></trkpt>
        <trkpt lat="28.66686" lon="105.383385"><ele>400.39877</ele><time>2025-11-23T21:16:42.000Z</time></trkpt>
        <trkpt lat="28.666907" lon="105.383366"><ele>400.3469</ele><time>2025-11-23T21:16:45.000Z</time></trkpt>
        <trkpt lat="28.666969" lon="105.383344"><ele>398.94913</ele><time>2025-11-23T21:16:49.000Z</time></trkpt>
        <trkpt lat="28.667019" lon="105.383339"><ele>397.60898</ele><time>2025-11-23T21:16:52.000Z</time></trkpt>
        <trkpt lat="28.667064" lon="105.38335"><ele>396.15118</ele><time>2025-11-23T21:16:56.000Z</time></trkpt>
        <trkpt lat="28.667112" lon="105.383375"><ele>398.61404</ele><time>2025-11-23T21:17:00.000Z</time></trkpt>
        <trkpt lat="28.66716" lon="105.383394"><ele>398.1871</ele><time>2025-11-23T21:17:04.000Z</time></trkpt>
        <trkpt lat="28.667214" lon="105.383389"><ele>399.2475</ele><time>2025-11-23T21:17:08.000Z</time></trkpt>
        <trkpt lat="28.667265" lon="105.383374"><ele>399.4162</ele><time>2025-11-23T21:17:12.000Z</time></trkpt>
        <trkpt lat="28.667311" lon="105.383337"><ele>399.77637</ele><time>2025-11-23T21:17:15.000Z</time></trkpt>
        <trkpt lat="28.667354" lon="105.383319"><ele>400.82593</ele><time>2025-11-23T21:17:19.000Z</time></trkpt>
        <trkpt lat="28.667408" lon="105.383341"><ele>394.76633</ele><time>2025-11-23T21:17:57.000Z</time></trkpt>
        <trkpt lat="28.667457" lon="105.383332"><ele>393.71924</ele><time>2025-11-23T21:18:03.000Z</time></trkpt>
        <trkpt lat="28.667511" lon="105.383317"><ele>393.86816</ele><time>2025-11-23T21:18:08.000Z</time></trkpt>
        <trkpt lat="28.667558" lon="105.383313"><ele>392.98175</ele><time>2025-11-23T21:18:12.000Z</time></trkpt>
        <trkpt lat="28.667606" lon="105.383296"><ele>391.0688</ele><time>2025-11-23T21:18:17.000Z</time></trkpt>
        <trkpt lat="28.667652" lon="105.383291"><ele>390.37894</ele><time>2025-11-23T21:18:21.000Z</time></trkpt>
        <trkpt lat="28.667686" lon="105.383255"><ele>391.1203</ele><time>2025-11-23T21:18:27.000Z</time></trkpt>
        <trkpt lat="28.667733" lon="105.383258"><ele>391.8533</ele><time>2025-11-23T21:18:44.000Z</time></trkpt>
        <trkpt lat="28.667783" lon="105.383255"><ele>389.44308</ele><time>2025-11-23T21:18:51.000Z</time></trkpt>
        <trkpt lat="28.667833" lon="105.383247"><ele>388.51352</ele><time>2025-11-23T21:18:56.000Z</time></trkpt>
        <trkpt lat="28.667889" lon="105.383245"><ele>387.36087</ele><time>2025-11-23T21:19:01.000Z</time></trkpt>
        <trkpt lat="28.66794" lon="105.383237"><ele>386.67905</ele><time>2025-11-23T21:19:10.000Z</time></trkpt>
        <trkpt lat="28.667992" lon="105.383215"><ele>385.827</ele><time>2025-11-23T21:19:15.000Z</time></trkpt>
        <trkpt lat="28.668034" lon="105.383187"><ele>384.91394</ele><time>2025-11-23T21:19:19.000Z</time></trkpt>
        <trkpt lat="28.66808" lon="105.383197"><ele>385.5655</ele><time>2025-11-23T21:20:09.000Z</time></trkpt>
        <trkpt lat="28.668128" lon="105.383171"><ele>384.61002</ele><time>2025-11-23T21:20:15.000Z</time></trkpt>
        <trkpt lat="28.668178" lon="105.383149"><ele>383.6921</ele><time>2025-11-23T21:20:20.000Z</time></trkpt>
        <trkpt lat="28.668218" lon="105.383121"><ele>382.89377</ele><time>2025-11-23T21:20:24.000Z</time></trkpt>
        <trkpt lat="28.668266" lon="105.383076"><ele>383.0515</ele><time>2025-11-23T21:20:28.000Z</time></trkpt>
        <trkpt lat="28.668303" lon="105.383025"><ele>382.65128</ele><time>2025-11-23T21:20:31.000Z</time></trkpt>
        <trkpt lat="28.668344" lon="105.382992"><ele>380.13705</ele><time>2025-11-23T21:20:36.000Z</time></trkpt>
        <trkpt lat="28.668396" lon="105.382962"><ele>378.4337</ele><time>2025-11-23T21:20:41.000Z</time></trkpt>
        <trkpt lat="28.668432" lon="105.382932"><ele>377.3193</ele><time>2025-11-23T21:20:44.000Z</time></trkpt>
        <trkpt lat="28.668471" lon="105.3829"><ele>378.14185</ele><time>2025-11-23T21:20:48.000Z</time></trkpt>
        <trkpt lat="28.66852" lon="105.382901"><ele>377.7851</ele><time>2025-11-23T21:20:52.000Z</time></trkpt>
        <trkpt lat="28.668565" lon="105.382884"><ele>375.06427</ele><time>2025-11-23T21:20:57.000Z</time></trkpt>
        <trkpt lat="28.668605" lon="105.382848"><ele>374.96783</ele><time>2025-11-23T21:21:04.000Z</time></trkpt>
        <trkpt lat="28.66865" lon="105.382827"><ele>374.52148</ele><time>2025-11-23T21:21:09.000Z</time></trkpt>
        <trkpt lat="28.668687" lon="105.382797"><ele>374.1834</ele><time>2025-11-23T21:21:13.000Z</time></trkpt>
        <trkpt lat="28.668733" lon="105.382771"><ele>374.38223</ele><time>2025-11-23T21:21:18.000Z</time></trkpt>
        <trkpt lat="28.668786" lon="105.382755"><ele>374.15155</ele><time>2025-11-23T21:21:23.000Z</time></trkpt>
        <trkpt lat="28.668831" lon="105.382737"><ele>372.6748</ele><time>2025-11-23T21:21:28.000Z</time></trkpt>
        <trkpt lat="28.668873" lon="105.382711"><ele>371.37134</ele><time>2025-11-23T21:21:32.000Z</time></trkpt>
        <trkpt lat="28.668917" lon="105.382675"><ele>371.21365</ele><time>2025-11-23T21:21:36.000Z</time></trkpt>
        <trkpt lat="28.668971" lon="105.382662"><ele>370.66003</ele><time>2025-11-23T21:21:42.000Z</time></trkpt>
        <trkpt lat="28.669021" lon="105.382633"><ele>369.80182</ele><time>2025-11-23T21:21:47.000Z</time></trkpt>
        <trkpt lat="28.669065" lon="105.382611"><ele>369.16745</ele><time>2025-11-23T21:21:52.000Z</time></trkpt>
        <trkpt lat="28.669115" lon="105.382574"><ele>368.58978</ele><time>2025-11-23T21:21:56.000Z</time></trkpt>
        <trkpt lat="28.669163" lon="105.382587"><ele>370.1615</ele><time>2025-11-23T21:22:00.000Z</time></trkpt>
        <trkpt lat="28.669216" lon="105.382574"><ele>368.96555</ele><time>2025-11-23T21:22:04.000Z</time></trkpt>
        <trkpt lat="28.669268" lon="105.382548"><ele>368.33456</ele><time>2025-11-23T21:22:08.000Z</time></trkpt>
        <trkpt lat="28.669319" lon="105.382523"><ele>368.65097</ele><time>2025-11-23T21:22:11.000Z</time></trkpt>
        <trkpt lat="28.669371" lon="105.382509"><ele>369.22113</ele><time>2025-11-23T21:22:15.000Z</time></trkpt>
        <trkpt lat="28.669403" lon="105.382471"><ele>370.33435</ele><time>2025-11-23T21:22:24.000Z</time></trkpt>
        <trkpt lat="28.669447" lon="105.382446"><ele>369.48447</ele><time>2025-11-23T21:22:29.000Z</time></trkpt>
        <trkpt lat="28.669479" lon="105.382405"><ele>368.88785</ele><time>2025-11-23T21:22:32.000Z</time></trkpt>
        <trkpt lat="28.66953" lon="105.382374"><ele>366.7118</ele><time>2025-11-23T21:22:36.000Z</time></trkpt>
        <trkpt lat="28.66957" lon="105.382348"><ele>365.2992</ele><time>2025-11-23T21:22:40.000Z</time></trkpt>
        <trkpt lat="28.669614" lon="105.382325"><ele>364.36542</ele><time>2025-11-23T21:22:44.000Z</time></trkpt>
        <trkpt lat="28.669658" lon="105.382297"><ele>362.94495</ele><time>2025-11-23T21:22:49.000Z</time></trkpt>
        <trkpt lat="28.669707" lon="105.382266"><ele>363.0218</ele><time>2025-11-23T21:22:54.000Z</time></trkpt>
        <trkpt lat="28.669746" lon="105.38224"><ele>362.47192</ele><time>2025-11-23T21:22:58.000Z</time></trkpt>
        <trkpt lat="28.669802" lon="105.382225"><ele>362.24103</ele><time>2025-11-23T21:23:02.000Z</time></trkpt>
        <trkpt lat="28.669854" lon="105.382198"><ele>361.985</ele><time>2025-11-23T21:23:06.000Z</time></trkpt>
        <trkpt lat="28.669904" lon="105.382175"><ele>361.493</ele><time>2025-11-23T21:23:10.000Z</time></trkpt>
        <trkpt lat="28.669936" lon="105.382129"><ele>363.0486</ele><time>2025-11-23T21:23:13.000Z</time></trkpt>
        <trkpt lat="28.669967" lon="105.382084"><ele>361.15436</ele><time>2025-11-23T21:23:17.000Z</time></trkpt>
        <trkpt lat="28.670019" lon="105.382076"><ele>359.18512</ele><time>2025-11-23T21:23:21.000Z</time></trkpt>
        <trkpt lat="28.670068" lon="105.382062"><ele>357.8647</ele><time>2025-11-23T21:23:25.000Z</time></trkpt>
        <trkpt lat="28.670115" lon="105.382047"><ele>359.13092</ele><time>2025-11-23T21:23:29.000Z</time></trkpt>
        <trkpt lat="28.670163" lon="105.382014"><ele>357.36176</ele><time>2025-11-23T21:23:33.000Z</time></trkpt>
        <trkpt lat="28.670206" lon="105.381971"><ele>358.2799</ele><time>2025-11-23T21:23:37.000Z</time></trkpt>
        <trkpt lat="28.670256" lon="105.381952"><ele>356.8344</ele><time>2025-11-23T21:23:41.000Z</time></trkpt>
        <trkpt lat="28.670301" lon="105.38192"><ele>355.38235</ele><time>2025-11-23T21:23:45.000Z</time></trkpt>
        <trkpt lat="28.670341" lon="105.381896"><ele>355.25604</ele><time>2025-11-23T21:23:48.000Z</time></trkpt>
        <trkpt lat="28.670387" lon="105.381869"><ele>354.14343</ele><time>2025-11-23T21:23:52.000Z</time></trkpt>
        <trkpt lat="28.67042" lon="105.381829"><ele>352.1765</ele><time>2025-11-23T21:23:57.000Z</time></trkpt>
        <trkpt lat="28.67046" lon="105.381794"><ele>351.64944</ele><time>2025-11-23T21:24:01.000Z</time></trkpt>
        <trkpt lat="28.670502" lon="105.381764"><ele>350.69827</ele><time>2025-11-23T21:24:05.000Z</time></trkpt>
        <trkpt lat="28.670545" lon="105.381726"><ele>350.93933</ele><time>2025-11-23T21:24:19.000Z</time></trkpt>
        <trkpt lat="28.670595" lon="105.381699"><ele>350.53104</ele><time>2025-11-23T21:24:23.000Z</time></trkpt>
        <trkpt lat="28.670643" lon="105.381665"><ele>349.7397</ele><time>2025-11-23T21:24:27.000Z</time></trkpt>
        <trkpt lat="28.670702" lon="105.38165"><ele>348.00665</ele><time>2025-11-23T21:24:31.000Z</time></trkpt>
        <trkpt lat="28.670746" lon="105.381629"><ele>348.4183</ele><time>2025-11-23T21:24:34.000Z</time></trkpt>
        <trkpt lat="28.670794" lon="105.381593"><ele>348.2568</ele><time>2025-11-23T21:24:38.000Z</time></trkpt>
        <trkpt lat="28.67084" lon="105.381572"><ele>348.12003</ele><time>2025-11-23T21:24:42.000Z</time></trkpt>
        <trkpt lat="28.670874" lon="105.381535"><ele>346.6885</ele><time>2025-11-23T21:24:46.000Z</time></trkpt>
        <trkpt lat="28.670908" lon="105.381489"><ele>345.99548</ele><time>2025-11-23T21:24:50.000Z</time></trkpt>
        <trkpt lat="28.670937" lon="105.381447"><ele>348.09857</ele><time>2025-11-23T21:24:54.000Z</time></trkpt>
        <trkpt lat="28.670972" lon="105.381415"><ele>346.36084</ele><time>2025-11-23T21:24:58.000Z</time></trkpt>
        <trkpt lat="28.670984" lon="105.381363"><ele>349.0194</ele><time>2025-11-23T21:25:12.000Z</time></trkpt>
        <trkpt lat="28.671014" lon="105.381325"><ele>348.42545</ele><time>2025-11-23T21:25:15.000Z</time></trkpt>
        <trkpt lat="28.671043" lon="105.381274"><ele>348.50598</ele><time>2025-11-23T21:25:19.000Z</time></trkpt>
        <trkpt lat="28.671064" lon="105.381207"><ele>345.93793</ele><time>2025-11-23T21:25:23.000Z</time></trkpt>
        <trkpt lat="28.67109" lon="105.381161"><ele>344.3138</ele><time>2025-11-23T21:25:26.000Z</time></trkpt>
        <trkpt lat="28.67111" lon="105.381105"><ele>341.1894</ele><time>2025-11-23T21:25:30.000Z</time></trkpt>
        <trkpt lat="28.671139" lon="105.38106"><ele>339.41092</ele><time>2025-11-23T21:25:59.000Z</time></trkpt>
        <trkpt lat="28.671151" lon="105.381008"><ele>339.03244</ele><time>2025-11-23T21:26:02.000Z</time></trkpt>
        <trkpt lat="28.671169" lon="105.380953"><ele>337.32373</ele><time>2025-11-23T21:26:06.000Z</time></trkpt>
        <trkpt lat="28.67119" lon="105.380889"><ele>335.57657</ele><time>2025-11-23T21:26:10.000Z</time></trkpt>
        <trkpt lat="28.6712" lon="105.380837"><ele>335.29492</ele><time>2025-11-23T21:26:13.000Z</time></trkpt>
        <trkpt lat="28.671183" lon="105.380776"><ele>333.66513</ele><time>2025-11-23T21:26:17.000Z</time></trkpt>
        <trkpt lat="28.67117" lon="105.380716"><ele>332.91345</ele><time>2025-11-23T21:26:21.000Z</time></trkpt>
        <trkpt lat="28.671154" lon="105.380667"><ele>329.80255</ele><time>2025-11-23T21:26:32.000Z</time></trkpt>
        <trkpt lat="28.671136" lon="105.380615"><ele>329.16824</ele><time>2025-11-23T21:26:36.000Z</time></trkpt>
        <trkpt lat="28.671117" lon="105.380567"><ele>329.1424</ele><time>2025-11-23T21:26:39.000Z</time></trkpt>
        <trkpt lat="28.671077" lon="105.380539"><ele>329.58316</ele><time>2025-11-23T21:26:48.000Z</time></trkpt>
        <trkpt lat="28.671037" lon="105.380504"><ele>328.8757</ele><time>2025-11-23T21:26:52.000Z</time></trkpt>
        <trkpt lat="28.670997" lon="105.380463"><ele>328.61407</ele><time>2025-11-23T21:26:57.000Z</time></trkpt>
        <trkpt lat="28.670949" lon="105.380435"><ele>327.7844</ele><time>2025-11-23T21:27:01.000Z</time></trkpt>
        <trkpt lat="28.670906" lon="105.380402"><ele>325.33765</ele><time>2025-11-23T21:27:06.000Z</time></trkpt>
        <trkpt lat="28.670862" lon="105.380381"><ele>325.28616</ele><time>2025-11-23T21:27:09.000Z</time></trkpt>
        <trkpt lat="28.670814" lon="105.380364"><ele>323.7717</ele><time>2025-11-23T21:27:13.000Z</time></trkpt>
        <trkpt lat="28.670761" lon="105.380355"><ele>322.51105</ele><time>2025-11-23T21:27:17.000Z</time></trkpt>
        <trkpt lat="28.670714" lon="105.380376"><ele>321.3582</ele><time>2025-11-23T21:27:20.000Z</time></trkpt>
        <trkpt lat="28.670673" lon="105.380405"><ele>320.1664</ele><time>2025-11-23T21:27:24.000Z</time></trkpt>
        <trkpt lat="28.670625" lon="105.380441"><ele>319.06012</ele><time>2025-11-23T21:27:32.000Z</time></trkpt>
        <trkpt lat="28.670593" lon="105.380485"><ele>318.06363</ele><time>2025-11-23T21:27:35.000Z</time></trkpt>
        <trkpt lat="28.670562" lon="105.380525"><ele>317.1007</ele><time>2025-11-23T21:27:38.000Z</time></trkpt>
        <trkpt lat="28.670518" lon="105.380571"><ele>316.24634</ele><time>2025-11-23T21:27:42.000Z</time></trkpt>
        <trkpt lat="28.670477" lon="105.380617"><ele>315.94513</ele><time>2025-11-23T21:27:46.000Z</time></trkpt>
        <trkpt lat="28.670435" lon="105.380637"><ele>315.49658</ele><time>2025-11-23T21:27:49.000Z</time></trkpt>
        <trkpt lat="28.670385" lon="105.380647"><ele>316.6005</ele><time>2025-11-23T21:27:53.000Z</time></trkpt>
        <trkpt lat="28.670341" lon="105.380664"><ele>316.57126</ele><time>2025-11-23T21:27:57.000Z</time></trkpt>
        <trkpt lat="28.670296" lon="105.380654"><ele>317.36444</ele><time>2025-11-23T21:28:01.000Z</time></trkpt>
        <trkpt lat="28.67025" lon="105.380637"><ele>318.21738</ele><time>2025-11-23T21:28:05.000Z</time></trkpt>
        <trkpt lat="28.670204" lon="105.380661"><ele>316.6759</ele><time>2025-11-23T21:28:08.000Z</time></trkpt>
        <trkpt lat="28.670154" lon="105.380665"><ele>316.0624</ele><time>2025-11-23T21:28:11.000Z</time></trkpt>
        <trkpt lat="28.670101" lon="105.38068"><ele>315.7978</ele><time>2025-11-23T21:28:15.000Z</time></trkpt>
        <trkpt lat="28.670048" lon="105.380682"><ele>315.9551</ele><time>2025-11-23T21:28:19.000Z</time></trkpt>
        <trkpt lat="28.670001" lon="105.380686"><ele>313.92014</ele><time>2025-11-23T21:28:23.000Z</time></trkpt>
        <trkpt lat="28.669956" lon="105.380693"><ele>313.47803</ele><time>2025-11-23T21:28:26.000Z</time></trkpt>
        <trkpt lat="28.669924" lon="105.380738"><ele>316.09695</ele><time>2025-11-23T21:28:30.000Z</time></trkpt>
        <trkpt lat="28.669866" lon="105.380759"><ele>315.05502</ele><time>2025-11-23T21:28:34.000Z</time></trkpt>
        <trkpt lat="28.669816" lon="105.38078"><ele>315.57346</ele><time>2025-11-23T21:28:38.000Z</time></trkpt>
        <trkpt lat="28.669772" lon="105.380792"><ele>315.61896</ele><time>2025-11-23T21:28:41.000Z</time></trkpt>
        <trkpt lat="28.669727" lon="105.380815"><ele>313.77438</ele><time>2025-11-23T21:28:45.000Z</time></trkpt>
        <trkpt lat="28.66968" lon="105.380835"><ele>314.9023</ele><time>2025-11-23T21:28:49.000Z</time></trkpt>
        <trkpt lat="28.669633" lon="105.380841"><ele>313.52927</ele><time>2025-11-23T21:28:52.000Z</time></trkpt>
        <trkpt lat="28.669585" lon="105.380839"><ele>314.12033</ele><time>2025-11-23T21:28:55.000Z</time></trkpt>
        <trkpt lat="28.669527" lon="105.380841"><ele>315.30872</ele><time>2025-11-23T21:28:59.000Z</time></trkpt>
        <trkpt lat="28.669476" lon="105.38084"><ele>317.11005</ele><time>2025-11-23T21:29:03.000Z</time></trkpt>
        <trkpt lat="28.669438" lon="105.380809"><ele>318.01785</ele><time>2025-11-23T21:29:07.000Z</time></trkpt>
        <trkpt lat="28.669387" lon="105.380794"><ele>318.05792</ele><time>2025-11-23T21:29:11.000Z</time></trkpt>
        <trkpt lat="28.669338" lon="105.380768"><ele>318.19852</ele><time>2025-11-23T21:29:15.000Z</time></trkpt>
        <trkpt lat="28.669292" lon="105.380787"><ele>318.9689</ele><time>2025-11-23T21:29:19.000Z</time></trkpt>
        <trkpt lat="28.669237" lon="105.380795"><ele>318.4864</ele><time>2025-11-23T21:29:23.000Z</time></trkpt>
        <trkpt lat="28.669175" lon="105.380805"><ele>318.56516</ele><time>2025-11-23T21:29:32.000Z</time></trkpt>
        <trkpt lat="28.669125" lon="105.380818"><ele>320.24713</ele><time>2025-11-23T21:29:36.000Z</time></trkpt>
        <trkpt lat="28.669073" lon="105.380837"><ele>320.67236</ele><time>2025-11-23T21:29:40.000Z</time></trkpt>
        <trkpt lat="28.669029" lon="105.380866"><ele>320.65863</ele><time>2025-11-23T21:29:44.000Z</time></trkpt>
        <trkpt lat="28.669065" lon="105.380936"><ele>320.84048</ele><time>2025-11-23T21:30:57.000Z</time></trkpt>
        <trkpt lat="28.669043" lon="105.381004"><ele>321.3511</ele><time>2025-11-23T21:31:00.000Z</time></trkpt>
        <trkpt lat="28.668986" lon="105.381058"><ele>321.7099</ele><time>2025-11-23T21:31:02.000Z</time></trkpt>
        <trkpt lat="28.668922" lon="105.381098"><ele>321.58008</ele><time>2025-11-23T21:31:04.000Z</time></trkpt>
        <trkpt lat="28.668874" lon="105.381135"><ele>321.90463</ele><time>2025-11-23T21:31:06.000Z</time></trkpt>
        <trkpt lat="28.668832" lon="105.381166"><ele>321.4786</ele><time>2025-11-23T21:31:08.000Z</time></trkpt>
        <trkpt lat="28.668782" lon="105.381196"><ele>321.1371</ele><time>2025-11-23T21:31:11.000Z</time></trkpt>
        <trkpt lat="28.668734" lon="105.381214"><ele>321.4563</ele><time>2025-11-23T21:31:13.000Z</time></trkpt>
        <trkpt lat="28.668689" lon="105.381232"><ele>321.7471</ele><time>2025-11-23T21:31:15.000Z</time></trkpt>
        <trkpt lat="28.668628" lon="105.381259"><ele>320.83038</ele><time>2025-11-23T21:31:18.000Z</time></trkpt>
        <trkpt lat="28.668578" lon="105.381275"><ele>320.56256</ele><time>2025-11-23T21:31:20.000Z</time></trkpt>
        <trkpt lat="28.668521" lon="105.381289"><ele>319.9751</ele><time>2025-11-23T21:31:22.000Z</time></trkpt>
        <trkpt lat="28.668446" lon="105.381314"><ele>318.8944</ele><time>2025-11-23T21:31:24.000Z</time></trkpt>
        <trkpt lat="28.668398" lon="105.38133"><ele>318.2658</ele><time>2025-11-23T21:31:25.000Z</time></trkpt>
        <trkpt lat="28.668347" lon="105.381345"><ele>317.74838</ele><time>2025-11-23T21:31:26.000Z</time></trkpt>
        <trkpt lat="28.668295" lon="105.381355"><ele>317.20477</ele><time>2025-11-23T21:31:27.000Z</time></trkpt>
        <trkpt lat="28.668248" lon="105.381364"><ele>316.72928</ele><time>2025-11-23T21:31:28.000Z</time></trkpt>
        <trkpt lat="28.668173" lon="105.381379"><ele>315.84238</ele><time>2025-11-23T21:31:30.000Z</time></trkpt>
        <trkpt lat="28.668098" lon="105.381386"><ele>315.1336</ele><time>2025-11-23T21:31:32.000Z</time></trkpt>
        <trkpt lat="28.668005" lon="105.381387"><ele>315.27646</ele><time>2025-11-23T21:31:34.000Z</time></trkpt>
        <trkpt lat="28.667927" lon="105.381401"><ele>313.1752</ele><time>2025-11-23T21:31:36.000Z</time></trkpt>
        <trkpt lat="28.667873" lon="105.381387"><ele>313.80823</ele><time>2025-11-23T21:31:37.000Z</time></trkpt>
        <trkpt lat="28.667796" lon="105.381401"><ele>313.3161</ele><time>2025-11-23T21:31:39.000Z</time></trkpt>
        <trkpt lat="28.667725" lon="105.381414"><ele>312.9273</ele><time>2025-11-23T21:31:41.000Z</time></trkpt>
        <trkpt lat="28.667658" lon="105.381432"><ele>313.09372</ele><time>2025-11-23T21:31:43.000Z</time></trkpt>
        <trkpt lat="28.667598" lon="105.381456"><ele>312.88345</ele><time>2025-11-23T21:31:45.000Z</time></trkpt>
        <trkpt lat="28.667544" lon="105.381486"><ele>312.71875</ele><time>2025-11-23T21:31:47.000Z</time></trkpt>
        <trkpt lat="28.66749" lon="105.381522"><ele>311.9252</ele><time>2025-11-23T21:31:49.000Z</time></trkpt>
        <trkpt lat="28.667433" lon="105.381569"><ele>311.27914</ele><time>2025-11-23T21:31:51.000Z</time></trkpt>
        <trkpt lat="28.667371" lon="105.381625"><ele>310.6211</ele><time>2025-11-23T21:31:53.000Z</time></trkpt>
        <trkpt lat="28.66732" lon="105.381673"><ele>309.36935</ele><time>2025-11-23T21:31:55.000Z</time></trkpt>
        <trkpt lat="28.667255" lon="105.381712"><ele>308.81396</ele><time>2025-11-23T21:31:57.000Z</time></trkpt>
        <trkpt lat="28.66718" lon="105.381743"><ele>308.3037</ele><time>2025-11-23T21:31:59.000Z</time></trkpt>
        <trkpt lat="28.667127" lon="105.381756"><ele>308.20825</ele><time>2025-11-23T21:32:01.000Z</time></trkpt>
        <trkpt lat="28.667074" lon="105.381769"><ele>307.52112</ele><time>2025-11-23T21:32:03.000Z</time></trkpt>
        <trkpt lat="28.666994" lon="105.381786"><ele>307.4575</ele><time>2025-11-23T21:32:05.000Z</time></trkpt>
        <trkpt lat="28.666921" lon="105.3818"><ele>307.4596</ele><time>2025-11-23T21:32:07.000Z</time></trkpt>
        <trkpt lat="28.666854" lon="105.381805"><ele>307.54395</ele><time>2025-11-23T21:32:09.000Z</time></trkpt>
        <trkpt lat="28.666764" lon="105.381811"><ele>306.74573</ele><time>2025-11-23T21:32:11.000Z</time></trkpt>
        <trkpt lat="28.666708" lon="105.381813"><ele>306.59238</ele><time>2025-11-23T21:32:12.000Z</time></trkpt>
        <trkpt lat="28.666653" lon="105.381816"><ele>306.55252</ele><time>2025-11-23T21:32:13.000Z</time></trkpt>
        <trkpt lat="28.666585" lon="105.381821"><ele>306.64066</ele><time>2025-11-23T21:32:15.000Z</time></trkpt>
        <trkpt lat="28.666523" lon="105.381823"><ele>306.01575</ele><time>2025-11-23T21:32:17.000Z</time></trkpt>
        <trkpt lat="28.666459" lon="105.381819"><ele>305.1121</ele><time>2025-11-23T21:32:19.000Z</time></trkpt>
        <trkpt lat="28.666392" lon="105.381814"><ele>304.0774</ele><time>2025-11-23T21:32:21.000Z</time></trkpt>
        <trkpt lat="28.666319" lon="105.381801"><ele>303.05627</ele><time>2025-11-23T21:32:23.000Z</time></trkpt>
        <trkpt lat="28.66624" lon="105.381773"><ele>301.96204</ele><time>2025-11-23T21:32:25.000Z</time></trkpt>
        <trkpt lat="28.666175" lon="105.381743"><ele>301.21826</ele><time>2025-11-23T21:32:27.000Z</time></trkpt>
        <trkpt lat="28.666113" lon="105.381701"><ele>300.022</ele><time>2025-11-23T21:32:29.000Z</time></trkpt>
        <trkpt lat="28.666066" lon="105.381658"><ele>298.9914</ele><time>2025-11-23T21:32:31.000Z</time></trkpt>
        <trkpt lat="28.666026" lon="105.381617"><ele>297.6194</ele><time>2025-11-23T21:32:33.000Z</time></trkpt>
        <trkpt lat="28.665985" lon="105.381578"><ele>296.58</ele><time>2025-11-23T21:32:35.000Z</time></trkpt>
        <trkpt lat="28.665931" lon="105.381547"><ele>295.16528</ele><time>2025-11-23T21:32:37.000Z</time></trkpt>
        <trkpt lat="28.665857" lon="105.381529"><ele>293.98242</ele><time>2025-11-23T21:32:39.000Z</time></trkpt>
        <trkpt lat="28.665795" lon="105.381523"><ele>292.97678</ele><time>2025-11-23T21:32:41.000Z</time></trkpt>
        <trkpt lat="28.665737" lon="105.381522"><ele>292.09216</ele><time>2025-11-23T21:32:43.000Z</time></trkpt>
        <trkpt lat="28.66568" lon="105.381516"><ele>291.40057</ele><time>2025-11-23T21:32:45.000Z</time></trkpt>
        <trkpt lat="28.665649" lon="105.381473"><ele>290.8126</ele><time>2025-11-23T21:32:47.000Z</time></trkpt>
        <trkpt lat="28.665664" lon="105.381393"><ele>290.08667</ele><time>2025-11-23T21:32:49.000Z</time></trkpt>
        <trkpt lat="28.665698" lon="105.381321"><ele>289.64047</ele><time>2025-11-23T21:32:52.000Z</time></trkpt>
        <trkpt lat="28.66572" lon="105.381243"><ele>289.347</ele><time>2025-11-23T21:32:55.000Z</time></trkpt>
        <trkpt lat="28.665732" lon="105.381186"><ele>289.19415</ele><time>2025-11-23T21:32:57.000Z</time></trkpt>
      </trkseg>
  </trk>
</gpx>